<?xml version="1.0" encoding="UTF-8"?>
<gpx version="1.0" creator="GPSBabel - http://www.gpsbabel.org" xmlns="http://www.topografix.com/GPX/1/0">
  <time>2020-02-25T18:01:22.533Z</time>
  <bounds minlat="17.304999680" minlon="-96.447309210" maxlat="17.326405530" maxlon="-96.437911660"/>
  <trk>
    <name>Capulálpam Hike.Pat.2020-01-25</name>
    <trkseg>
      <trkpt lat="17.315240250" lon="-96.446903490">
        <ele>2056.800</ele>
        <time>2020-01-25T16:24:00Z</time>
      </trkpt>
      <trkpt lat="17.315206880" lon="-96.446940220">
        <ele>2063.900</ele>
        <time>2020-01-25T16:24:01Z</time>
      </trkpt>
      <trkpt lat="17.315196670" lon="-96.446990050">
        <ele>2068.300</ele>
        <time>2020-01-25T16:24:05Z</time>
      </trkpt>
      <trkpt lat="17.315212770" lon="-96.447026080">
        <ele>2068.300</ele>
        <time>2020-01-25T16:26:05Z</time>
      </trkpt>
      <trkpt lat="17.315182720" lon="-96.447004510">
        <ele>2068.100</ele>
        <time>2020-01-25T16:29:12Z</time>
      </trkpt>
      <trkpt lat="17.315174120" lon="-96.446967690">
        <ele>2066.100</ele>
        <time>2020-01-25T16:29:27Z</time>
      </trkpt>
      <trkpt lat="17.315141540" lon="-96.446942120">
        <ele>2068.700</ele>
        <time>2020-01-25T16:29:48Z</time>
      </trkpt>
      <trkpt lat="17.315112000" lon="-96.446917940">
        <ele>2064.800</ele>
        <time>2020-01-25T16:30:10Z</time>
      </trkpt>
      <trkpt lat="17.315127700" lon="-96.446878930">
        <ele>2065.700</ele>
        <time>2020-01-25T16:30:19Z</time>
      </trkpt>
      <trkpt lat="17.315152380" lon="-96.446846720">
        <ele>2065.200</ele>
        <time>2020-01-25T16:30:25Z</time>
      </trkpt>
      <trkpt lat="17.315182740" lon="-96.446824560">
        <ele>2067.100</ele>
        <time>2020-01-25T16:30:34Z</time>
      </trkpt>
      <trkpt lat="17.315215260" lon="-96.446802860">
        <ele>2067.300</ele>
        <time>2020-01-25T16:30:41Z</time>
      </trkpt>
      <trkpt lat="17.315252360" lon="-96.446792970">
        <ele>2068.100</ele>
        <time>2020-01-25T16:30:47Z</time>
      </trkpt>
      <trkpt lat="17.315282610" lon="-96.446763660">
        <ele>2067.200</ele>
        <time>2020-01-25T16:30:55Z</time>
      </trkpt>
      <trkpt lat="17.315308480" lon="-96.446734000">
        <ele>2066.100</ele>
        <time>2020-01-25T16:31:01Z</time>
      </trkpt>
      <trkpt lat="17.315343080" lon="-96.446716670">
        <ele>2064.300</ele>
        <time>2020-01-25T16:31:23Z</time>
      </trkpt>
      <trkpt lat="17.315375530" lon="-96.446691760">
        <ele>2064.200</ele>
        <time>2020-01-25T16:31:31Z</time>
      </trkpt>
      <trkpt lat="17.315408450" lon="-96.446675090">
        <ele>2062.800</ele>
        <time>2020-01-25T16:31:39Z</time>
      </trkpt>
      <trkpt lat="17.315444860" lon="-96.446669520">
        <ele>2062.600</ele>
        <time>2020-01-25T16:31:45Z</time>
      </trkpt>
      <trkpt lat="17.315481440" lon="-96.446666600">
        <ele>2063.300</ele>
        <time>2020-01-25T16:31:50Z</time>
      </trkpt>
      <trkpt lat="17.315517750" lon="-96.446662940">
        <ele>2061.100</ele>
        <time>2020-01-25T16:31:55Z</time>
      </trkpt>
      <trkpt lat="17.315555900" lon="-96.446669100">
        <ele>2061.400</ele>
        <time>2020-01-25T16:32:00Z</time>
      </trkpt>
      <trkpt lat="17.315583980" lon="-96.446693670">
        <ele>2059.500</ele>
        <time>2020-01-25T16:32:06Z</time>
      </trkpt>
      <trkpt lat="17.315611140" lon="-96.446724500">
        <ele>2056.300</ele>
        <time>2020-01-25T16:32:15Z</time>
      </trkpt>
      <trkpt lat="17.315644210" lon="-96.446740930">
        <ele>2056.800</ele>
        <time>2020-01-25T16:32:19Z</time>
      </trkpt>
      <trkpt lat="17.315681350" lon="-96.446755370">
        <ele>2057.000</ele>
        <time>2020-01-25T16:32:23Z</time>
      </trkpt>
      <trkpt lat="17.315714660" lon="-96.446775360">
        <ele>2056.300</ele>
        <time>2020-01-25T16:32:28Z</time>
      </trkpt>
      <trkpt lat="17.315745920" lon="-96.446811630">
        <ele>2055.900</ele>
        <time>2020-01-25T16:32:34Z</time>
      </trkpt>
      <trkpt lat="17.315774500" lon="-96.446845010">
        <ele>2055.600</ele>
        <time>2020-01-25T16:32:39Z</time>
      </trkpt>
      <trkpt lat="17.315798710" lon="-96.446880570">
        <ele>2051.400</ele>
        <time>2020-01-25T16:32:46Z</time>
      </trkpt>
      <trkpt lat="17.315824140" lon="-96.446910290">
        <ele>2050.400</ele>
        <time>2020-01-25T16:32:51Z</time>
      </trkpt>
      <trkpt lat="17.315855430" lon="-96.446935580">
        <ele>2049.800</ele>
        <time>2020-01-25T16:32:56Z</time>
      </trkpt>
      <trkpt lat="17.315881950" lon="-96.446967070">
        <ele>2049.100</ele>
        <time>2020-01-25T16:33:02Z</time>
      </trkpt>
      <trkpt lat="17.315902980" lon="-96.447001420">
        <ele>2047.000</ele>
        <time>2020-01-25T16:33:08Z</time>
      </trkpt>
      <trkpt lat="17.315925810" lon="-96.447038100">
        <ele>2046.500</ele>
        <time>2020-01-25T16:33:14Z</time>
      </trkpt>
      <trkpt lat="17.315949800" lon="-96.447072620">
        <ele>2044.300</ele>
        <time>2020-01-25T16:33:21Z</time>
      </trkpt>
      <trkpt lat="17.315975970" lon="-96.447101670">
        <ele>2044.900</ele>
        <time>2020-01-25T16:33:26Z</time>
      </trkpt>
      <trkpt lat="17.316008940" lon="-96.447127590">
        <ele>2044.600</ele>
        <time>2020-01-25T16:33:32Z</time>
      </trkpt>
      <trkpt lat="17.316035500" lon="-96.447157810">
        <ele>2045.000</ele>
        <time>2020-01-25T16:33:38Z</time>
      </trkpt>
      <trkpt lat="17.316066610" lon="-96.447186610">
        <ele>2044.900</ele>
        <time>2020-01-25T16:33:44Z</time>
      </trkpt>
      <trkpt lat="17.316100820" lon="-96.447209280">
        <ele>2046.000</ele>
        <time>2020-01-25T16:33:49Z</time>
      </trkpt>
      <trkpt lat="17.316135930" lon="-96.447232870">
        <ele>2046.200</ele>
        <time>2020-01-25T16:33:55Z</time>
      </trkpt>
      <trkpt lat="17.316165610" lon="-96.447255570">
        <ele>2046.600</ele>
        <time>2020-01-25T16:34:03Z</time>
      </trkpt>
      <trkpt lat="17.316202500" lon="-96.447277640">
        <ele>2045.400</ele>
        <time>2020-01-25T16:34:09Z</time>
      </trkpt>
      <trkpt lat="17.316241340" lon="-96.447287620">
        <ele>2044.800</ele>
        <time>2020-01-25T16:34:16Z</time>
      </trkpt>
      <trkpt lat="17.316281220" lon="-96.447298350">
        <ele>2046.100</ele>
        <time>2020-01-25T16:34:33Z</time>
      </trkpt>
      <trkpt lat="17.316321250" lon="-96.447306910">
        <ele>2044.700</ele>
        <time>2020-01-25T16:34:40Z</time>
      </trkpt>
      <trkpt lat="17.316360440" lon="-96.447309210">
        <ele>2043.600</ele>
        <time>2020-01-25T16:34:46Z</time>
      </trkpt>
      <trkpt lat="17.316399480" lon="-96.447308470">
        <ele>2044.200</ele>
        <time>2020-01-25T16:34:54Z</time>
      </trkpt>
      <trkpt lat="17.316443150" lon="-96.447303770">
        <ele>2044.800</ele>
        <time>2020-01-25T16:35:02Z</time>
      </trkpt>
      <trkpt lat="17.316482910" lon="-96.447297280">
        <ele>2043.200</ele>
        <time>2020-01-25T16:35:08Z</time>
      </trkpt>
      <trkpt lat="17.316522960" lon="-96.447298200">
        <ele>2042.400</ele>
        <time>2020-01-25T16:35:14Z</time>
      </trkpt>
      <trkpt lat="17.316561780" lon="-96.447285900">
        <ele>2042.400</ele>
        <time>2020-01-25T16:35:19Z</time>
      </trkpt>
      <trkpt lat="17.316594150" lon="-96.447268430">
        <ele>2043.500</ele>
        <time>2020-01-25T16:35:24Z</time>
      </trkpt>
      <trkpt lat="17.316633270" lon="-96.447256990">
        <ele>2043.900</ele>
        <time>2020-01-25T16:35:55Z</time>
      </trkpt>
      <trkpt lat="17.316669440" lon="-96.447242320">
        <ele>2042.700</ele>
        <time>2020-01-25T16:36:01Z</time>
      </trkpt>
      <trkpt lat="17.316698550" lon="-96.447216530">
        <ele>2041.000</ele>
        <time>2020-01-25T16:36:06Z</time>
      </trkpt>
      <trkpt lat="17.316724820" lon="-96.447184110">
        <ele>2041.300</ele>
        <time>2020-01-25T16:36:13Z</time>
      </trkpt>
      <trkpt lat="17.316751980" lon="-96.447152250">
        <ele>2040.800</ele>
        <time>2020-01-25T16:36:27Z</time>
      </trkpt>
      <trkpt lat="17.316763070" lon="-96.447112380">
        <ele>2039.600</ele>
        <time>2020-01-25T16:36:34Z</time>
      </trkpt>
      <trkpt lat="17.316772260" lon="-96.447068900">
        <ele>2037.300</ele>
        <time>2020-01-25T16:36:41Z</time>
      </trkpt>
      <trkpt lat="17.316780640" lon="-96.447027020">
        <ele>2038.300</ele>
        <time>2020-01-25T16:36:46Z</time>
      </trkpt>
      <trkpt lat="17.316778070" lon="-96.446987760">
        <ele>2038.700</ele>
        <time>2020-01-25T16:36:52Z</time>
      </trkpt>
      <trkpt lat="17.316780990" lon="-96.446949420">
        <ele>2039.400</ele>
        <time>2020-01-25T16:36:56Z</time>
      </trkpt>
      <trkpt lat="17.316783990" lon="-96.446906290">
        <ele>2041.700</ele>
        <time>2020-01-25T16:37:01Z</time>
      </trkpt>
      <trkpt lat="17.316778870" lon="-96.446866580">
        <ele>2041.800</ele>
        <time>2020-01-25T16:37:06Z</time>
      </trkpt>
      <trkpt lat="17.316778830" lon="-96.446826110">
        <ele>2041.100</ele>
        <time>2020-01-25T16:37:11Z</time>
      </trkpt>
      <trkpt lat="17.316770350" lon="-96.446785890">
        <ele>2039.800</ele>
        <time>2020-01-25T16:37:17Z</time>
      </trkpt>
      <trkpt lat="17.316771630" lon="-96.446745820">
        <ele>2039.200</ele>
        <time>2020-01-25T16:37:21Z</time>
      </trkpt>
      <trkpt lat="17.316775750" lon="-96.446702150">
        <ele>2039.900</ele>
        <time>2020-01-25T16:37:26Z</time>
      </trkpt>
      <trkpt lat="17.316767570" lon="-96.446665300">
        <ele>2039.000</ele>
        <time>2020-01-25T16:37:31Z</time>
      </trkpt>
      <trkpt lat="17.316759530" lon="-96.446627910">
        <ele>2038.700</ele>
        <time>2020-01-25T16:37:35Z</time>
      </trkpt>
      <trkpt lat="17.316752940" lon="-96.446585410">
        <ele>2038.300</ele>
        <time>2020-01-25T16:37:41Z</time>
      </trkpt>
      <trkpt lat="17.316748160" lon="-96.446543890">
        <ele>2038.400</ele>
        <time>2020-01-25T16:38:04Z</time>
      </trkpt>
      <trkpt lat="17.316755800" lon="-96.446500670">
        <ele>2036.300</ele>
        <time>2020-01-25T16:38:13Z</time>
      </trkpt>
      <trkpt lat="17.316735790" lon="-96.446460330">
        <ele>2034.000</ele>
        <time>2020-01-25T16:38:18Z</time>
      </trkpt>
      <trkpt lat="17.316724400" lon="-96.446420830">
        <ele>2033.100</ele>
        <time>2020-01-25T16:38:21Z</time>
      </trkpt>
      <trkpt lat="17.316718050" lon="-96.446373720">
        <ele>2033.400</ele>
        <time>2020-01-25T16:38:24Z</time>
      </trkpt>
      <trkpt lat="17.316713590" lon="-96.446322660">
        <ele>2031.600</ele>
        <time>2020-01-25T16:38:28Z</time>
      </trkpt>
      <trkpt lat="17.316704180" lon="-96.446284950">
        <ele>2031.400</ele>
        <time>2020-01-25T16:38:31Z</time>
      </trkpt>
      <trkpt lat="17.316695200" lon="-96.446243840">
        <ele>2030.000</ele>
        <time>2020-01-25T16:38:36Z</time>
      </trkpt>
      <trkpt lat="17.316681100" lon="-96.446207070">
        <ele>2029.800</ele>
        <time>2020-01-25T16:38:41Z</time>
      </trkpt>
      <trkpt lat="17.316666200" lon="-96.446169950">
        <ele>2028.400</ele>
        <time>2020-01-25T16:38:47Z</time>
      </trkpt>
      <trkpt lat="17.316667050" lon="-96.446130730">
        <ele>2027.600</ele>
        <time>2020-01-25T16:38:53Z</time>
      </trkpt>
      <trkpt lat="17.316657810" lon="-96.446094110">
        <ele>2026.500</ele>
        <time>2020-01-25T16:38:58Z</time>
      </trkpt>
      <trkpt lat="17.316664040" lon="-96.446052070">
        <ele>2024.900</ele>
        <time>2020-01-25T16:39:04Z</time>
      </trkpt>
      <trkpt lat="17.316671670" lon="-96.446013490">
        <ele>2023.200</ele>
        <time>2020-01-25T16:39:11Z</time>
      </trkpt>
      <trkpt lat="17.316700200" lon="-96.445990050">
        <ele>2022.200</ele>
        <time>2020-01-25T16:39:16Z</time>
      </trkpt>
      <trkpt lat="17.316734390" lon="-96.445971010">
        <ele>2021.200</ele>
        <time>2020-01-25T16:39:22Z</time>
      </trkpt>
      <trkpt lat="17.316769530" lon="-96.445953950">
        <ele>2019.900</ele>
        <time>2020-01-25T16:39:30Z</time>
      </trkpt>
      <trkpt lat="17.316806050" lon="-96.445936590">
        <ele>2018.300</ele>
        <time>2020-01-25T16:39:39Z</time>
      </trkpt>
      <trkpt lat="17.316835950" lon="-96.445911370">
        <ele>2017.800</ele>
        <time>2020-01-25T16:39:46Z</time>
      </trkpt>
      <trkpt lat="17.316873730" lon="-96.445895740">
        <ele>2016.800</ele>
        <time>2020-01-25T16:39:52Z</time>
      </trkpt>
      <trkpt lat="17.316912580" lon="-96.445880040">
        <ele>2017.100</ele>
        <time>2020-01-25T16:39:58Z</time>
      </trkpt>
      <trkpt lat="17.316947790" lon="-96.445867140">
        <ele>2017.000</ele>
        <time>2020-01-25T16:40:05Z</time>
      </trkpt>
      <trkpt lat="17.316987810" lon="-96.445858000">
        <ele>2015.800</ele>
        <time>2020-01-25T16:40:12Z</time>
      </trkpt>
      <trkpt lat="17.317025640" lon="-96.445844360">
        <ele>2014.900</ele>
        <time>2020-01-25T16:40:18Z</time>
      </trkpt>
      <trkpt lat="17.317062230" lon="-96.445837180">
        <ele>2013.800</ele>
        <time>2020-01-25T16:40:23Z</time>
      </trkpt>
      <trkpt lat="17.317098950" lon="-96.445830630">
        <ele>2012.900</ele>
        <time>2020-01-25T16:40:27Z</time>
      </trkpt>
      <trkpt lat="17.317137500" lon="-96.445822420">
        <ele>2012.600</ele>
        <time>2020-01-25T16:40:32Z</time>
      </trkpt>
      <trkpt lat="17.317157100" lon="-96.445787140">
        <ele>2012.300</ele>
        <time>2020-01-25T16:40:38Z</time>
      </trkpt>
      <trkpt lat="17.317143140" lon="-96.445749540">
        <ele>2010.600</ele>
        <time>2020-01-25T16:40:55Z</time>
      </trkpt>
      <trkpt lat="17.317135330" lon="-96.445712750">
        <ele>2011.800</ele>
        <time>2020-01-25T16:41:27Z</time>
      </trkpt>
      <trkpt lat="17.317097800" lon="-96.445709800">
        <ele>2009.200</ele>
        <time>2020-01-25T16:41:52Z</time>
      </trkpt>
      <trkpt lat="17.317060160" lon="-96.445707590">
        <ele>2007.800</ele>
        <time>2020-01-25T16:43:08Z</time>
      </trkpt>
      <trkpt lat="17.317029300" lon="-96.445683350">
        <ele>2009.100</ele>
        <time>2020-01-25T16:43:26Z</time>
      </trkpt>
      <trkpt lat="17.316994460" lon="-96.445663030">
        <ele>2010.800</ele>
        <time>2020-01-25T16:43:39Z</time>
      </trkpt>
      <trkpt lat="17.316973580" lon="-96.445630730">
        <ele>2012.500</ele>
        <time>2020-01-25T16:44:12Z</time>
      </trkpt>
      <trkpt lat="17.316948170" lon="-96.445599010">
        <ele>2014.300</ele>
        <time>2020-01-25T16:45:11Z</time>
      </trkpt>
      <trkpt lat="17.316910790" lon="-96.445594490">
        <ele>2014.800</ele>
        <time>2020-01-25T16:45:23Z</time>
      </trkpt>
      <trkpt lat="17.316875060" lon="-96.445583080">
        <ele>2017.000</ele>
        <time>2020-01-25T16:45:30Z</time>
      </trkpt>
      <trkpt lat="17.316836680" lon="-96.445567710">
        <ele>2019.200</ele>
        <time>2020-01-25T16:45:37Z</time>
      </trkpt>
      <trkpt lat="17.316802430" lon="-96.445581040">
        <ele>2018.900</ele>
        <time>2020-01-25T16:45:43Z</time>
      </trkpt>
      <trkpt lat="17.316765680" lon="-96.445570680">
        <ele>2017.700</ele>
        <time>2020-01-25T16:45:52Z</time>
      </trkpt>
      <trkpt lat="17.316731090" lon="-96.445557550">
        <ele>2017.800</ele>
        <time>2020-01-25T16:46:06Z</time>
      </trkpt>
      <trkpt lat="17.316709290" lon="-96.445526900">
        <ele>2017.100</ele>
        <time>2020-01-25T16:47:28Z</time>
      </trkpt>
      <trkpt lat="17.316714890" lon="-96.445482620">
        <ele>2016.700</ele>
        <time>2020-01-25T16:48:37Z</time>
      </trkpt>
      <trkpt lat="17.316713620" lon="-96.445443260">
        <ele>2020.900</ele>
        <time>2020-01-25T16:49:05Z</time>
      </trkpt>
      <trkpt lat="17.316731790" lon="-96.445405510">
        <ele>2020.800</ele>
        <time>2020-01-25T16:49:11Z</time>
      </trkpt>
      <trkpt lat="17.316748490" lon="-96.445371640">
        <ele>2023.000</ele>
        <time>2020-01-25T16:49:16Z</time>
      </trkpt>
      <trkpt lat="17.316764570" lon="-96.445336210">
        <ele>2021.400</ele>
        <time>2020-01-25T16:49:22Z</time>
      </trkpt>
      <trkpt lat="17.316771470" lon="-96.445297350">
        <ele>2016.500</ele>
        <time>2020-01-25T16:49:29Z</time>
      </trkpt>
      <trkpt lat="17.316741390" lon="-96.445276420">
        <ele>2016.900</ele>
        <time>2020-01-25T16:53:50Z</time>
      </trkpt>
      <trkpt lat="17.316701470" lon="-96.445284730">
        <ele>2018.100</ele>
        <time>2020-01-25T16:57:39Z</time>
      </trkpt>
      <trkpt lat="17.316659580" lon="-96.445290370">
        <ele>2018.800</ele>
        <time>2020-01-25T16:57:47Z</time>
      </trkpt>
      <trkpt lat="17.316622650" lon="-96.445282320">
        <ele>2019.200</ele>
        <time>2020-01-25T16:57:58Z</time>
      </trkpt>
      <trkpt lat="17.316588360" lon="-96.445301640">
        <ele>2022.700</ele>
        <time>2020-01-25T16:58:13Z</time>
      </trkpt>
      <trkpt lat="17.316559610" lon="-96.445278560">
        <ele>2023.600</ele>
        <time>2020-01-25T16:58:18Z</time>
      </trkpt>
      <trkpt lat="17.316531540" lon="-96.445245450">
        <ele>2024.300</ele>
        <time>2020-01-25T16:58:28Z</time>
      </trkpt>
      <trkpt lat="17.316505000" lon="-96.445215680">
        <ele>2023.800</ele>
        <time>2020-01-25T16:58:35Z</time>
      </trkpt>
      <trkpt lat="17.316478050" lon="-96.445187230">
        <ele>2025.700</ele>
        <time>2020-01-25T16:58:43Z</time>
      </trkpt>
      <trkpt lat="17.316441350" lon="-96.445179970">
        <ele>2028.000</ele>
        <time>2020-01-25T16:58:54Z</time>
      </trkpt>
      <trkpt lat="17.316412710" lon="-96.445149170">
        <ele>2027.800</ele>
        <time>2020-01-25T16:59:05Z</time>
      </trkpt>
      <trkpt lat="17.316380470" lon="-96.445130770">
        <ele>2027.900</ele>
        <time>2020-01-25T16:59:11Z</time>
      </trkpt>
      <trkpt lat="17.316378060" lon="-96.445089060">
        <ele>2026.900</ele>
        <time>2020-01-25T16:59:18Z</time>
      </trkpt>
      <trkpt lat="17.316372770" lon="-96.445047720">
        <ele>2027.600</ele>
        <time>2020-01-25T16:59:33Z</time>
      </trkpt>
      <trkpt lat="17.316379780" lon="-96.445010280">
        <ele>2027.500</ele>
        <time>2020-01-25T16:59:50Z</time>
      </trkpt>
      <trkpt lat="17.316355790" lon="-96.444980530">
        <ele>2028.600</ele>
        <time>2020-01-25T16:59:57Z</time>
      </trkpt>
      <trkpt lat="17.316334200" lon="-96.444950020">
        <ele>2028.200</ele>
        <time>2020-01-25T17:00:04Z</time>
      </trkpt>
      <trkpt lat="17.316312610" lon="-96.444916020">
        <ele>2027.800</ele>
        <time>2020-01-25T17:00:19Z</time>
      </trkpt>
      <trkpt lat="17.316305160" lon="-96.444875350">
        <ele>2029.500</ele>
        <time>2020-01-25T17:00:26Z</time>
      </trkpt>
      <trkpt lat="17.316284510" lon="-96.444839910">
        <ele>2029.900</ele>
        <time>2020-01-25T17:00:33Z</time>
      </trkpt>
      <trkpt lat="17.316266870" lon="-96.444804230">
        <ele>2033.000</ele>
        <time>2020-01-25T17:00:44Z</time>
      </trkpt>
      <trkpt lat="17.316257320" lon="-96.444763380">
        <ele>2034.900</ele>
        <time>2020-01-25T17:01:12Z</time>
      </trkpt>
      <trkpt lat="17.316235640" lon="-96.444727810">
        <ele>2033.500</ele>
        <time>2020-01-25T17:01:19Z</time>
      </trkpt>
      <trkpt lat="17.316215160" lon="-96.444696120">
        <ele>2032.300</ele>
        <time>2020-01-25T17:01:26Z</time>
      </trkpt>
      <trkpt lat="17.316188440" lon="-96.444667220">
        <ele>2032.900</ele>
        <time>2020-01-25T17:01:36Z</time>
      </trkpt>
      <trkpt lat="17.316171890" lon="-96.444633590">
        <ele>2033.700</ele>
        <time>2020-01-25T17:01:45Z</time>
      </trkpt>
      <trkpt lat="17.316150480" lon="-96.444602710">
        <ele>2034.000</ele>
        <time>2020-01-25T17:01:51Z</time>
      </trkpt>
      <trkpt lat="17.316128720" lon="-96.444571970">
        <ele>2036.000</ele>
        <time>2020-01-25T17:01:57Z</time>
      </trkpt>
      <trkpt lat="17.316108970" lon="-96.444539390">
        <ele>2037.800</ele>
        <time>2020-01-25T17:02:05Z</time>
      </trkpt>
      <trkpt lat="17.316080460" lon="-96.444516090">
        <ele>2038.200</ele>
        <time>2020-01-25T17:02:11Z</time>
      </trkpt>
      <trkpt lat="17.316045550" lon="-96.444495990">
        <ele>2039.700</ele>
        <time>2020-01-25T17:02:19Z</time>
      </trkpt>
      <trkpt lat="17.316015000" lon="-96.444475540">
        <ele>2040.800</ele>
        <time>2020-01-25T17:02:26Z</time>
      </trkpt>
      <trkpt lat="17.315978200" lon="-96.444476330">
        <ele>2041.700</ele>
        <time>2020-01-25T17:02:35Z</time>
      </trkpt>
      <trkpt lat="17.315950830" lon="-96.444448080">
        <ele>2044.700</ele>
        <time>2020-01-25T17:02:46Z</time>
      </trkpt>
      <trkpt lat="17.315923790" lon="-96.444422080">
        <ele>2046.700</ele>
        <time>2020-01-25T17:03:00Z</time>
      </trkpt>
      <trkpt lat="17.315940930" lon="-96.444384910">
        <ele>2051.200</ele>
        <time>2020-01-25T17:05:26Z</time>
      </trkpt>
      <trkpt lat="17.315967230" lon="-96.444346900">
        <ele>2051.000</ele>
        <time>2020-01-25T17:05:34Z</time>
      </trkpt>
      <trkpt lat="17.315962220" lon="-96.444309550">
        <ele>2051.000</ele>
        <time>2020-01-25T17:05:38Z</time>
      </trkpt>
      <trkpt lat="17.315985070" lon="-96.444271650">
        <ele>2049.100</ele>
        <time>2020-01-25T17:05:44Z</time>
      </trkpt>
      <trkpt lat="17.316017030" lon="-96.444242570">
        <ele>2051.500</ele>
        <time>2020-01-25T17:05:49Z</time>
      </trkpt>
      <trkpt lat="17.316046820" lon="-96.444221070">
        <ele>2051.000</ele>
        <time>2020-01-25T17:05:57Z</time>
      </trkpt>
      <trkpt lat="17.316065580" lon="-96.444184390">
        <ele>2053.700</ele>
        <time>2020-01-25T17:06:05Z</time>
      </trkpt>
      <trkpt lat="17.316058630" lon="-96.444145890">
        <ele>2055.600</ele>
        <time>2020-01-25T17:06:12Z</time>
      </trkpt>
      <trkpt lat="17.316034640" lon="-96.444113850">
        <ele>2057.300</ele>
        <time>2020-01-25T17:06:23Z</time>
      </trkpt>
      <trkpt lat="17.316054540" lon="-96.444076790">
        <ele>2056.500</ele>
        <time>2020-01-25T17:06:29Z</time>
      </trkpt>
      <trkpt lat="17.316081640" lon="-96.444044290">
        <ele>2056.000</ele>
        <time>2020-01-25T17:06:34Z</time>
      </trkpt>
      <trkpt lat="17.316106090" lon="-96.444012250">
        <ele>2056.700</ele>
        <time>2020-01-25T17:06:39Z</time>
      </trkpt>
      <trkpt lat="17.316120100" lon="-96.443975090">
        <ele>2058.000</ele>
        <time>2020-01-25T17:06:44Z</time>
      </trkpt>
      <trkpt lat="17.316150390" lon="-96.443948530">
        <ele>2055.500</ele>
        <time>2020-01-25T17:06:49Z</time>
      </trkpt>
      <trkpt lat="17.316166000" lon="-96.443910490">
        <ele>2051.500</ele>
        <time>2020-01-25T17:06:56Z</time>
      </trkpt>
      <trkpt lat="17.316200080" lon="-96.443897770">
        <ele>2051.100</ele>
        <time>2020-01-25T17:07:05Z</time>
      </trkpt>
      <trkpt lat="17.316230970" lon="-96.443877940">
        <ele>2052.200</ele>
        <time>2020-01-25T17:07:11Z</time>
      </trkpt>
      <trkpt lat="17.316245960" lon="-96.443842520">
        <ele>2055.200</ele>
        <time>2020-01-25T17:07:21Z</time>
      </trkpt>
      <trkpt lat="17.316279920" lon="-96.443826970">
        <ele>2055.900</ele>
        <time>2020-01-25T17:07:30Z</time>
      </trkpt>
      <trkpt lat="17.316313770" lon="-96.443801100">
        <ele>2056.900</ele>
        <time>2020-01-25T17:07:38Z</time>
      </trkpt>
      <trkpt lat="17.316344910" lon="-96.443773200">
        <ele>2057.000</ele>
        <time>2020-01-25T17:07:48Z</time>
      </trkpt>
      <trkpt lat="17.316380960" lon="-96.443751920">
        <ele>2058.600</ele>
        <time>2020-01-25T17:08:04Z</time>
      </trkpt>
      <trkpt lat="17.316410560" lon="-96.443722750">
        <ele>2059.500</ele>
        <time>2020-01-25T17:08:21Z</time>
      </trkpt>
      <trkpt lat="17.316436600" lon="-96.443694530">
        <ele>2058.400</ele>
        <time>2020-01-25T17:08:28Z</time>
      </trkpt>
      <trkpt lat="17.316467160" lon="-96.443674390">
        <ele>2058.600</ele>
        <time>2020-01-25T17:08:39Z</time>
      </trkpt>
      <trkpt lat="17.316488340" lon="-96.443639950">
        <ele>2057.800</ele>
        <time>2020-01-25T17:08:49Z</time>
      </trkpt>
      <trkpt lat="17.316529660" lon="-96.443651070">
        <ele>2059.800</ele>
        <time>2020-01-25T17:08:55Z</time>
      </trkpt>
      <trkpt lat="17.316567220" lon="-96.443637890">
        <ele>2061.100</ele>
        <time>2020-01-25T17:09:02Z</time>
      </trkpt>
      <trkpt lat="17.316603290" lon="-96.443634000">
        <ele>2061.500</ele>
        <time>2020-01-25T17:09:09Z</time>
      </trkpt>
      <trkpt lat="17.316632250" lon="-96.443603280">
        <ele>2062.200</ele>
        <time>2020-01-25T17:09:17Z</time>
      </trkpt>
      <trkpt lat="17.316639460" lon="-96.443563230">
        <ele>2063.200</ele>
        <time>2020-01-25T17:09:24Z</time>
      </trkpt>
      <trkpt lat="17.316651020" lon="-96.443526210">
        <ele>2062.800</ele>
        <time>2020-01-25T17:09:32Z</time>
      </trkpt>
      <trkpt lat="17.316679140" lon="-96.443502360">
        <ele>2064.800</ele>
        <time>2020-01-25T17:09:38Z</time>
      </trkpt>
      <trkpt lat="17.316692200" lon="-96.443465480">
        <ele>2065.200</ele>
        <time>2020-01-25T17:16:53Z</time>
      </trkpt>
      <trkpt lat="17.316709500" lon="-96.443428110">
        <ele>2063.400</ele>
        <time>2020-01-25T17:17:11Z</time>
      </trkpt>
      <trkpt lat="17.316735750" lon="-96.443395270">
        <ele>2063.700</ele>
        <time>2020-01-25T17:17:16Z</time>
      </trkpt>
      <trkpt lat="17.316758720" lon="-96.443365330">
        <ele>2062.900</ele>
        <time>2020-01-25T17:17:23Z</time>
      </trkpt>
      <trkpt lat="17.316792580" lon="-96.443335640">
        <ele>2063.400</ele>
        <time>2020-01-25T17:18:31Z</time>
      </trkpt>
      <trkpt lat="17.316811590" lon="-96.443301410">
        <ele>2061.600</ele>
        <time>2020-01-25T17:18:35Z</time>
      </trkpt>
      <trkpt lat="17.316819490" lon="-96.443254080">
        <ele>2062.100</ele>
        <time>2020-01-25T17:18:39Z</time>
      </trkpt>
      <trkpt lat="17.316811920" lon="-96.443211070">
        <ele>2060.400</ele>
        <time>2020-01-25T17:18:44Z</time>
      </trkpt>
      <trkpt lat="17.316804560" lon="-96.443173560">
        <ele>2058.600</ele>
        <time>2020-01-25T17:18:50Z</time>
      </trkpt>
      <trkpt lat="17.316815750" lon="-96.443136420">
        <ele>2059.200</ele>
        <time>2020-01-25T17:20:31Z</time>
      </trkpt>
      <trkpt lat="17.316824700" lon="-96.443098490">
        <ele>2057.900</ele>
        <time>2020-01-25T17:20:37Z</time>
      </trkpt>
      <trkpt lat="17.316860750" lon="-96.443077420">
        <ele>2058.800</ele>
        <time>2020-01-25T17:25:17Z</time>
      </trkpt>
      <trkpt lat="17.316897050" lon="-96.443074330">
        <ele>2064.400</ele>
        <time>2020-01-25T17:25:31Z</time>
      </trkpt>
      <trkpt lat="17.316916840" lon="-96.443108220">
        <ele>2065.600</ele>
        <time>2020-01-25T17:25:39Z</time>
      </trkpt>
      <trkpt lat="17.316943360" lon="-96.443137500">
        <ele>2067.900</ele>
        <time>2020-01-25T17:25:49Z</time>
      </trkpt>
      <trkpt lat="17.316968690" lon="-96.443169540">
        <ele>2067.800</ele>
        <time>2020-01-25T17:25:59Z</time>
      </trkpt>
      <trkpt lat="17.317008470" lon="-96.443173120">
        <ele>2067.700</ele>
        <time>2020-01-25T17:26:08Z</time>
      </trkpt>
      <trkpt lat="17.317042830" lon="-96.443185690">
        <ele>2067.700</ele>
        <time>2020-01-25T17:26:14Z</time>
      </trkpt>
      <trkpt lat="17.317078120" lon="-96.443204150">
        <ele>2068.700</ele>
        <time>2020-01-25T17:26:39Z</time>
      </trkpt>
      <trkpt lat="17.317114710" lon="-96.443219270">
        <ele>2070.900</ele>
        <time>2020-01-25T17:26:46Z</time>
      </trkpt>
      <trkpt lat="17.317154510" lon="-96.443224130">
        <ele>2072.100</ele>
        <time>2020-01-25T17:26:51Z</time>
      </trkpt>
      <trkpt lat="17.317192740" lon="-96.443226100">
        <ele>2072.600</ele>
        <time>2020-01-25T17:26:56Z</time>
      </trkpt>
      <trkpt lat="17.317229440" lon="-96.443209170">
        <ele>2071.700</ele>
        <time>2020-01-25T17:27:02Z</time>
      </trkpt>
      <trkpt lat="17.317263940" lon="-96.443192000">
        <ele>2069.900</ele>
        <time>2020-01-25T17:27:29Z</time>
      </trkpt>
      <trkpt lat="17.317298240" lon="-96.443176540">
        <ele>2069.100</ele>
        <time>2020-01-25T17:27:51Z</time>
      </trkpt>
      <trkpt lat="17.317327210" lon="-96.443149090">
        <ele>2067.600</ele>
        <time>2020-01-25T17:28:00Z</time>
      </trkpt>
      <trkpt lat="17.317354700" lon="-96.443115520">
        <ele>2068.000</ele>
        <time>2020-01-25T17:28:07Z</time>
      </trkpt>
      <trkpt lat="17.317374140" lon="-96.443077510">
        <ele>2068.300</ele>
        <time>2020-01-25T17:28:13Z</time>
      </trkpt>
      <trkpt lat="17.317393320" lon="-96.443045340">
        <ele>2067.800</ele>
        <time>2020-01-25T17:28:19Z</time>
      </trkpt>
      <trkpt lat="17.317413560" lon="-96.443009020">
        <ele>2068.900</ele>
        <time>2020-01-25T17:28:23Z</time>
      </trkpt>
      <trkpt lat="17.317445900" lon="-96.442977580">
        <ele>2068.800</ele>
        <time>2020-01-25T17:28:28Z</time>
      </trkpt>
      <trkpt lat="17.317485300" lon="-96.442974090">
        <ele>2066.200</ele>
        <time>2020-01-25T17:28:33Z</time>
      </trkpt>
      <trkpt lat="17.317523450" lon="-96.442975450">
        <ele>2066.700</ele>
        <time>2020-01-25T17:28:39Z</time>
      </trkpt>
      <trkpt lat="17.317561220" lon="-96.442978630">
        <ele>2069.200</ele>
        <time>2020-01-25T17:28:44Z</time>
      </trkpt>
      <trkpt lat="17.317601760" lon="-96.442973080">
        <ele>2069.400</ele>
        <time>2020-01-25T17:28:56Z</time>
      </trkpt>
      <trkpt lat="17.317638190" lon="-96.442959930">
        <ele>2073.700</ele>
        <time>2020-01-25T17:29:04Z</time>
      </trkpt>
      <trkpt lat="17.317681090" lon="-96.442959400">
        <ele>2073.000</ele>
        <time>2020-01-25T17:29:10Z</time>
      </trkpt>
      <trkpt lat="17.317719190" lon="-96.442947140">
        <ele>2071.200</ele>
        <time>2020-01-25T17:29:15Z</time>
      </trkpt>
      <trkpt lat="17.317753790" lon="-96.442915500">
        <ele>2069.900</ele>
        <time>2020-01-25T17:29:21Z</time>
      </trkpt>
      <trkpt lat="17.317789790" lon="-96.442894750">
        <ele>2070.600</ele>
        <time>2020-01-25T17:29:27Z</time>
      </trkpt>
      <trkpt lat="17.317823020" lon="-96.442873660">
        <ele>2071.000</ele>
        <time>2020-01-25T17:29:32Z</time>
      </trkpt>
      <trkpt lat="17.317860580" lon="-96.442855370">
        <ele>2073.200</ele>
        <time>2020-01-25T17:29:40Z</time>
      </trkpt>
      <trkpt lat="17.317896830" lon="-96.442841680">
        <ele>2071.600</ele>
        <time>2020-01-25T17:29:45Z</time>
      </trkpt>
      <trkpt lat="17.317933100" lon="-96.442828580">
        <ele>2073.000</ele>
        <time>2020-01-25T17:29:51Z</time>
      </trkpt>
      <trkpt lat="17.317972230" lon="-96.442811670">
        <ele>2073.700</ele>
        <time>2020-01-25T17:30:01Z</time>
      </trkpt>
      <trkpt lat="17.318014840" lon="-96.442806190">
        <ele>2074.200</ele>
        <time>2020-01-25T17:30:08Z</time>
      </trkpt>
      <trkpt lat="17.318059320" lon="-96.442800230">
        <ele>2073.700</ele>
        <time>2020-01-25T17:30:14Z</time>
      </trkpt>
      <trkpt lat="17.318095550" lon="-96.442794380">
        <ele>2074.700</ele>
        <time>2020-01-25T17:30:19Z</time>
      </trkpt>
      <trkpt lat="17.318127770" lon="-96.442775990">
        <ele>2074.500</ele>
        <time>2020-01-25T17:30:27Z</time>
      </trkpt>
      <trkpt lat="17.318156890" lon="-96.442753630">
        <ele>2075.700</ele>
        <time>2020-01-25T17:33:17Z</time>
      </trkpt>
      <trkpt lat="17.318192740" lon="-96.442737850">
        <ele>2076.400</ele>
        <time>2020-01-25T17:37:01Z</time>
      </trkpt>
      <trkpt lat="17.318224950" lon="-96.442714230">
        <ele>2075.000</ele>
        <time>2020-01-25T17:37:16Z</time>
      </trkpt>
      <trkpt lat="17.318249560" lon="-96.442682990">
        <ele>2074.800</ele>
        <time>2020-01-25T17:37:29Z</time>
      </trkpt>
      <trkpt lat="17.318284640" lon="-96.442667250">
        <ele>2073.300</ele>
        <time>2020-01-25T17:37:37Z</time>
      </trkpt>
      <trkpt lat="17.318316310" lon="-96.442648020">
        <ele>2072.300</ele>
        <time>2020-01-25T17:37:44Z</time>
      </trkpt>
      <trkpt lat="17.318356140" lon="-96.442628500">
        <ele>2070.900</ele>
        <time>2020-01-25T17:37:59Z</time>
      </trkpt>
      <trkpt lat="17.318390100" lon="-96.442597180">
        <ele>2069.200</ele>
        <time>2020-01-25T17:38:17Z</time>
      </trkpt>
      <trkpt lat="17.318426260" lon="-96.442576740">
        <ele>2069.300</ele>
        <time>2020-01-25T17:38:21Z</time>
      </trkpt>
      <trkpt lat="17.318456470" lon="-96.442546260">
        <ele>2068.500</ele>
        <time>2020-01-25T17:38:29Z</time>
      </trkpt>
      <trkpt lat="17.318492520" lon="-96.442529340">
        <ele>2071.100</ele>
        <time>2020-01-25T17:38:35Z</time>
      </trkpt>
      <trkpt lat="17.318527990" lon="-96.442509810">
        <ele>2075.000</ele>
        <time>2020-01-25T17:38:41Z</time>
      </trkpt>
      <trkpt lat="17.318564850" lon="-96.442484690">
        <ele>2075.500</ele>
        <time>2020-01-25T17:38:49Z</time>
      </trkpt>
      <trkpt lat="17.318592730" lon="-96.442454490">
        <ele>2076.900</ele>
        <time>2020-01-25T17:38:56Z</time>
      </trkpt>
      <trkpt lat="17.318628970" lon="-96.442441830">
        <ele>2077.700</ele>
        <time>2020-01-25T17:39:01Z</time>
      </trkpt>
      <trkpt lat="17.318672760" lon="-96.442436480">
        <ele>2079.500</ele>
        <time>2020-01-25T17:39:07Z</time>
      </trkpt>
      <trkpt lat="17.318710650" lon="-96.442448330">
        <ele>2081.600</ele>
        <time>2020-01-25T17:39:16Z</time>
      </trkpt>
      <trkpt lat="17.318750260" lon="-96.442438750">
        <ele>2081.200</ele>
        <time>2020-01-25T17:39:25Z</time>
      </trkpt>
      <trkpt lat="17.318785410" lon="-96.442426890">
        <ele>2082.700</ele>
        <time>2020-01-25T17:39:40Z</time>
      </trkpt>
      <trkpt lat="17.318814600" lon="-96.442398940">
        <ele>2079.900</ele>
        <time>2020-01-25T17:39:45Z</time>
      </trkpt>
      <trkpt lat="17.318860110" lon="-96.442408920">
        <ele>2081.400</ele>
        <time>2020-01-25T17:39:49Z</time>
      </trkpt>
      <trkpt lat="17.318902430" lon="-96.442397280">
        <ele>2080.700</ele>
        <time>2020-01-25T17:39:54Z</time>
      </trkpt>
      <trkpt lat="17.318937940" lon="-96.442372050">
        <ele>2079.000</ele>
        <time>2020-01-25T17:39:59Z</time>
      </trkpt>
      <trkpt lat="17.318968900" lon="-96.442352200">
        <ele>2076.900</ele>
        <time>2020-01-25T17:40:04Z</time>
      </trkpt>
      <trkpt lat="17.318997460" lon="-96.442324310">
        <ele>2075.800</ele>
        <time>2020-01-25T17:40:09Z</time>
      </trkpt>
      <trkpt lat="17.319020940" lon="-96.442290880">
        <ele>2073.300</ele>
        <time>2020-01-25T17:40:15Z</time>
      </trkpt>
      <trkpt lat="17.319056690" lon="-96.442276530">
        <ele>2075.500</ele>
        <time>2020-01-25T17:40:27Z</time>
      </trkpt>
      <trkpt lat="17.319084170" lon="-96.442303240">
        <ele>2077.900</ele>
        <time>2020-01-25T17:40:55Z</time>
      </trkpt>
      <trkpt lat="17.319074050" lon="-96.442341370">
        <ele>2077.100</ele>
        <time>2020-01-25T17:41:03Z</time>
      </trkpt>
      <trkpt lat="17.319068760" lon="-96.442383160">
        <ele>2079.100</ele>
        <time>2020-01-25T17:41:13Z</time>
      </trkpt>
      <trkpt lat="17.319068810" lon="-96.442423450">
        <ele>2079.300</ele>
        <time>2020-01-25T17:41:21Z</time>
      </trkpt>
      <trkpt lat="17.319061110" lon="-96.442461380">
        <ele>2078.900</ele>
        <time>2020-01-25T17:41:28Z</time>
      </trkpt>
      <trkpt lat="17.319094040" lon="-96.442491250">
        <ele>2078.200</ele>
        <time>2020-01-25T17:41:41Z</time>
      </trkpt>
      <trkpt lat="17.319121560" lon="-96.442516920">
        <ele>2080.400</ele>
        <time>2020-01-25T17:41:47Z</time>
      </trkpt>
      <trkpt lat="17.319154080" lon="-96.442494410">
        <ele>2080.800</ele>
        <time>2020-01-25T17:41:53Z</time>
      </trkpt>
      <trkpt lat="17.319193020" lon="-96.442495480">
        <ele>2081.400</ele>
        <time>2020-01-25T17:42:00Z</time>
      </trkpt>
      <trkpt lat="17.319224380" lon="-96.442460230">
        <ele>2079.700</ele>
        <time>2020-01-25T17:42:06Z</time>
      </trkpt>
      <trkpt lat="17.319242650" lon="-96.442426620">
        <ele>2080.700</ele>
        <time>2020-01-25T17:42:12Z</time>
      </trkpt>
      <trkpt lat="17.319277550" lon="-96.442408980">
        <ele>2079.900</ele>
        <time>2020-01-25T17:42:20Z</time>
      </trkpt>
      <trkpt lat="17.319309870" lon="-96.442386130">
        <ele>2082.300</ele>
        <time>2020-01-25T17:42:31Z</time>
      </trkpt>
      <trkpt lat="17.319348370" lon="-96.442382590">
        <ele>2084.100</ele>
        <time>2020-01-25T17:42:42Z</time>
      </trkpt>
      <trkpt lat="17.319385200" lon="-96.442376810">
        <ele>2082.600</ele>
        <time>2020-01-25T17:42:48Z</time>
      </trkpt>
      <trkpt lat="17.319421110" lon="-96.442352530">
        <ele>2081.600</ele>
        <time>2020-01-25T17:42:57Z</time>
      </trkpt>
      <trkpt lat="17.319457650" lon="-96.442348570">
        <ele>2083.900</ele>
        <time>2020-01-25T17:43:06Z</time>
      </trkpt>
      <trkpt lat="17.319493450" lon="-96.442354660">
        <ele>2085.100</ele>
        <time>2020-01-25T17:44:21Z</time>
      </trkpt>
      <trkpt lat="17.319530610" lon="-96.442378090">
        <ele>2087.700</ele>
        <time>2020-01-25T17:44:48Z</time>
      </trkpt>
      <trkpt lat="17.319560970" lon="-96.442407980">
        <ele>2090.300</ele>
        <time>2020-01-25T17:45:04Z</time>
      </trkpt>
      <trkpt lat="17.319596180" lon="-96.442419570">
        <ele>2092.700</ele>
        <time>2020-01-25T17:45:15Z</time>
      </trkpt>
      <trkpt lat="17.319569540" lon="-96.442391960">
        <ele>2093.300</ele>
        <time>2020-01-25T17:45:25Z</time>
      </trkpt>
      <trkpt lat="17.319606200" lon="-96.442408250">
        <ele>2096.500</ele>
        <time>2020-01-25T17:45:33Z</time>
      </trkpt>
      <trkpt lat="17.319642570" lon="-96.442412960">
        <ele>2097.000</ele>
        <time>2020-01-25T17:45:57Z</time>
      </trkpt>
      <trkpt lat="17.319651520" lon="-96.442453030">
        <ele>2103.300</ele>
        <time>2020-01-25T17:46:39Z</time>
      </trkpt>
      <trkpt lat="17.319677190" lon="-96.442480690">
        <ele>2105.300</ele>
        <time>2020-01-25T17:46:58Z</time>
      </trkpt>
      <trkpt lat="17.319692270" lon="-96.442516890">
        <ele>2108.500</ele>
        <time>2020-01-25T17:47:29Z</time>
      </trkpt>
      <trkpt lat="17.319712000" lon="-96.442550430">
        <ele>2106.000</ele>
        <time>2020-01-25T17:47:37Z</time>
      </trkpt>
      <trkpt lat="17.319746960" lon="-96.442564550">
        <ele>2103.800</ele>
        <time>2020-01-25T17:47:59Z</time>
      </trkpt>
      <trkpt lat="17.319780540" lon="-96.442589500">
        <ele>2106.800</ele>
        <time>2020-01-25T17:48:07Z</time>
      </trkpt>
      <trkpt lat="17.319814080" lon="-96.442605000">
        <ele>2108.300</ele>
        <time>2020-01-25T17:48:13Z</time>
      </trkpt>
      <trkpt lat="17.319852290" lon="-96.442605710">
        <ele>2110.900</ele>
        <time>2020-01-25T17:48:21Z</time>
      </trkpt>
      <trkpt lat="17.319890070" lon="-96.442609910">
        <ele>2109.200</ele>
        <time>2020-01-25T17:48:26Z</time>
      </trkpt>
      <trkpt lat="17.319927200" lon="-96.442616140">
        <ele>2108.000</ele>
        <time>2020-01-25T17:48:33Z</time>
      </trkpt>
      <trkpt lat="17.319960700" lon="-96.442632700">
        <ele>2107.800</ele>
        <time>2020-01-25T17:48:41Z</time>
      </trkpt>
      <trkpt lat="17.320000550" lon="-96.442644230">
        <ele>2108.900</ele>
        <time>2020-01-25T17:48:46Z</time>
      </trkpt>
      <trkpt lat="17.320037510" lon="-96.442652610">
        <ele>2107.900</ele>
        <time>2020-01-25T17:48:51Z</time>
      </trkpt>
      <trkpt lat="17.320077070" lon="-96.442658840">
        <ele>2107.400</ele>
        <time>2020-01-25T17:48:58Z</time>
      </trkpt>
      <trkpt lat="17.320107060" lon="-96.442682370">
        <ele>2109.900</ele>
        <time>2020-01-25T17:49:06Z</time>
      </trkpt>
      <trkpt lat="17.320126890" lon="-96.442716060">
        <ele>2111.900</ele>
        <time>2020-01-25T17:49:12Z</time>
      </trkpt>
      <trkpt lat="17.320145460" lon="-96.442748350">
        <ele>2113.900</ele>
        <time>2020-01-25T17:49:20Z</time>
      </trkpt>
      <trkpt lat="17.320166120" lon="-96.442779400">
        <ele>2112.800</ele>
        <time>2020-01-25T17:49:25Z</time>
      </trkpt>
      <trkpt lat="17.320195160" lon="-96.442812280">
        <ele>2114.400</ele>
        <time>2020-01-25T17:49:32Z</time>
      </trkpt>
      <trkpt lat="17.320221740" lon="-96.442841580">
        <ele>2116.200</ele>
        <time>2020-01-25T17:49:41Z</time>
      </trkpt>
      <trkpt lat="17.320254560" lon="-96.442864490">
        <ele>2118.500</ele>
        <time>2020-01-25T17:50:01Z</time>
      </trkpt>
      <trkpt lat="17.320293640" lon="-96.442864000">
        <ele>2120.400</ele>
        <time>2020-01-25T17:50:08Z</time>
      </trkpt>
      <trkpt lat="17.320332920" lon="-96.442858510">
        <ele>2117.900</ele>
        <time>2020-01-25T17:50:16Z</time>
      </trkpt>
      <trkpt lat="17.320372050" lon="-96.442871830">
        <ele>2118.900</ele>
        <time>2020-01-25T17:50:34Z</time>
      </trkpt>
      <trkpt lat="17.320407800" lon="-96.442883440">
        <ele>2119.700</ele>
        <time>2020-01-25T17:50:40Z</time>
      </trkpt>
      <trkpt lat="17.320443900" lon="-96.442880150">
        <ele>2118.300</ele>
        <time>2020-01-25T17:50:45Z</time>
      </trkpt>
      <trkpt lat="17.320486970" lon="-96.442860410">
        <ele>2117.300</ele>
        <time>2020-01-25T17:50:50Z</time>
      </trkpt>
      <trkpt lat="17.320525870" lon="-96.442859060">
        <ele>2117.400</ele>
        <time>2020-01-25T17:50:54Z</time>
      </trkpt>
      <trkpt lat="17.320566300" lon="-96.442860570">
        <ele>2119.700</ele>
        <time>2020-01-25T17:50:59Z</time>
      </trkpt>
      <trkpt lat="17.320606590" lon="-96.442874460">
        <ele>2122.000</ele>
        <time>2020-01-25T17:51:05Z</time>
      </trkpt>
      <trkpt lat="17.320646420" lon="-96.442878650">
        <ele>2121.900</ele>
        <time>2020-01-25T17:51:10Z</time>
      </trkpt>
      <trkpt lat="17.320675670" lon="-96.442901970">
        <ele>2120.200</ele>
        <time>2020-01-25T17:51:16Z</time>
      </trkpt>
      <trkpt lat="17.320716240" lon="-96.442907650">
        <ele>2120.700</ele>
        <time>2020-01-25T17:51:23Z</time>
      </trkpt>
      <trkpt lat="17.320757430" lon="-96.442912430">
        <ele>2122.800</ele>
        <time>2020-01-25T17:51:27Z</time>
      </trkpt>
      <trkpt lat="17.320793900" lon="-96.442914480">
        <ele>2122.300</ele>
        <time>2020-01-25T17:52:40Z</time>
      </trkpt>
      <trkpt lat="17.320830210" lon="-96.442916480">
        <ele>2122.900</ele>
        <time>2020-01-25T17:52:46Z</time>
      </trkpt>
      <trkpt lat="17.320865160" lon="-96.442906260">
        <ele>2119.200</ele>
        <time>2020-01-25T17:52:52Z</time>
      </trkpt>
      <trkpt lat="17.320910160" lon="-96.442906270">
        <ele>2117.800</ele>
        <time>2020-01-25T17:52:59Z</time>
      </trkpt>
      <trkpt lat="17.320916760" lon="-96.442869020">
        <ele>2120.100</ele>
        <time>2020-01-25T17:56:23Z</time>
      </trkpt>
      <trkpt lat="17.320942070" lon="-96.442896560">
        <ele>2123.200</ele>
        <time>2020-01-25T17:56:50Z</time>
      </trkpt>
      <trkpt lat="17.320970620" lon="-96.442924370">
        <ele>2121.800</ele>
        <time>2020-01-25T17:56:56Z</time>
      </trkpt>
      <trkpt lat="17.320995620" lon="-96.442952710">
        <ele>2122.000</ele>
        <time>2020-01-25T17:57:04Z</time>
      </trkpt>
      <trkpt lat="17.321031480" lon="-96.442961630">
        <ele>2121.500</ele>
        <time>2020-01-25T17:57:13Z</time>
      </trkpt>
      <trkpt lat="17.321073660" lon="-96.442962200">
        <ele>2121.800</ele>
        <time>2020-01-25T17:57:18Z</time>
      </trkpt>
      <trkpt lat="17.321109770" lon="-96.442966930">
        <ele>2124.200</ele>
        <time>2020-01-25T17:57:23Z</time>
      </trkpt>
      <trkpt lat="17.321126050" lon="-96.442931720">
        <ele>2123.500</ele>
        <time>2020-01-25T17:57:39Z</time>
      </trkpt>
      <trkpt lat="17.321161470" lon="-96.442913590">
        <ele>2119.400</ele>
        <time>2020-01-25T18:02:25Z</time>
      </trkpt>
      <trkpt lat="17.321195370" lon="-96.442898560">
        <ele>2115.700</ele>
        <time>2020-01-25T18:02:46Z</time>
      </trkpt>
      <trkpt lat="17.321231800" lon="-96.442898640">
        <ele>2118.800</ele>
        <time>2020-01-25T18:02:57Z</time>
      </trkpt>
      <trkpt lat="17.321270520" lon="-96.442886740">
        <ele>2119.200</ele>
        <time>2020-01-25T18:03:16Z</time>
      </trkpt>
      <trkpt lat="17.321298450" lon="-96.442857320">
        <ele>2116.400</ele>
        <time>2020-01-25T18:03:23Z</time>
      </trkpt>
      <trkpt lat="17.321337840" lon="-96.442852010">
        <ele>2117.600</ele>
        <time>2020-01-25T18:03:29Z</time>
      </trkpt>
      <trkpt lat="17.321369170" lon="-96.442823090">
        <ele>2117.700</ele>
        <time>2020-01-25T18:03:34Z</time>
      </trkpt>
      <trkpt lat="17.321400090" lon="-96.442803240">
        <ele>2118.600</ele>
        <time>2020-01-25T18:03:41Z</time>
      </trkpt>
      <trkpt lat="17.321439900" lon="-96.442803640">
        <ele>2121.000</ele>
        <time>2020-01-25T18:03:48Z</time>
      </trkpt>
      <trkpt lat="17.321478410" lon="-96.442797580">
        <ele>2124.000</ele>
        <time>2020-01-25T18:04:00Z</time>
      </trkpt>
      <trkpt lat="17.321509960" lon="-96.442775480">
        <ele>2124.000</ele>
        <time>2020-01-25T18:04:10Z</time>
      </trkpt>
      <trkpt lat="17.321531060" lon="-96.442738100">
        <ele>2122.400</ele>
        <time>2020-01-25T18:04:16Z</time>
      </trkpt>
      <trkpt lat="17.321556310" lon="-96.442706240">
        <ele>2123.200</ele>
        <time>2020-01-25T18:04:21Z</time>
      </trkpt>
      <trkpt lat="17.321580810" lon="-96.442674100">
        <ele>2124.200</ele>
        <time>2020-01-25T18:04:27Z</time>
      </trkpt>
      <trkpt lat="17.321608380" lon="-96.442641210">
        <ele>2125.400</ele>
        <time>2020-01-25T18:04:34Z</time>
      </trkpt>
      <trkpt lat="17.321624910" lon="-96.442606900">
        <ele>2124.600</ele>
        <time>2020-01-25T18:04:41Z</time>
      </trkpt>
      <trkpt lat="17.321659050" lon="-96.442585500">
        <ele>2124.800</ele>
        <time>2020-01-25T18:04:50Z</time>
      </trkpt>
      <trkpt lat="17.321686690" lon="-96.442559680">
        <ele>2124.900</ele>
        <time>2020-01-25T18:04:56Z</time>
      </trkpt>
      <trkpt lat="17.321716510" lon="-96.442537620">
        <ele>2124.700</ele>
        <time>2020-01-25T18:05:27Z</time>
      </trkpt>
      <trkpt lat="17.321746810" lon="-96.442510400">
        <ele>2124.500</ele>
        <time>2020-01-25T18:05:36Z</time>
      </trkpt>
      <trkpt lat="17.321776810" lon="-96.442487660">
        <ele>2127.800</ele>
        <time>2020-01-25T18:06:41Z</time>
      </trkpt>
      <trkpt lat="17.321792520" lon="-96.442450740">
        <ele>2130.000</ele>
        <time>2020-01-25T18:07:12Z</time>
      </trkpt>
      <trkpt lat="17.321818430" lon="-96.442418970">
        <ele>2128.200</ele>
        <time>2020-01-25T18:10:13Z</time>
      </trkpt>
      <trkpt lat="17.321851470" lon="-96.442392410">
        <ele>2129.500</ele>
        <time>2020-01-25T18:10:22Z</time>
      </trkpt>
      <trkpt lat="17.321885520" lon="-96.442374730">
        <ele>2130.800</ele>
        <time>2020-01-25T18:10:31Z</time>
      </trkpt>
      <trkpt lat="17.321907840" lon="-96.442337880">
        <ele>2129.600</ele>
        <time>2020-01-25T18:10:43Z</time>
      </trkpt>
      <trkpt lat="17.321938420" lon="-96.442309990">
        <ele>2129.500</ele>
        <time>2020-01-25T18:10:49Z</time>
      </trkpt>
      <trkpt lat="17.321952120" lon="-96.442274980">
        <ele>2131.000</ele>
        <time>2020-01-25T18:11:02Z</time>
      </trkpt>
      <trkpt lat="17.321957010" lon="-96.442236620">
        <ele>2129.400</ele>
        <time>2020-01-25T18:11:24Z</time>
      </trkpt>
      <trkpt lat="17.321960130" lon="-96.442193920">
        <ele>2128.000</ele>
        <time>2020-01-25T18:11:34Z</time>
      </trkpt>
      <trkpt lat="17.321956550" lon="-96.442154730">
        <ele>2125.800</ele>
        <time>2020-01-25T18:11:40Z</time>
      </trkpt>
      <trkpt lat="17.321955310" lon="-96.442112280">
        <ele>2125.600</ele>
        <time>2020-01-25T18:11:50Z</time>
      </trkpt>
      <trkpt lat="17.321953510" lon="-96.442071400">
        <ele>2125.500</ele>
        <time>2020-01-25T18:12:01Z</time>
      </trkpt>
      <trkpt lat="17.321963440" lon="-96.442031180">
        <ele>2127.500</ele>
        <time>2020-01-25T18:12:09Z</time>
      </trkpt>
      <trkpt lat="17.321963610" lon="-96.441991510">
        <ele>2127.300</ele>
        <time>2020-01-25T18:12:20Z</time>
      </trkpt>
      <trkpt lat="17.321984030" lon="-96.441955330">
        <ele>2127.900</ele>
        <time>2020-01-25T18:12:28Z</time>
      </trkpt>
      <trkpt lat="17.321977360" lon="-96.441913680">
        <ele>2128.200</ele>
        <time>2020-01-25T18:12:36Z</time>
      </trkpt>
      <trkpt lat="17.321956960" lon="-96.441879520">
        <ele>2126.600</ele>
        <time>2020-01-25T18:12:41Z</time>
      </trkpt>
      <trkpt lat="17.321942910" lon="-96.441839940">
        <ele>2127.800</ele>
        <time>2020-01-25T18:12:49Z</time>
      </trkpt>
      <trkpt lat="17.321945480" lon="-96.441802210">
        <ele>2129.400</ele>
        <time>2020-01-25T18:13:02Z</time>
      </trkpt>
      <trkpt lat="17.321949420" lon="-96.441758150">
        <ele>2129.000</ele>
        <time>2020-01-25T18:13:09Z</time>
      </trkpt>
      <trkpt lat="17.321952490" lon="-96.441717370">
        <ele>2128.700</ele>
        <time>2020-01-25T18:13:16Z</time>
      </trkpt>
      <trkpt lat="17.321952900" lon="-96.441675390">
        <ele>2131.300</ele>
        <time>2020-01-25T18:13:28Z</time>
      </trkpt>
      <trkpt lat="17.321950410" lon="-96.441634880">
        <ele>2132.500</ele>
        <time>2020-01-25T18:13:34Z</time>
      </trkpt>
      <trkpt lat="17.321960930" lon="-96.441597620">
        <ele>2133.500</ele>
        <time>2020-01-25T18:13:39Z</time>
      </trkpt>
      <trkpt lat="17.321980240" lon="-96.441563690">
        <ele>2133.400</ele>
        <time>2020-01-25T18:13:44Z</time>
      </trkpt>
      <trkpt lat="17.321995040" lon="-96.441526300">
        <ele>2133.600</ele>
        <time>2020-01-25T18:13:50Z</time>
      </trkpt>
      <trkpt lat="17.321989500" lon="-96.441488150">
        <ele>2133.300</ele>
        <time>2020-01-25T18:13:56Z</time>
      </trkpt>
      <trkpt lat="17.321985500" lon="-96.441450030">
        <ele>2133.200</ele>
        <time>2020-01-25T18:14:02Z</time>
      </trkpt>
      <trkpt lat="17.322005550" lon="-96.441413700">
        <ele>2133.600</ele>
        <time>2020-01-25T18:14:09Z</time>
      </trkpt>
      <trkpt lat="17.322016280" lon="-96.441377260">
        <ele>2136.800</ele>
        <time>2020-01-25T18:14:20Z</time>
      </trkpt>
      <trkpt lat="17.322041130" lon="-96.441347080">
        <ele>2136.600</ele>
        <time>2020-01-25T18:14:35Z</time>
      </trkpt>
      <trkpt lat="17.322074450" lon="-96.441329170">
        <ele>2138.000</ele>
        <time>2020-01-25T18:14:50Z</time>
      </trkpt>
      <trkpt lat="17.322109950" lon="-96.441315010">
        <ele>2137.400</ele>
        <time>2020-01-25T18:15:10Z</time>
      </trkpt>
      <trkpt lat="17.322144930" lon="-96.441334310">
        <ele>2140.300</ele>
        <time>2020-01-25T18:15:16Z</time>
      </trkpt>
      <trkpt lat="17.322185280" lon="-96.441351030">
        <ele>2137.700</ele>
        <time>2020-01-25T18:15:22Z</time>
      </trkpt>
      <trkpt lat="17.322225220" lon="-96.441358550">
        <ele>2136.000</ele>
        <time>2020-01-25T18:15:29Z</time>
      </trkpt>
      <trkpt lat="17.322264300" lon="-96.441356290">
        <ele>2136.300</ele>
        <time>2020-01-25T18:15:45Z</time>
      </trkpt>
      <trkpt lat="17.322266430" lon="-96.441318610">
        <ele>2135.800</ele>
        <time>2020-01-25T18:18:08Z</time>
      </trkpt>
      <trkpt lat="17.322239410" lon="-96.441293440">
        <ele>2138.700</ele>
        <time>2020-01-25T18:27:59Z</time>
      </trkpt>
      <trkpt lat="17.322271150" lon="-96.441320750">
        <ele>2138.400</ele>
        <time>2020-01-25T18:28:26Z</time>
      </trkpt>
      <trkpt lat="17.322312050" lon="-96.441319110">
        <ele>2140.300</ele>
        <time>2020-01-25T18:28:31Z</time>
      </trkpt>
      <trkpt lat="17.322358080" lon="-96.441333110">
        <ele>2139.900</ele>
        <time>2020-01-25T18:28:38Z</time>
      </trkpt>
      <trkpt lat="17.322402830" lon="-96.441342250">
        <ele>2140.100</ele>
        <time>2020-01-25T18:28:42Z</time>
      </trkpt>
      <trkpt lat="17.322446230" lon="-96.441357170">
        <ele>2140.400</ele>
        <time>2020-01-25T18:28:46Z</time>
      </trkpt>
      <trkpt lat="17.322485560" lon="-96.441354910">
        <ele>2140.300</ele>
        <time>2020-01-25T18:28:50Z</time>
      </trkpt>
      <trkpt lat="17.322530380" lon="-96.441359390">
        <ele>2141.200</ele>
        <time>2020-01-25T18:28:55Z</time>
      </trkpt>
      <trkpt lat="17.322566600" lon="-96.441344360">
        <ele>2141.800</ele>
        <time>2020-01-25T18:28:59Z</time>
      </trkpt>
      <trkpt lat="17.322604640" lon="-96.441323400">
        <ele>2139.900</ele>
        <time>2020-01-25T18:29:05Z</time>
      </trkpt>
      <trkpt lat="17.322641120" lon="-96.441319330">
        <ele>2141.000</ele>
        <time>2020-01-25T18:29:09Z</time>
      </trkpt>
      <trkpt lat="17.322686320" lon="-96.441321870">
        <ele>2144.100</ele>
        <time>2020-01-25T18:29:14Z</time>
      </trkpt>
      <trkpt lat="17.322726520" lon="-96.441329500">
        <ele>2144.400</ele>
        <time>2020-01-25T18:29:17Z</time>
      </trkpt>
      <trkpt lat="17.322769430" lon="-96.441339210">
        <ele>2145.000</ele>
        <time>2020-01-25T18:29:21Z</time>
      </trkpt>
      <trkpt lat="17.322809690" lon="-96.441358870">
        <ele>2145.100</ele>
        <time>2020-01-25T18:29:26Z</time>
      </trkpt>
      <trkpt lat="17.322845940" lon="-96.441372470">
        <ele>2146.500</ele>
        <time>2020-01-25T18:29:30Z</time>
      </trkpt>
      <trkpt lat="17.322883760" lon="-96.441381750">
        <ele>2147.100</ele>
        <time>2020-01-25T18:29:35Z</time>
      </trkpt>
      <trkpt lat="17.322921780" lon="-96.441370130">
        <ele>2146.800</ele>
        <time>2020-01-25T18:29:47Z</time>
      </trkpt>
      <trkpt lat="17.322935780" lon="-96.441332690">
        <ele>2147.800</ele>
        <time>2020-01-25T18:30:20Z</time>
      </trkpt>
      <trkpt lat="17.322970240" lon="-96.441314060">
        <ele>2148.000</ele>
        <time>2020-01-25T18:31:03Z</time>
      </trkpt>
      <trkpt lat="17.323007420" lon="-96.441320950">
        <ele>2150.400</ele>
        <time>2020-01-25T18:31:21Z</time>
      </trkpt>
      <trkpt lat="17.323044200" lon="-96.441340550">
        <ele>2150.600</ele>
        <time>2020-01-25T18:31:29Z</time>
      </trkpt>
      <trkpt lat="17.323081130" lon="-96.441320590">
        <ele>2150.300</ele>
        <time>2020-01-25T18:31:36Z</time>
      </trkpt>
      <trkpt lat="17.323110940" lon="-96.441297420">
        <ele>2150.000</ele>
        <time>2020-01-25T18:31:42Z</time>
      </trkpt>
      <trkpt lat="17.323149820" lon="-96.441300790">
        <ele>2150.800</ele>
        <time>2020-01-25T18:31:49Z</time>
      </trkpt>
      <trkpt lat="17.323187240" lon="-96.441309960">
        <ele>2151.700</ele>
        <time>2020-01-25T18:31:55Z</time>
      </trkpt>
      <trkpt lat="17.323222990" lon="-96.441302120">
        <ele>2151.900</ele>
        <time>2020-01-25T18:32:10Z</time>
      </trkpt>
      <trkpt lat="17.323259180" lon="-96.441304550">
        <ele>2153.600</ele>
        <time>2020-01-25T18:32:19Z</time>
      </trkpt>
      <trkpt lat="17.323299630" lon="-96.441308130">
        <ele>2151.900</ele>
        <time>2020-01-25T18:32:26Z</time>
      </trkpt>
      <trkpt lat="17.323327490" lon="-96.441284040">
        <ele>2150.600</ele>
        <time>2020-01-25T18:32:42Z</time>
      </trkpt>
      <trkpt lat="17.323362850" lon="-96.441273210">
        <ele>2150.400</ele>
        <time>2020-01-25T18:33:12Z</time>
      </trkpt>
      <trkpt lat="17.323401440" lon="-96.441261650">
        <ele>2151.100</ele>
        <time>2020-01-25T18:33:27Z</time>
      </trkpt>
      <trkpt lat="17.323422000" lon="-96.441223820">
        <ele>2148.000</ele>
        <time>2020-01-25T18:33:36Z</time>
      </trkpt>
      <trkpt lat="17.323448320" lon="-96.441192980">
        <ele>2145.700</ele>
        <time>2020-01-25T18:33:47Z</time>
      </trkpt>
      <trkpt lat="17.323487330" lon="-96.441174230">
        <ele>2145.200</ele>
        <time>2020-01-25T18:33:54Z</time>
      </trkpt>
      <trkpt lat="17.323525410" lon="-96.441155100">
        <ele>2147.800</ele>
        <time>2020-01-25T18:33:59Z</time>
      </trkpt>
      <trkpt lat="17.323554170" lon="-96.441130440">
        <ele>2147.600</ele>
        <time>2020-01-25T18:34:04Z</time>
      </trkpt>
      <trkpt lat="17.323588000" lon="-96.441107040">
        <ele>2146.800</ele>
        <time>2020-01-25T18:34:14Z</time>
      </trkpt>
      <trkpt lat="17.323613810" lon="-96.441070340">
        <ele>2145.400</ele>
        <time>2020-01-25T18:34:22Z</time>
      </trkpt>
      <trkpt lat="17.323653200" lon="-96.441063500">
        <ele>2148.200</ele>
        <time>2020-01-25T18:34:29Z</time>
      </trkpt>
      <trkpt lat="17.323689140" lon="-96.441049900">
        <ele>2150.200</ele>
        <time>2020-01-25T18:34:37Z</time>
      </trkpt>
      <trkpt lat="17.323724510" lon="-96.441040250">
        <ele>2151.900</ele>
        <time>2020-01-25T18:34:43Z</time>
      </trkpt>
      <trkpt lat="17.323758210" lon="-96.441016410">
        <ele>2151.900</ele>
        <time>2020-01-25T18:34:52Z</time>
      </trkpt>
      <trkpt lat="17.323793820" lon="-96.441002040">
        <ele>2153.800</ele>
        <time>2020-01-25T18:35:00Z</time>
      </trkpt>
      <trkpt lat="17.323808150" lon="-96.440964910">
        <ele>2152.900</ele>
        <time>2020-01-25T18:35:06Z</time>
      </trkpt>
      <trkpt lat="17.323834770" lon="-96.440934050">
        <ele>2151.200</ele>
        <time>2020-01-25T18:35:11Z</time>
      </trkpt>
      <trkpt lat="17.323868470" lon="-96.440920440">
        <ele>2150.900</ele>
        <time>2020-01-25T18:35:18Z</time>
      </trkpt>
      <trkpt lat="17.323895010" lon="-96.440893540">
        <ele>2150.100</ele>
        <time>2020-01-25T18:35:23Z</time>
      </trkpt>
      <trkpt lat="17.323931520" lon="-96.440882030">
        <ele>2149.400</ele>
        <time>2020-01-25T18:35:30Z</time>
      </trkpt>
      <trkpt lat="17.323955390" lon="-96.440853180">
        <ele>2147.600</ele>
        <time>2020-01-25T18:35:35Z</time>
      </trkpt>
      <trkpt lat="17.323989150" lon="-96.440835940">
        <ele>2145.800</ele>
        <time>2020-01-25T18:35:43Z</time>
      </trkpt>
      <trkpt lat="17.324026150" lon="-96.440828190">
        <ele>2146.700</ele>
        <time>2020-01-25T18:35:51Z</time>
      </trkpt>
      <trkpt lat="17.324062070" lon="-96.440819690">
        <ele>2146.500</ele>
        <time>2020-01-25T18:36:03Z</time>
      </trkpt>
      <trkpt lat="17.324093990" lon="-96.440800740">
        <ele>2145.800</ele>
        <time>2020-01-25T18:36:24Z</time>
      </trkpt>
      <trkpt lat="17.324126880" lon="-96.440780190">
        <ele>2144.200</ele>
        <time>2020-01-25T18:37:09Z</time>
      </trkpt>
      <trkpt lat="17.324158470" lon="-96.440760290">
        <ele>2141.800</ele>
        <time>2020-01-25T18:37:25Z</time>
      </trkpt>
      <trkpt lat="17.324196550" lon="-96.440760180">
        <ele>2139.400</ele>
        <time>2020-01-25T18:37:48Z</time>
      </trkpt>
      <trkpt lat="17.324232960" lon="-96.440761710">
        <ele>2138.300</ele>
        <time>2020-01-25T18:37:52Z</time>
      </trkpt>
      <trkpt lat="17.324270060" lon="-96.440768180">
        <ele>2138.000</ele>
        <time>2020-01-25T18:37:56Z</time>
      </trkpt>
      <trkpt lat="17.324301880" lon="-96.440750060">
        <ele>2140.500</ele>
        <time>2020-01-25T18:38:02Z</time>
      </trkpt>
      <trkpt lat="17.324344670" lon="-96.440761470">
        <ele>2141.300</ele>
        <time>2020-01-25T18:38:10Z</time>
      </trkpt>
      <trkpt lat="17.324381450" lon="-96.440767880">
        <ele>2141.400</ele>
        <time>2020-01-25T18:38:15Z</time>
      </trkpt>
      <trkpt lat="17.324415060" lon="-96.440786100">
        <ele>2142.500</ele>
        <time>2020-01-25T18:38:21Z</time>
      </trkpt>
      <trkpt lat="17.324455650" lon="-96.440798550">
        <ele>2142.000</ele>
        <time>2020-01-25T18:38:32Z</time>
      </trkpt>
      <trkpt lat="17.324488910" lon="-96.440817300">
        <ele>2142.800</ele>
        <time>2020-01-25T18:38:37Z</time>
      </trkpt>
      <trkpt lat="17.324522340" lon="-96.440834510">
        <ele>2144.600</ele>
        <time>2020-01-25T18:38:43Z</time>
      </trkpt>
      <trkpt lat="17.324565560" lon="-96.440834680">
        <ele>2146.000</ele>
        <time>2020-01-25T18:38:50Z</time>
      </trkpt>
      <trkpt lat="17.324603550" lon="-96.440816960">
        <ele>2145.500</ele>
        <time>2020-01-25T18:38:58Z</time>
      </trkpt>
      <trkpt lat="17.324643410" lon="-96.440811010">
        <ele>2145.200</ele>
        <time>2020-01-25T18:39:05Z</time>
      </trkpt>
      <trkpt lat="17.324682740" lon="-96.440823670">
        <ele>2145.100</ele>
        <time>2020-01-25T18:39:12Z</time>
      </trkpt>
      <trkpt lat="17.324721960" lon="-96.440831920">
        <ele>2145.400</ele>
        <time>2020-01-25T18:39:22Z</time>
      </trkpt>
      <trkpt lat="17.324762680" lon="-96.440839030">
        <ele>2145.200</ele>
        <time>2020-01-25T18:39:27Z</time>
      </trkpt>
      <trkpt lat="17.324802120" lon="-96.440824050">
        <ele>2145.300</ele>
        <time>2020-01-25T18:39:53Z</time>
      </trkpt>
      <trkpt lat="17.324841650" lon="-96.440828130">
        <ele>2146.700</ele>
        <time>2020-01-25T18:41:00Z</time>
      </trkpt>
      <trkpt lat="17.324879040" lon="-96.440826980">
        <ele>2146.900</ele>
        <time>2020-01-25T18:41:06Z</time>
      </trkpt>
      <trkpt lat="17.324917380" lon="-96.440830090">
        <ele>2147.400</ele>
        <time>2020-01-25T18:41:12Z</time>
      </trkpt>
      <trkpt lat="17.324954720" lon="-96.440837570">
        <ele>2147.600</ele>
        <time>2020-01-25T18:41:21Z</time>
      </trkpt>
      <trkpt lat="17.324989110" lon="-96.440854250">
        <ele>2147.300</ele>
        <time>2020-01-25T18:41:27Z</time>
      </trkpt>
      <trkpt lat="17.325027750" lon="-96.440847860">
        <ele>2146.400</ele>
        <time>2020-01-25T18:41:33Z</time>
      </trkpt>
      <trkpt lat="17.325063490" lon="-96.440855340">
        <ele>2144.900</ele>
        <time>2020-01-25T18:41:37Z</time>
      </trkpt>
      <trkpt lat="17.325100480" lon="-96.440870750">
        <ele>2144.800</ele>
        <time>2020-01-25T18:41:43Z</time>
      </trkpt>
      <trkpt lat="17.325142030" lon="-96.440877330">
        <ele>2144.500</ele>
        <time>2020-01-25T18:41:54Z</time>
      </trkpt>
      <trkpt lat="17.325178230" lon="-96.440882400">
        <ele>2143.800</ele>
        <time>2020-01-25T18:42:01Z</time>
      </trkpt>
      <trkpt lat="17.325214130" lon="-96.440872980">
        <ele>2143.500</ele>
        <time>2020-01-25T18:42:09Z</time>
      </trkpt>
      <trkpt lat="17.325252280" lon="-96.440868460">
        <ele>2142.800</ele>
        <time>2020-01-25T18:42:17Z</time>
      </trkpt>
      <trkpt lat="17.325290550" lon="-96.440879600">
        <ele>2146.200</ele>
        <time>2020-01-25T18:42:26Z</time>
      </trkpt>
      <trkpt lat="17.325320550" lon="-96.440901050">
        <ele>2145.000</ele>
        <time>2020-01-25T18:42:35Z</time>
      </trkpt>
      <trkpt lat="17.325352880" lon="-96.440925860">
        <ele>2148.900</ele>
        <time>2020-01-25T18:42:53Z</time>
      </trkpt>
      <trkpt lat="17.325386740" lon="-96.440896430">
        <ele>2147.400</ele>
        <time>2020-01-25T18:42:58Z</time>
      </trkpt>
      <trkpt lat="17.325415190" lon="-96.440866810">
        <ele>2148.500</ele>
        <time>2020-01-25T18:43:07Z</time>
      </trkpt>
      <trkpt lat="17.325450700" lon="-96.440850440">
        <ele>2147.500</ele>
        <time>2020-01-25T18:43:15Z</time>
      </trkpt>
      <trkpt lat="17.325488870" lon="-96.440849080">
        <ele>2146.700</ele>
        <time>2020-01-25T18:43:28Z</time>
      </trkpt>
      <trkpt lat="17.325510010" lon="-96.440882480">
        <ele>2151.300</ele>
        <time>2020-01-25T18:43:52Z</time>
      </trkpt>
      <trkpt lat="17.325534550" lon="-96.440912690">
        <ele>2153.500</ele>
        <time>2020-01-25T18:44:03Z</time>
      </trkpt>
      <trkpt lat="17.325571550" lon="-96.440931000">
        <ele>2154.000</ele>
        <time>2020-01-25T18:44:39Z</time>
      </trkpt>
      <trkpt lat="17.325606910" lon="-96.440955440">
        <ele>2153.900</ele>
        <time>2020-01-25T18:44:49Z</time>
      </trkpt>
      <trkpt lat="17.325630300" lon="-96.440991680">
        <ele>2155.600</ele>
        <time>2020-01-25T18:44:55Z</time>
      </trkpt>
      <trkpt lat="17.325650270" lon="-96.441026590">
        <ele>2156.500</ele>
        <time>2020-01-25T18:45:03Z</time>
      </trkpt>
      <trkpt lat="17.325686230" lon="-96.441041400">
        <ele>2154.800</ele>
        <time>2020-01-25T18:45:47Z</time>
      </trkpt>
      <trkpt lat="17.325712600" lon="-96.441067860">
        <ele>2153.800</ele>
        <time>2020-01-25T18:45:51Z</time>
      </trkpt>
      <trkpt lat="17.325745670" lon="-96.441086790">
        <ele>2153.800</ele>
        <time>2020-01-25T18:45:56Z</time>
      </trkpt>
      <trkpt lat="17.325766540" lon="-96.441121560">
        <ele>2154.600</ele>
        <time>2020-01-25T18:47:03Z</time>
      </trkpt>
      <trkpt lat="17.325787330" lon="-96.441153840">
        <ele>2155.400</ele>
        <time>2020-01-25T18:47:19Z</time>
      </trkpt>
      <trkpt lat="17.325816930" lon="-96.441178530">
        <ele>2156.500</ele>
        <time>2020-01-25T18:47:27Z</time>
      </trkpt>
      <trkpt lat="17.325838780" lon="-96.441210350">
        <ele>2156.700</ele>
        <time>2020-01-25T18:47:35Z</time>
      </trkpt>
      <trkpt lat="17.325856060" lon="-96.441245280">
        <ele>2155.900</ele>
        <time>2020-01-25T18:47:43Z</time>
      </trkpt>
      <trkpt lat="17.325873110" lon="-96.441278950">
        <ele>2156.000</ele>
        <time>2020-01-25T18:47:51Z</time>
      </trkpt>
      <trkpt lat="17.325870900" lon="-96.441320170">
        <ele>2155.700</ele>
        <time>2020-01-25T18:48:02Z</time>
      </trkpt>
      <trkpt lat="17.325876720" lon="-96.441361530">
        <ele>2157.100</ele>
        <time>2020-01-25T18:48:10Z</time>
      </trkpt>
      <trkpt lat="17.325885640" lon="-96.441400170">
        <ele>2160.400</ele>
        <time>2020-01-25T18:48:34Z</time>
      </trkpt>
      <trkpt lat="17.325912600" lon="-96.441435360">
        <ele>2158.100</ele>
        <time>2020-01-25T18:48:41Z</time>
      </trkpt>
      <trkpt lat="17.325923220" lon="-96.441477540">
        <ele>2159.200</ele>
        <time>2020-01-25T18:48:46Z</time>
      </trkpt>
      <trkpt lat="17.325937650" lon="-96.441513240">
        <ele>2157.800</ele>
        <time>2020-01-25T18:49:07Z</time>
      </trkpt>
      <trkpt lat="17.325968990" lon="-96.441538650">
        <ele>2156.800</ele>
        <time>2020-01-25T18:49:13Z</time>
      </trkpt>
      <trkpt lat="17.325997800" lon="-96.441561410">
        <ele>2155.900</ele>
        <time>2020-01-25T18:49:22Z</time>
      </trkpt>
      <trkpt lat="17.326025800" lon="-96.441586800">
        <ele>2154.700</ele>
        <time>2020-01-25T18:49:29Z</time>
      </trkpt>
      <trkpt lat="17.326061180" lon="-96.441602310">
        <ele>2152.000</ele>
        <time>2020-01-25T18:49:36Z</time>
      </trkpt>
      <trkpt lat="17.326098250" lon="-96.441603940">
        <ele>2150.800</ele>
        <time>2020-01-25T18:49:44Z</time>
      </trkpt>
      <trkpt lat="17.326126300" lon="-96.441628120">
        <ele>2150.200</ele>
        <time>2020-01-25T18:50:15Z</time>
      </trkpt>
      <trkpt lat="17.326163720" lon="-96.441652120">
        <ele>2148.400</ele>
        <time>2020-01-25T18:50:21Z</time>
      </trkpt>
      <trkpt lat="17.326197870" lon="-96.441672400">
        <ele>2146.400</ele>
        <time>2020-01-25T18:50:27Z</time>
      </trkpt>
      <trkpt lat="17.326221970" lon="-96.441705760">
        <ele>2146.500</ele>
        <time>2020-01-25T18:50:33Z</time>
      </trkpt>
      <trkpt lat="17.326251820" lon="-96.441729650">
        <ele>2146.100</ele>
        <time>2020-01-25T18:50:45Z</time>
      </trkpt>
      <trkpt lat="17.326273310" lon="-96.441760200">
        <ele>2146.100</ele>
        <time>2020-01-25T18:50:53Z</time>
      </trkpt>
      <trkpt lat="17.326310100" lon="-96.441767350">
        <ele>2145.300</ele>
        <time>2020-01-25T18:51:04Z</time>
      </trkpt>
      <trkpt lat="17.326335190" lon="-96.441735160">
        <ele>2145.300</ele>
        <time>2020-01-25T18:51:19Z</time>
      </trkpt>
      <trkpt lat="17.326355480" lon="-96.441701860">
        <ele>2143.900</ele>
        <time>2020-01-25T18:51:32Z</time>
      </trkpt>
      <trkpt lat="17.326384310" lon="-96.441725370">
        <ele>2140.700</ele>
        <time>2020-01-25T18:55:53Z</time>
      </trkpt>
      <trkpt lat="17.326371610" lon="-96.441762420">
        <ele>2141.700</ele>
        <time>2020-01-25T18:56:18Z</time>
      </trkpt>
      <trkpt lat="17.326366320" lon="-96.441799920">
        <ele>2137.500</ele>
        <time>2020-01-25T18:56:55Z</time>
      </trkpt>
      <trkpt lat="17.326401230" lon="-96.441772560">
        <ele>2141.100</ele>
        <time>2020-01-25T19:02:05Z</time>
      </trkpt>
      <trkpt lat="17.326405530" lon="-96.441735160">
        <ele>2141.100</ele>
        <time>2020-01-25T19:02:12Z</time>
      </trkpt>
      <trkpt lat="17.326364120" lon="-96.441740520">
        <ele>2138.500</ele>
        <time>2020-01-25T19:02:30Z</time>
      </trkpt>
      <trkpt lat="17.326354410" lon="-96.441703320">
        <ele>2137.800</ele>
        <time>2020-01-25T19:04:25Z</time>
      </trkpt>
      <trkpt lat="17.326328510" lon="-96.441669360">
        <ele>2138.700</ele>
        <time>2020-01-25T19:04:33Z</time>
      </trkpt>
      <trkpt lat="17.326309550" lon="-96.441635060">
        <ele>2140.800</ele>
        <time>2020-01-25T19:05:15Z</time>
      </trkpt>
      <trkpt lat="17.326290240" lon="-96.441598850">
        <ele>2142.900</ele>
        <time>2020-01-25T19:05:20Z</time>
      </trkpt>
      <trkpt lat="17.326256630" lon="-96.441568570">
        <ele>2143.400</ele>
        <time>2020-01-25T19:05:24Z</time>
      </trkpt>
      <trkpt lat="17.326228740" lon="-96.441540230">
        <ele>2146.000</ele>
        <time>2020-01-25T19:05:31Z</time>
      </trkpt>
      <trkpt lat="17.326193040" lon="-96.441523820">
        <ele>2145.500</ele>
        <time>2020-01-25T19:05:48Z</time>
      </trkpt>
      <trkpt lat="17.326156310" lon="-96.441527360">
        <ele>2144.800</ele>
        <time>2020-01-25T19:05:56Z</time>
      </trkpt>
      <trkpt lat="17.326118750" lon="-96.441531840">
        <ele>2141.300</ele>
        <time>2020-01-25T19:06:07Z</time>
      </trkpt>
      <trkpt lat="17.326103470" lon="-96.441495030">
        <ele>2143.100</ele>
        <time>2020-01-25T19:07:06Z</time>
      </trkpt>
      <trkpt lat="17.326079520" lon="-96.441462020">
        <ele>2142.100</ele>
        <time>2020-01-25T19:07:15Z</time>
      </trkpt>
      <trkpt lat="17.326060140" lon="-96.441424140">
        <ele>2143.900</ele>
        <time>2020-01-25T19:07:21Z</time>
      </trkpt>
      <trkpt lat="17.326031070" lon="-96.441394590">
        <ele>2143.300</ele>
        <time>2020-01-25T19:07:27Z</time>
      </trkpt>
      <trkpt lat="17.325990310" lon="-96.441388520">
        <ele>2142.800</ele>
        <time>2020-01-25T19:07:45Z</time>
      </trkpt>
      <trkpt lat="17.325966300" lon="-96.441360260">
        <ele>2143.500</ele>
        <time>2020-01-25T19:07:51Z</time>
      </trkpt>
      <trkpt lat="17.325959000" lon="-96.441316600">
        <ele>2146.400</ele>
        <time>2020-01-25T19:15:28Z</time>
      </trkpt>
      <trkpt lat="17.325957430" lon="-96.441275630">
        <ele>2147.900</ele>
        <time>2020-01-25T19:15:36Z</time>
      </trkpt>
      <trkpt lat="17.325951480" lon="-96.441236140">
        <ele>2147.900</ele>
        <time>2020-01-25T19:15:46Z</time>
      </trkpt>
      <trkpt lat="17.325943200" lon="-96.441193100">
        <ele>2147.300</ele>
        <time>2020-01-25T19:15:53Z</time>
      </trkpt>
      <trkpt lat="17.325922040" lon="-96.441158100">
        <ele>2148.200</ele>
        <time>2020-01-25T19:16:00Z</time>
      </trkpt>
      <trkpt lat="17.325921270" lon="-96.441119430">
        <ele>2149.800</ele>
        <time>2020-01-25T19:16:11Z</time>
      </trkpt>
      <trkpt lat="17.325913000" lon="-96.441079130">
        <ele>2151.700</ele>
        <time>2020-01-25T19:16:33Z</time>
      </trkpt>
      <trkpt lat="17.325879530" lon="-96.441047620">
        <ele>2151.100</ele>
        <time>2020-01-25T19:16:38Z</time>
      </trkpt>
      <trkpt lat="17.325848770" lon="-96.441014110">
        <ele>2150.800</ele>
        <time>2020-01-25T19:16:42Z</time>
      </trkpt>
      <trkpt lat="17.325820650" lon="-96.440986300">
        <ele>2149.800</ele>
        <time>2020-01-25T19:16:46Z</time>
      </trkpt>
      <trkpt lat="17.325795410" lon="-96.440953460">
        <ele>2149.300</ele>
        <time>2020-01-25T19:16:53Z</time>
      </trkpt>
      <trkpt lat="17.325766200" lon="-96.440924610">
        <ele>2148.200</ele>
        <time>2020-01-25T19:17:00Z</time>
      </trkpt>
      <trkpt lat="17.325755960" lon="-96.440886730">
        <ele>2149.700</ele>
        <time>2020-01-25T19:17:06Z</time>
      </trkpt>
      <trkpt lat="17.325767650" lon="-96.440849940">
        <ele>2148.600</ele>
        <time>2020-01-25T19:17:25Z</time>
      </trkpt>
      <trkpt lat="17.325733130" lon="-96.440828310">
        <ele>2147.500</ele>
        <time>2020-01-25T19:18:03Z</time>
      </trkpt>
      <trkpt lat="17.325726250" lon="-96.440789100">
        <ele>2150.400</ele>
        <time>2020-01-25T19:18:36Z</time>
      </trkpt>
      <trkpt lat="17.325728570" lon="-96.440751430">
        <ele>2151.300</ele>
        <time>2020-01-25T19:23:45Z</time>
      </trkpt>
      <trkpt lat="17.325756870" lon="-96.440720170">
        <ele>2152.600</ele>
        <time>2020-01-25T19:24:11Z</time>
      </trkpt>
      <trkpt lat="17.325744490" lon="-96.440683550">
        <ele>2152.700</ele>
        <time>2020-01-25T19:24:18Z</time>
      </trkpt>
      <trkpt lat="17.325723760" lon="-96.440646610">
        <ele>2153.200</ele>
        <time>2020-01-25T19:24:27Z</time>
      </trkpt>
      <trkpt lat="17.325707720" lon="-96.440610950">
        <ele>2153.200</ele>
        <time>2020-01-25T19:24:44Z</time>
      </trkpt>
      <trkpt lat="17.325704840" lon="-96.440572620">
        <ele>2153.300</ele>
        <time>2020-01-25T19:24:53Z</time>
      </trkpt>
      <trkpt lat="17.325682530" lon="-96.440542930">
        <ele>2154.400</ele>
        <time>2020-01-25T19:25:01Z</time>
      </trkpt>
      <trkpt lat="17.325663570" lon="-96.440505540">
        <ele>2155.200</ele>
        <time>2020-01-25T19:25:07Z</time>
      </trkpt>
      <trkpt lat="17.325660590" lon="-96.440464820">
        <ele>2158.600</ele>
        <time>2020-01-25T19:25:16Z</time>
      </trkpt>
      <trkpt lat="17.325672170" lon="-96.440427880">
        <ele>2161.000</ele>
        <time>2020-01-25T19:25:26Z</time>
      </trkpt>
      <trkpt lat="17.325654580" lon="-96.440393620">
        <ele>2160.700</ele>
        <time>2020-01-25T19:25:33Z</time>
      </trkpt>
      <trkpt lat="17.325632020" lon="-96.440360610">
        <ele>2160.000</ele>
        <time>2020-01-25T19:25:38Z</time>
      </trkpt>
      <trkpt lat="17.325609170" lon="-96.440326750">
        <ele>2162.700</ele>
        <time>2020-01-25T19:25:44Z</time>
      </trkpt>
      <trkpt lat="17.325608830" lon="-96.440284450">
        <ele>2165.800</ele>
        <time>2020-01-25T19:25:54Z</time>
      </trkpt>
      <trkpt lat="17.325602790" lon="-96.440243100">
        <ele>2166.200</ele>
        <time>2020-01-25T19:26:01Z</time>
      </trkpt>
      <trkpt lat="17.325588080" lon="-96.440207150">
        <ele>2164.100</ele>
        <time>2020-01-25T19:26:05Z</time>
      </trkpt>
      <trkpt lat="17.325560320" lon="-96.440176920">
        <ele>2161.600</ele>
        <time>2020-01-25T19:26:09Z</time>
      </trkpt>
      <trkpt lat="17.325554830" lon="-96.440135090">
        <ele>2161.000</ele>
        <time>2020-01-25T19:26:15Z</time>
      </trkpt>
      <trkpt lat="17.325549760" lon="-96.440096690">
        <ele>2159.700</ele>
        <time>2020-01-25T19:26:20Z</time>
      </trkpt>
      <trkpt lat="17.325540110" lon="-96.440052150">
        <ele>2159.400</ele>
        <time>2020-01-25T19:26:25Z</time>
      </trkpt>
      <trkpt lat="17.325528770" lon="-96.440012530">
        <ele>2159.400</ele>
        <time>2020-01-25T19:26:30Z</time>
      </trkpt>
      <trkpt lat="17.325509640" lon="-96.439974800">
        <ele>2157.900</ele>
        <time>2020-01-25T19:26:37Z</time>
      </trkpt>
      <trkpt lat="17.325504520" lon="-96.439931400">
        <ele>2158.500</ele>
        <time>2020-01-25T19:26:43Z</time>
      </trkpt>
      <trkpt lat="17.325487040" lon="-96.439894480">
        <ele>2158.900</ele>
        <time>2020-01-25T19:26:49Z</time>
      </trkpt>
      <trkpt lat="17.325484610" lon="-96.439853540">
        <ele>2158.600</ele>
        <time>2020-01-25T19:26:54Z</time>
      </trkpt>
      <trkpt lat="17.325475100" lon="-96.439811560">
        <ele>2157.300</ele>
        <time>2020-01-25T19:26:59Z</time>
      </trkpt>
      <trkpt lat="17.325450760" lon="-96.439777090">
        <ele>2156.200</ele>
        <time>2020-01-25T19:27:04Z</time>
      </trkpt>
      <trkpt lat="17.325420130" lon="-96.439748910">
        <ele>2155.300</ele>
        <time>2020-01-25T19:27:10Z</time>
      </trkpt>
      <trkpt lat="17.325388920" lon="-96.439724080">
        <ele>2153.600</ele>
        <time>2020-01-25T19:27:20Z</time>
      </trkpt>
      <trkpt lat="17.325353360" lon="-96.439699520">
        <ele>2155.500</ele>
        <time>2020-01-25T19:27:41Z</time>
      </trkpt>
      <trkpt lat="17.325313160" lon="-96.439705750">
        <ele>2158.600</ele>
        <time>2020-01-25T19:27:47Z</time>
      </trkpt>
      <trkpt lat="17.325274870" lon="-96.439695960">
        <ele>2161.900</ele>
        <time>2020-01-25T19:27:56Z</time>
      </trkpt>
      <trkpt lat="17.325237090" lon="-96.439685920">
        <ele>2165.900</ele>
        <time>2020-01-25T19:28:06Z</time>
      </trkpt>
      <trkpt lat="17.325193510" lon="-96.439690120">
        <ele>2166.100</ele>
        <time>2020-01-25T19:28:45Z</time>
      </trkpt>
      <trkpt lat="17.325153260" lon="-96.439683400">
        <ele>2166.600</ele>
        <time>2020-01-25T19:28:51Z</time>
      </trkpt>
      <trkpt lat="17.325114590" lon="-96.439680970">
        <ele>2167.100</ele>
        <time>2020-01-25T19:29:02Z</time>
      </trkpt>
      <trkpt lat="17.325076740" lon="-96.439681510">
        <ele>2168.000</ele>
        <time>2020-01-25T19:29:13Z</time>
      </trkpt>
      <trkpt lat="17.325037080" lon="-96.439674570">
        <ele>2167.100</ele>
        <time>2020-01-25T19:29:17Z</time>
      </trkpt>
      <trkpt lat="17.324998630" lon="-96.439662850">
        <ele>2165.800</ele>
        <time>2020-01-25T19:29:21Z</time>
      </trkpt>
      <trkpt lat="17.324962240" lon="-96.439648780">
        <ele>2166.600</ele>
        <time>2020-01-25T19:29:26Z</time>
      </trkpt>
      <trkpt lat="17.324925950" lon="-96.439641740">
        <ele>2166.900</ele>
        <time>2020-01-25T19:29:31Z</time>
      </trkpt>
      <trkpt lat="17.324888270" lon="-96.439637040">
        <ele>2167.800</ele>
        <time>2020-01-25T19:29:42Z</time>
      </trkpt>
      <trkpt lat="17.324854730" lon="-96.439620750">
        <ele>2168.200</ele>
        <time>2020-01-25T19:29:46Z</time>
      </trkpt>
      <trkpt lat="17.324819120" lon="-96.439598620">
        <ele>2167.700</ele>
        <time>2020-01-25T19:29:50Z</time>
      </trkpt>
      <trkpt lat="17.324792980" lon="-96.439565750">
        <ele>2169.100</ele>
        <time>2020-01-25T19:30:08Z</time>
      </trkpt>
      <trkpt lat="17.324755620" lon="-96.439553860">
        <ele>2171.400</ele>
        <time>2020-01-25T19:30:18Z</time>
      </trkpt>
      <trkpt lat="17.324730000" lon="-96.439524740">
        <ele>2174.800</ele>
        <time>2020-01-25T19:30:25Z</time>
      </trkpt>
      <trkpt lat="17.324696140" lon="-96.439502560">
        <ele>2176.100</ele>
        <time>2020-01-25T19:30:38Z</time>
      </trkpt>
      <trkpt lat="17.324673280" lon="-96.439467970">
        <ele>2175.600</ele>
        <time>2020-01-25T19:30:42Z</time>
      </trkpt>
      <trkpt lat="17.324643490" lon="-96.439439270">
        <ele>2175.900</ele>
        <time>2020-01-25T19:30:58Z</time>
      </trkpt>
      <trkpt lat="17.324605210" lon="-96.439424460">
        <ele>2175.000</ele>
        <time>2020-01-25T19:31:05Z</time>
      </trkpt>
      <trkpt lat="17.324570690" lon="-96.439412760">
        <ele>2176.000</ele>
        <time>2020-01-25T19:31:08Z</time>
      </trkpt>
      <trkpt lat="17.324539260" lon="-96.439384350">
        <ele>2176.900</ele>
        <time>2020-01-25T19:31:13Z</time>
      </trkpt>
      <trkpt lat="17.324508580" lon="-96.439361760">
        <ele>2175.900</ele>
        <time>2020-01-25T19:31:19Z</time>
      </trkpt>
      <trkpt lat="17.324467920" lon="-96.439369620">
        <ele>2177.700</ele>
        <time>2020-01-25T19:31:27Z</time>
      </trkpt>
      <trkpt lat="17.324434290" lon="-96.439384040">
        <ele>2178.500</ele>
        <time>2020-01-25T19:33:44Z</time>
      </trkpt>
      <trkpt lat="17.324407700" lon="-96.439409580">
        <ele>2178.300</ele>
        <time>2020-01-25T19:35:12Z</time>
      </trkpt>
      <trkpt lat="17.324382630" lon="-96.439438050">
        <ele>2178.800</ele>
        <time>2020-01-25T19:42:59Z</time>
      </trkpt>
      <trkpt lat="17.324383080" lon="-96.439478100">
        <ele>2177.900</ele>
        <time>2020-01-25T19:45:40Z</time>
      </trkpt>
      <trkpt lat="17.324356990" lon="-96.439513360">
        <ele>2177.800</ele>
        <time>2020-01-25T19:45:45Z</time>
      </trkpt>
      <trkpt lat="17.324320350" lon="-96.439533380">
        <ele>2176.600</ele>
        <time>2020-01-25T19:46:00Z</time>
      </trkpt>
      <trkpt lat="17.324284270" lon="-96.439547420">
        <ele>2177.700</ele>
        <time>2020-01-25T19:46:07Z</time>
      </trkpt>
      <trkpt lat="17.324246010" lon="-96.439540980">
        <ele>2174.900</ele>
        <time>2020-01-25T19:46:14Z</time>
      </trkpt>
      <trkpt lat="17.324208600" lon="-96.439551180">
        <ele>2175.800</ele>
        <time>2020-01-25T19:46:21Z</time>
      </trkpt>
      <trkpt lat="17.324170010" lon="-96.439561100">
        <ele>2175.800</ele>
        <time>2020-01-25T19:46:26Z</time>
      </trkpt>
      <trkpt lat="17.324132320" lon="-96.439564930">
        <ele>2174.300</ele>
        <time>2020-01-25T19:46:34Z</time>
      </trkpt>
      <trkpt lat="17.324093980" lon="-96.439577290">
        <ele>2173.100</ele>
        <time>2020-01-25T19:46:39Z</time>
      </trkpt>
      <trkpt lat="17.324056800" lon="-96.439589280">
        <ele>2175.400</ele>
        <time>2020-01-25T19:46:43Z</time>
      </trkpt>
      <trkpt lat="17.324023500" lon="-96.439606170">
        <ele>2175.000</ele>
        <time>2020-01-25T19:46:47Z</time>
      </trkpt>
      <trkpt lat="17.323984810" lon="-96.439622630">
        <ele>2176.700</ele>
        <time>2020-01-25T19:46:53Z</time>
      </trkpt>
      <trkpt lat="17.323948560" lon="-96.439616920">
        <ele>2178.000</ele>
        <time>2020-01-25T19:47:00Z</time>
      </trkpt>
      <trkpt lat="17.323916220" lon="-96.439635940">
        <ele>2175.900</ele>
        <time>2020-01-25T19:47:07Z</time>
      </trkpt>
      <trkpt lat="17.323887960" lon="-96.439663220">
        <ele>2177.300</ele>
        <time>2020-01-25T19:47:12Z</time>
      </trkpt>
      <trkpt lat="17.323870540" lon="-96.439700490">
        <ele>2180.500</ele>
        <time>2020-01-25T19:47:16Z</time>
      </trkpt>
      <trkpt lat="17.323857210" lon="-96.439742570">
        <ele>2180.800</ele>
        <time>2020-01-25T19:47:21Z</time>
      </trkpt>
      <trkpt lat="17.323844360" lon="-96.439783180">
        <ele>2182.400</ele>
        <time>2020-01-25T19:47:25Z</time>
      </trkpt>
      <trkpt lat="17.323834730" lon="-96.439830890">
        <ele>2181.000</ele>
        <time>2020-01-25T19:47:29Z</time>
      </trkpt>
      <trkpt lat="17.323829420" lon="-96.439878830">
        <ele>2180.500</ele>
        <time>2020-01-25T19:47:33Z</time>
      </trkpt>
      <trkpt lat="17.323801880" lon="-96.439909450">
        <ele>2184.600</ele>
        <time>2020-01-25T19:47:37Z</time>
      </trkpt>
      <trkpt lat="17.323790770" lon="-96.439949320">
        <ele>2184.700</ele>
        <time>2020-01-25T19:47:42Z</time>
      </trkpt>
      <trkpt lat="17.323762990" lon="-96.439982590">
        <ele>2186.000</ele>
        <time>2020-01-25T19:47:48Z</time>
      </trkpt>
      <trkpt lat="17.323734390" lon="-96.440009060">
        <ele>2186.800</ele>
        <time>2020-01-25T19:47:55Z</time>
      </trkpt>
      <trkpt lat="17.323693330" lon="-96.440019830">
        <ele>2185.600</ele>
        <time>2020-01-25T19:47:59Z</time>
      </trkpt>
      <trkpt lat="17.323655260" lon="-96.440038430">
        <ele>2186.400</ele>
        <time>2020-01-25T19:48:05Z</time>
      </trkpt>
      <trkpt lat="17.323611990" lon="-96.440030710">
        <ele>2187.300</ele>
        <time>2020-01-25T19:48:10Z</time>
      </trkpt>
      <trkpt lat="17.323573450" lon="-96.440021050">
        <ele>2186.900</ele>
        <time>2020-01-25T19:48:14Z</time>
      </trkpt>
      <trkpt lat="17.323531480" lon="-96.440023930">
        <ele>2185.600</ele>
        <time>2020-01-25T19:48:18Z</time>
      </trkpt>
      <trkpt lat="17.323495540" lon="-96.440012080">
        <ele>2186.200</ele>
        <time>2020-01-25T19:48:28Z</time>
      </trkpt>
      <trkpt lat="17.323460600" lon="-96.440033080">
        <ele>2182.800</ele>
        <time>2020-01-25T19:48:48Z</time>
      </trkpt>
      <trkpt lat="17.323434630" lon="-96.440071440">
        <ele>2183.500</ele>
        <time>2020-01-25T19:48:53Z</time>
      </trkpt>
      <trkpt lat="17.323399860" lon="-96.440099470">
        <ele>2184.900</ele>
        <time>2020-01-25T19:48:58Z</time>
      </trkpt>
      <trkpt lat="17.323370290" lon="-96.440126950">
        <ele>2184.900</ele>
        <time>2020-01-25T19:49:02Z</time>
      </trkpt>
      <trkpt lat="17.323341140" lon="-96.440152200">
        <ele>2184.600</ele>
        <time>2020-01-25T19:49:07Z</time>
      </trkpt>
      <trkpt lat="17.323308730" lon="-96.440173370">
        <ele>2186.400</ele>
        <time>2020-01-25T19:49:11Z</time>
      </trkpt>
      <trkpt lat="17.323280240" lon="-96.440202850">
        <ele>2184.300</ele>
        <time>2020-01-25T19:49:15Z</time>
      </trkpt>
      <trkpt lat="17.323247940" lon="-96.440228610">
        <ele>2184.400</ele>
        <time>2020-01-25T19:49:19Z</time>
      </trkpt>
      <trkpt lat="17.323210940" lon="-96.440242410">
        <ele>2183.400</ele>
        <time>2020-01-25T19:49:25Z</time>
      </trkpt>
      <trkpt lat="17.323173300" lon="-96.440243370">
        <ele>2183.400</ele>
        <time>2020-01-25T19:49:30Z</time>
      </trkpt>
      <trkpt lat="17.323134220" lon="-96.440222520">
        <ele>2181.300</ele>
        <time>2020-01-25T19:49:35Z</time>
      </trkpt>
      <trkpt lat="17.323103100" lon="-96.440194410">
        <ele>2178.600</ele>
        <time>2020-01-25T19:49:40Z</time>
      </trkpt>
      <trkpt lat="17.323070170" lon="-96.440174690">
        <ele>2178.500</ele>
        <time>2020-01-25T19:49:46Z</time>
      </trkpt>
      <trkpt lat="17.323025130" lon="-96.440167150">
        <ele>2179.800</ele>
        <time>2020-01-25T19:49:51Z</time>
      </trkpt>
      <trkpt lat="17.322983100" lon="-96.440157920">
        <ele>2178.000</ele>
        <time>2020-01-25T19:49:55Z</time>
      </trkpt>
      <trkpt lat="17.322943480" lon="-96.440156380">
        <ele>2175.900</ele>
        <time>2020-01-25T19:50:00Z</time>
      </trkpt>
      <trkpt lat="17.322903550" lon="-96.440150760">
        <ele>2176.600</ele>
        <time>2020-01-25T19:50:05Z</time>
      </trkpt>
      <trkpt lat="17.322866190" lon="-96.440144020">
        <ele>2178.800</ele>
        <time>2020-01-25T19:50:09Z</time>
      </trkpt>
      <trkpt lat="17.322826170" lon="-96.440136480">
        <ele>2177.200</ele>
        <time>2020-01-25T19:50:13Z</time>
      </trkpt>
      <trkpt lat="17.322782320" lon="-96.440148380">
        <ele>2176.500</ele>
        <time>2020-01-25T19:50:18Z</time>
      </trkpt>
      <trkpt lat="17.322745300" lon="-96.440164490">
        <ele>2176.300</ele>
        <time>2020-01-25T19:50:22Z</time>
      </trkpt>
      <trkpt lat="17.322705580" lon="-96.440152060">
        <ele>2178.000</ele>
        <time>2020-01-25T19:50:27Z</time>
      </trkpt>
      <trkpt lat="17.322667580" lon="-96.440160220">
        <ele>2180.500</ele>
        <time>2020-01-25T19:50:31Z</time>
      </trkpt>
      <trkpt lat="17.322631360" lon="-96.440152530">
        <ele>2181.400</ele>
        <time>2020-01-25T19:50:36Z</time>
      </trkpt>
      <trkpt lat="17.322598250" lon="-96.440137400">
        <ele>2181.100</ele>
        <time>2020-01-25T19:50:42Z</time>
      </trkpt>
      <trkpt lat="17.322564510" lon="-96.440121830">
        <ele>2181.700</ele>
        <time>2020-01-25T19:50:46Z</time>
      </trkpt>
      <trkpt lat="17.322533010" lon="-96.440097950">
        <ele>2180.500</ele>
        <time>2020-01-25T19:50:51Z</time>
      </trkpt>
      <trkpt lat="17.322495320" lon="-96.440081830">
        <ele>2182.400</ele>
        <time>2020-01-25T19:50:56Z</time>
      </trkpt>
      <trkpt lat="17.322461610" lon="-96.440060090">
        <ele>2183.500</ele>
        <time>2020-01-25T19:51:01Z</time>
      </trkpt>
      <trkpt lat="17.322423670" lon="-96.440040800">
        <ele>2183.000</ele>
        <time>2020-01-25T19:51:06Z</time>
      </trkpt>
      <trkpt lat="17.322387330" lon="-96.440024600">
        <ele>2183.800</ele>
        <time>2020-01-25T19:51:10Z</time>
      </trkpt>
      <trkpt lat="17.322348020" lon="-96.440004540">
        <ele>2182.800</ele>
        <time>2020-01-25T19:51:15Z</time>
      </trkpt>
      <trkpt lat="17.322314750" lon="-96.439983620">
        <ele>2183.000</ele>
        <time>2020-01-25T19:51:19Z</time>
      </trkpt>
      <trkpt lat="17.322281810" lon="-96.439957650">
        <ele>2183.900</ele>
        <time>2020-01-25T19:51:23Z</time>
      </trkpt>
      <trkpt lat="17.322245430" lon="-96.439944860">
        <ele>2184.000</ele>
        <time>2020-01-25T19:51:28Z</time>
      </trkpt>
      <trkpt lat="17.322201420" lon="-96.439943250">
        <ele>2181.900</ele>
        <time>2020-01-25T19:51:33Z</time>
      </trkpt>
      <trkpt lat="17.322158010" lon="-96.439940880">
        <ele>2182.000</ele>
        <time>2020-01-25T19:51:37Z</time>
      </trkpt>
      <trkpt lat="17.322121210" lon="-96.439940270">
        <ele>2182.500</ele>
        <time>2020-01-25T19:51:42Z</time>
      </trkpt>
      <trkpt lat="17.322084200" lon="-96.439924980">
        <ele>2182.700</ele>
        <time>2020-01-25T19:51:48Z</time>
      </trkpt>
      <trkpt lat="17.322041880" lon="-96.439907700">
        <ele>2184.700</ele>
        <time>2020-01-25T19:51:53Z</time>
      </trkpt>
      <trkpt lat="17.322002990" lon="-96.439889060">
        <ele>2183.700</ele>
        <time>2020-01-25T19:51:57Z</time>
      </trkpt>
      <trkpt lat="17.321967290" lon="-96.439869020">
        <ele>2184.200</ele>
        <time>2020-01-25T19:52:01Z</time>
      </trkpt>
      <trkpt lat="17.321932560" lon="-96.439841730">
        <ele>2184.500</ele>
        <time>2020-01-25T19:52:05Z</time>
      </trkpt>
      <trkpt lat="17.321902230" lon="-96.439813030">
        <ele>2182.200</ele>
        <time>2020-01-25T19:52:10Z</time>
      </trkpt>
      <trkpt lat="17.321876420" lon="-96.439784040">
        <ele>2182.700</ele>
        <time>2020-01-25T19:52:17Z</time>
      </trkpt>
      <trkpt lat="17.321848830" lon="-96.439758640">
        <ele>2182.300</ele>
        <time>2020-01-25T19:52:21Z</time>
      </trkpt>
      <trkpt lat="17.321806720" lon="-96.439738690">
        <ele>2182.800</ele>
        <time>2020-01-25T19:52:26Z</time>
      </trkpt>
      <trkpt lat="17.321768010" lon="-96.439724810">
        <ele>2187.000</ele>
        <time>2020-01-25T19:52:31Z</time>
      </trkpt>
      <trkpt lat="17.321734830" lon="-96.439688800">
        <ele>2186.700</ele>
        <time>2020-01-25T19:52:35Z</time>
      </trkpt>
      <trkpt lat="17.321713270" lon="-96.439652390">
        <ele>2186.600</ele>
        <time>2020-01-25T19:52:40Z</time>
      </trkpt>
      <trkpt lat="17.321690250" lon="-96.439616910">
        <ele>2186.000</ele>
        <time>2020-01-25T19:52:45Z</time>
      </trkpt>
      <trkpt lat="17.321679430" lon="-96.439579690">
        <ele>2184.400</ele>
        <time>2020-01-25T19:52:49Z</time>
      </trkpt>
      <trkpt lat="17.321661220" lon="-96.439546250">
        <ele>2183.500</ele>
        <time>2020-01-25T19:53:01Z</time>
      </trkpt>
      <trkpt lat="17.321646450" lon="-96.439509220">
        <ele>2184.700</ele>
        <time>2020-01-25T19:53:06Z</time>
      </trkpt>
      <trkpt lat="17.321628820" lon="-96.439470210">
        <ele>2182.200</ele>
        <time>2020-01-25T19:53:12Z</time>
      </trkpt>
      <trkpt lat="17.321611820" lon="-96.439425730">
        <ele>2182.400</ele>
        <time>2020-01-25T19:53:17Z</time>
      </trkpt>
      <trkpt lat="17.321592000" lon="-96.439385040">
        <ele>2180.300</ele>
        <time>2020-01-25T19:53:21Z</time>
      </trkpt>
      <trkpt lat="17.321572780" lon="-96.439349970">
        <ele>2179.000</ele>
        <time>2020-01-25T19:53:25Z</time>
      </trkpt>
      <trkpt lat="17.321555330" lon="-96.439315100">
        <ele>2178.100</ele>
        <time>2020-01-25T19:53:31Z</time>
      </trkpt>
      <trkpt lat="17.321523750" lon="-96.439283550">
        <ele>2177.900</ele>
        <time>2020-01-25T19:53:35Z</time>
      </trkpt>
      <trkpt lat="17.321511200" lon="-96.439246350">
        <ele>2178.200</ele>
        <time>2020-01-25T19:53:39Z</time>
      </trkpt>
      <trkpt lat="17.321497840" lon="-96.439210680">
        <ele>2177.000</ele>
        <time>2020-01-25T19:53:42Z</time>
      </trkpt>
      <trkpt lat="17.321475390" lon="-96.439166100">
        <ele>2176.000</ele>
        <time>2020-01-25T19:53:46Z</time>
      </trkpt>
      <trkpt lat="17.321445190" lon="-96.439130450">
        <ele>2177.000</ele>
        <time>2020-01-25T19:53:50Z</time>
      </trkpt>
      <trkpt lat="17.321432500" lon="-96.439094430">
        <ele>2177.600</ele>
        <time>2020-01-25T19:53:58Z</time>
      </trkpt>
      <trkpt lat="17.321409870" lon="-96.439064590">
        <ele>2177.100</ele>
        <time>2020-01-25T19:54:04Z</time>
      </trkpt>
      <trkpt lat="17.321391880" lon="-96.439031140">
        <ele>2177.600</ele>
        <time>2020-01-25T19:54:09Z</time>
      </trkpt>
      <trkpt lat="17.321359830" lon="-96.439005930">
        <ele>2176.800</ele>
        <time>2020-01-25T19:54:14Z</time>
      </trkpt>
      <trkpt lat="17.321318840" lon="-96.438986600">
        <ele>2177.100</ele>
        <time>2020-01-25T19:54:19Z</time>
      </trkpt>
      <trkpt lat="17.321285030" lon="-96.438966210">
        <ele>2177.800</ele>
        <time>2020-01-25T19:54:22Z</time>
      </trkpt>
      <trkpt lat="17.321239340" lon="-96.438950570">
        <ele>2178.900</ele>
        <time>2020-01-25T19:54:26Z</time>
      </trkpt>
      <trkpt lat="17.321195800" lon="-96.438947350">
        <ele>2178.400</ele>
        <time>2020-01-25T19:54:30Z</time>
      </trkpt>
      <trkpt lat="17.321153050" lon="-96.438951080">
        <ele>2178.300</ele>
        <time>2020-01-25T19:54:33Z</time>
      </trkpt>
      <trkpt lat="17.321116790" lon="-96.438954620">
        <ele>2176.400</ele>
        <time>2020-01-25T19:54:36Z</time>
      </trkpt>
      <trkpt lat="17.321079380" lon="-96.438957010">
        <ele>2175.800</ele>
        <time>2020-01-25T19:54:39Z</time>
      </trkpt>
      <trkpt lat="17.321041340" lon="-96.438962890">
        <ele>2174.500</ele>
        <time>2020-01-25T19:54:43Z</time>
      </trkpt>
      <trkpt lat="17.321005490" lon="-96.438971320">
        <ele>2173.600</ele>
        <time>2020-01-25T19:54:47Z</time>
      </trkpt>
      <trkpt lat="17.320965950" lon="-96.438979170">
        <ele>2173.400</ele>
        <time>2020-01-25T19:54:51Z</time>
      </trkpt>
      <trkpt lat="17.320934510" lon="-96.438998660">
        <ele>2173.800</ele>
        <time>2020-01-25T19:54:54Z</time>
      </trkpt>
      <trkpt lat="17.320902110" lon="-96.439028900">
        <ele>2173.800</ele>
        <time>2020-01-25T19:54:57Z</time>
      </trkpt>
      <trkpt lat="17.320873460" lon="-96.439060370">
        <ele>2172.400</ele>
        <time>2020-01-25T19:55:00Z</time>
      </trkpt>
      <trkpt lat="17.320831640" lon="-96.439076490">
        <ele>2171.500</ele>
        <time>2020-01-25T19:55:04Z</time>
      </trkpt>
      <trkpt lat="17.320798210" lon="-96.439098820">
        <ele>2171.200</ele>
        <time>2020-01-25T19:55:08Z</time>
      </trkpt>
      <trkpt lat="17.320772770" lon="-96.439127540">
        <ele>2171.000</ele>
        <time>2020-01-25T19:55:11Z</time>
      </trkpt>
      <trkpt lat="17.320733730" lon="-96.439152600">
        <ele>2174.700</ele>
        <time>2020-01-25T19:55:15Z</time>
      </trkpt>
      <trkpt lat="17.320690620" lon="-96.439155470">
        <ele>2178.900</ele>
        <time>2020-01-25T19:55:20Z</time>
      </trkpt>
      <trkpt lat="17.320655260" lon="-96.439126220">
        <ele>2179.300</ele>
        <time>2020-01-25T19:55:25Z</time>
      </trkpt>
      <trkpt lat="17.320621870" lon="-96.439101390">
        <ele>2178.800</ele>
        <time>2020-01-25T19:55:29Z</time>
      </trkpt>
      <trkpt lat="17.320597650" lon="-96.439069460">
        <ele>2179.700</ele>
        <time>2020-01-25T19:55:34Z</time>
      </trkpt>
      <trkpt lat="17.320571560" lon="-96.439037670">
        <ele>2179.100</ele>
        <time>2020-01-25T19:55:39Z</time>
      </trkpt>
      <trkpt lat="17.320541690" lon="-96.439003670">
        <ele>2178.800</ele>
        <time>2020-01-25T19:55:44Z</time>
      </trkpt>
      <trkpt lat="17.320528560" lon="-96.438967250">
        <ele>2177.100</ele>
        <time>2020-01-25T19:55:49Z</time>
      </trkpt>
      <trkpt lat="17.320523230" lon="-96.438928110">
        <ele>2175.000</ele>
        <time>2020-01-25T19:55:57Z</time>
      </trkpt>
      <trkpt lat="17.320535090" lon="-96.438886660">
        <ele>2174.300</ele>
        <time>2020-01-25T19:56:02Z</time>
      </trkpt>
      <trkpt lat="17.320496350" lon="-96.438860930">
        <ele>2177.500</ele>
        <time>2020-01-25T19:56:09Z</time>
      </trkpt>
      <trkpt lat="17.320455230" lon="-96.438852910">
        <ele>2177.400</ele>
        <time>2020-01-25T19:56:12Z</time>
      </trkpt>
      <trkpt lat="17.320417270" lon="-96.438862700">
        <ele>2173.700</ele>
        <time>2020-01-25T19:56:15Z</time>
      </trkpt>
      <trkpt lat="17.320371850" lon="-96.438862510">
        <ele>2171.800</ele>
        <time>2020-01-25T19:56:19Z</time>
      </trkpt>
      <trkpt lat="17.320332130" lon="-96.438881170">
        <ele>2173.500</ele>
        <time>2020-01-25T19:56:23Z</time>
      </trkpt>
      <trkpt lat="17.320295020" lon="-96.438892180">
        <ele>2172.400</ele>
        <time>2020-01-25T19:56:27Z</time>
      </trkpt>
      <trkpt lat="17.320268770" lon="-96.438924920">
        <ele>2172.300</ele>
        <time>2020-01-25T19:56:31Z</time>
      </trkpt>
      <trkpt lat="17.320236520" lon="-96.438944040">
        <ele>2173.600</ele>
        <time>2020-01-25T19:56:35Z</time>
      </trkpt>
      <trkpt lat="17.320190430" lon="-96.438957840">
        <ele>2173.400</ele>
        <time>2020-01-25T19:56:39Z</time>
      </trkpt>
      <trkpt lat="17.320149340" lon="-96.438978580">
        <ele>2176.900</ele>
        <time>2020-01-25T19:56:43Z</time>
      </trkpt>
      <trkpt lat="17.320109710" lon="-96.438990390">
        <ele>2176.400</ele>
        <time>2020-01-25T19:56:48Z</time>
      </trkpt>
      <trkpt lat="17.320070370" lon="-96.438994210">
        <ele>2176.700</ele>
        <time>2020-01-25T19:56:52Z</time>
      </trkpt>
      <trkpt lat="17.320034990" lon="-96.439010330">
        <ele>2177.000</ele>
        <time>2020-01-25T19:56:56Z</time>
      </trkpt>
      <trkpt lat="17.319998420" lon="-96.439025040">
        <ele>2176.900</ele>
        <time>2020-01-25T19:57:02Z</time>
      </trkpt>
      <trkpt lat="17.319949680" lon="-96.439025660">
        <ele>2176.900</ele>
        <time>2020-01-25T19:57:08Z</time>
      </trkpt>
      <trkpt lat="17.319910470" lon="-96.439023130">
        <ele>2175.600</ele>
        <time>2020-01-25T19:57:14Z</time>
      </trkpt>
      <trkpt lat="17.319876620" lon="-96.439043160">
        <ele>2175.400</ele>
        <time>2020-01-25T19:57:19Z</time>
      </trkpt>
      <trkpt lat="17.319835390" lon="-96.439053510">
        <ele>2176.100</ele>
        <time>2020-01-25T19:57:24Z</time>
      </trkpt>
      <trkpt lat="17.319794350" lon="-96.439037810">
        <ele>2177.500</ele>
        <time>2020-01-25T19:57:29Z</time>
      </trkpt>
      <trkpt lat="17.319754860" lon="-96.439023910">
        <ele>2178.600</ele>
        <time>2020-01-25T19:57:34Z</time>
      </trkpt>
      <trkpt lat="17.319716470" lon="-96.439023710">
        <ele>2178.400</ele>
        <time>2020-01-25T19:57:41Z</time>
      </trkpt>
      <trkpt lat="17.319683600" lon="-96.439004780">
        <ele>2177.400</ele>
        <time>2020-01-25T19:57:45Z</time>
      </trkpt>
      <trkpt lat="17.319649430" lon="-96.438989060">
        <ele>2178.400</ele>
        <time>2020-01-25T19:57:49Z</time>
      </trkpt>
      <trkpt lat="17.319603360" lon="-96.438987910">
        <ele>2178.800</ele>
        <time>2020-01-25T19:57:53Z</time>
      </trkpt>
      <trkpt lat="17.319567660" lon="-96.438999230">
        <ele>2180.200</ele>
        <time>2020-01-25T19:57:56Z</time>
      </trkpt>
      <trkpt lat="17.319532170" lon="-96.439020750">
        <ele>2175.000</ele>
        <time>2020-01-25T19:58:00Z</time>
      </trkpt>
      <trkpt lat="17.319505420" lon="-96.439053070">
        <ele>2175.300</ele>
        <time>2020-01-25T19:58:02Z</time>
      </trkpt>
      <trkpt lat="17.319464720" lon="-96.439072210">
        <ele>2174.800</ele>
        <time>2020-01-25T19:58:05Z</time>
      </trkpt>
      <trkpt lat="17.319430440" lon="-96.439094780">
        <ele>2174.900</ele>
        <time>2020-01-25T19:58:08Z</time>
      </trkpt>
      <trkpt lat="17.319392310" lon="-96.439094060">
        <ele>2175.900</ele>
        <time>2020-01-25T19:58:14Z</time>
      </trkpt>
      <trkpt lat="17.319349300" lon="-96.439083180">
        <ele>2178.500</ele>
        <time>2020-01-25T19:58:19Z</time>
      </trkpt>
      <trkpt lat="17.319309280" lon="-96.439094750">
        <ele>2177.400</ele>
        <time>2020-01-25T19:58:23Z</time>
      </trkpt>
      <trkpt lat="17.319268410" lon="-96.439091320">
        <ele>2178.000</ele>
        <time>2020-01-25T19:58:29Z</time>
      </trkpt>
      <trkpt lat="17.319234760" lon="-96.439116060">
        <ele>2178.400</ele>
        <time>2020-01-25T19:58:35Z</time>
      </trkpt>
      <trkpt lat="17.319196750" lon="-96.439125400">
        <ele>2179.600</ele>
        <time>2020-01-25T19:58:41Z</time>
      </trkpt>
      <trkpt lat="17.319156900" lon="-96.439133140">
        <ele>2180.700</ele>
        <time>2020-01-25T19:58:46Z</time>
      </trkpt>
      <trkpt lat="17.319114860" lon="-96.439125820">
        <ele>2181.900</ele>
        <time>2020-01-25T19:58:50Z</time>
      </trkpt>
      <trkpt lat="17.319080330" lon="-96.439113580">
        <ele>2183.500</ele>
        <time>2020-01-25T19:58:53Z</time>
      </trkpt>
      <trkpt lat="17.319040610" lon="-96.439103170">
        <ele>2183.800</ele>
        <time>2020-01-25T19:58:57Z</time>
      </trkpt>
      <trkpt lat="17.319003840" lon="-96.439090220">
        <ele>2186.300</ele>
        <time>2020-01-25T19:59:00Z</time>
      </trkpt>
      <trkpt lat="17.318961550" lon="-96.439101760">
        <ele>2183.200</ele>
        <time>2020-01-25T19:59:05Z</time>
      </trkpt>
      <trkpt lat="17.318925030" lon="-96.439104550">
        <ele>2181.100</ele>
        <time>2020-01-25T19:59:10Z</time>
      </trkpt>
      <trkpt lat="17.318890750" lon="-96.439120900">
        <ele>2181.900</ele>
        <time>2020-01-25T19:59:15Z</time>
      </trkpt>
      <trkpt lat="17.318848900" lon="-96.439128850">
        <ele>2181.200</ele>
        <time>2020-01-25T19:59:34Z</time>
      </trkpt>
      <trkpt lat="17.318811430" lon="-96.439127170">
        <ele>2180.300</ele>
        <time>2020-01-25T19:59:38Z</time>
      </trkpt>
      <trkpt lat="17.318772720" lon="-96.439120220">
        <ele>2179.200</ele>
        <time>2020-01-25T19:59:42Z</time>
      </trkpt>
      <trkpt lat="17.318734830" lon="-96.439104790">
        <ele>2178.500</ele>
        <time>2020-01-25T19:59:46Z</time>
      </trkpt>
      <trkpt lat="17.318701020" lon="-96.439085520">
        <ele>2176.100</ele>
        <time>2020-01-25T19:59:50Z</time>
      </trkpt>
      <trkpt lat="17.318658500" lon="-96.439073440">
        <ele>2173.300</ele>
        <time>2020-01-25T19:59:54Z</time>
      </trkpt>
      <trkpt lat="17.318611710" lon="-96.439068690">
        <ele>2172.900</ele>
        <time>2020-01-25T19:59:58Z</time>
      </trkpt>
      <trkpt lat="17.318568840" lon="-96.439058260">
        <ele>2173.200</ele>
        <time>2020-01-25T20:00:02Z</time>
      </trkpt>
      <trkpt lat="17.318524720" lon="-96.439047760">
        <ele>2173.100</ele>
        <time>2020-01-25T20:00:07Z</time>
      </trkpt>
      <trkpt lat="17.318479730" lon="-96.439042050">
        <ele>2172.600</ele>
        <time>2020-01-25T20:00:11Z</time>
      </trkpt>
      <trkpt lat="17.318446570" lon="-96.439024430">
        <ele>2170.900</ele>
        <time>2020-01-25T20:00:15Z</time>
      </trkpt>
      <trkpt lat="17.318400500" lon="-96.439006760">
        <ele>2172.900</ele>
        <time>2020-01-25T20:00:20Z</time>
      </trkpt>
      <trkpt lat="17.318355580" lon="-96.439002820">
        <ele>2171.800</ele>
        <time>2020-01-25T20:00:24Z</time>
      </trkpt>
      <trkpt lat="17.318313760" lon="-96.439002070">
        <ele>2171.100</ele>
        <time>2020-01-25T20:00:28Z</time>
      </trkpt>
      <trkpt lat="17.318271760" lon="-96.438993980">
        <ele>2171.900</ele>
        <time>2020-01-25T20:00:33Z</time>
      </trkpt>
      <trkpt lat="17.318229000" lon="-96.438996790">
        <ele>2171.200</ele>
        <time>2020-01-25T20:00:37Z</time>
      </trkpt>
      <trkpt lat="17.318189830" lon="-96.438996270">
        <ele>2170.400</ele>
        <time>2020-01-25T20:00:41Z</time>
      </trkpt>
      <trkpt lat="17.318152410" lon="-96.438994040">
        <ele>2169.500</ele>
        <time>2020-01-25T20:00:45Z</time>
      </trkpt>
      <trkpt lat="17.318108780" lon="-96.439012140">
        <ele>2169.600</ele>
        <time>2020-01-25T20:00:50Z</time>
      </trkpt>
      <trkpt lat="17.318064980" lon="-96.439016260">
        <ele>2169.800</ele>
        <time>2020-01-25T20:00:54Z</time>
      </trkpt>
      <trkpt lat="17.318025360" lon="-96.439015770">
        <ele>2167.500</ele>
        <time>2020-01-25T20:00:58Z</time>
      </trkpt>
      <trkpt lat="17.317987740" lon="-96.439030400">
        <ele>2167.900</ele>
        <time>2020-01-25T20:01:02Z</time>
      </trkpt>
      <trkpt lat="17.317949890" lon="-96.439022400">
        <ele>2169.000</ele>
        <time>2020-01-25T20:01:06Z</time>
      </trkpt>
      <trkpt lat="17.317908680" lon="-96.439005940">
        <ele>2168.000</ele>
        <time>2020-01-25T20:01:10Z</time>
      </trkpt>
      <trkpt lat="17.317871240" lon="-96.438993910">
        <ele>2170.100</ele>
        <time>2020-01-25T20:01:15Z</time>
      </trkpt>
      <trkpt lat="17.317831490" lon="-96.438989760">
        <ele>2168.400</ele>
        <time>2020-01-25T20:01:21Z</time>
      </trkpt>
      <trkpt lat="17.317794000" lon="-96.438974840">
        <ele>2168.800</ele>
        <time>2020-01-25T20:01:26Z</time>
      </trkpt>
      <trkpt lat="17.317751950" lon="-96.438954610">
        <ele>2167.300</ele>
        <time>2020-01-25T20:01:31Z</time>
      </trkpt>
      <trkpt lat="17.317715070" lon="-96.438956380">
        <ele>2168.700</ele>
        <time>2020-01-25T20:01:34Z</time>
      </trkpt>
      <trkpt lat="17.317669060" lon="-96.438971210">
        <ele>2167.100</ele>
        <time>2020-01-25T20:01:38Z</time>
      </trkpt>
      <trkpt lat="17.317623190" lon="-96.438985000">
        <ele>2166.500</ele>
        <time>2020-01-25T20:01:42Z</time>
      </trkpt>
      <trkpt lat="17.317579310" lon="-96.438992770">
        <ele>2168.300</ele>
        <time>2020-01-25T20:01:46Z</time>
      </trkpt>
      <trkpt lat="17.317539760" lon="-96.439007610">
        <ele>2170.500</ele>
        <time>2020-01-25T20:01:51Z</time>
      </trkpt>
      <trkpt lat="17.317508920" lon="-96.438985360">
        <ele>2171.000</ele>
        <time>2020-01-25T20:01:58Z</time>
      </trkpt>
      <trkpt lat="17.317473530" lon="-96.438965930">
        <ele>2171.200</ele>
        <time>2020-01-25T20:02:04Z</time>
      </trkpt>
      <trkpt lat="17.317443010" lon="-96.438944810">
        <ele>2172.300</ele>
        <time>2020-01-25T20:02:08Z</time>
      </trkpt>
      <trkpt lat="17.317415850" lon="-96.438915680">
        <ele>2174.300</ele>
        <time>2020-01-25T20:02:13Z</time>
      </trkpt>
      <trkpt lat="17.317383620" lon="-96.438893610">
        <ele>2174.100</ele>
        <time>2020-01-25T20:02:17Z</time>
      </trkpt>
      <trkpt lat="17.317354510" lon="-96.438867590">
        <ele>2173.300</ele>
        <time>2020-01-25T20:02:21Z</time>
      </trkpt>
      <trkpt lat="17.317319620" lon="-96.438840830">
        <ele>2172.900</ele>
        <time>2020-01-25T20:02:25Z</time>
      </trkpt>
      <trkpt lat="17.317280700" lon="-96.438818120">
        <ele>2172.700</ele>
        <time>2020-01-25T20:02:29Z</time>
      </trkpt>
      <trkpt lat="17.317240650" lon="-96.438800610">
        <ele>2171.800</ele>
        <time>2020-01-25T20:02:33Z</time>
      </trkpt>
      <trkpt lat="17.317196780" lon="-96.438785460">
        <ele>2171.200</ele>
        <time>2020-01-25T20:02:37Z</time>
      </trkpt>
      <trkpt lat="17.317160120" lon="-96.438782380">
        <ele>2171.100</ele>
        <time>2020-01-25T20:02:40Z</time>
      </trkpt>
      <trkpt lat="17.317125320" lon="-96.438762300">
        <ele>2171.500</ele>
        <time>2020-01-25T20:02:44Z</time>
      </trkpt>
      <trkpt lat="17.317088180" lon="-96.438747910">
        <ele>2172.700</ele>
        <time>2020-01-25T20:02:49Z</time>
      </trkpt>
      <trkpt lat="17.317057300" lon="-96.438720280">
        <ele>2173.500</ele>
        <time>2020-01-25T20:02:53Z</time>
      </trkpt>
      <trkpt lat="17.317026830" lon="-96.438693680">
        <ele>2173.100</ele>
        <time>2020-01-25T20:02:58Z</time>
      </trkpt>
      <trkpt lat="17.317003310" lon="-96.438658930">
        <ele>2175.000</ele>
        <time>2020-01-25T20:03:02Z</time>
      </trkpt>
      <trkpt lat="17.316982590" lon="-96.438621550">
        <ele>2176.700</ele>
        <time>2020-01-25T20:03:07Z</time>
      </trkpt>
      <trkpt lat="17.316956610" lon="-96.438594610">
        <ele>2177.300</ele>
        <time>2020-01-25T20:03:11Z</time>
      </trkpt>
      <trkpt lat="17.316938110" lon="-96.438556820">
        <ele>2175.000</ele>
        <time>2020-01-25T20:03:17Z</time>
      </trkpt>
      <trkpt lat="17.316904180" lon="-96.438524870">
        <ele>2175.000</ele>
        <time>2020-01-25T20:03:22Z</time>
      </trkpt>
      <trkpt lat="17.316891200" lon="-96.438489680">
        <ele>2173.700</ele>
        <time>2020-01-25T20:03:26Z</time>
      </trkpt>
      <trkpt lat="17.316878840" lon="-96.438452010">
        <ele>2172.800</ele>
        <time>2020-01-25T20:03:30Z</time>
      </trkpt>
      <trkpt lat="17.316858260" lon="-96.438416060">
        <ele>2173.100</ele>
        <time>2020-01-25T20:03:33Z</time>
      </trkpt>
      <trkpt lat="17.316823160" lon="-96.438393980">
        <ele>2175.200</ele>
        <time>2020-01-25T20:03:36Z</time>
      </trkpt>
      <trkpt lat="17.316794530" lon="-96.438363640">
        <ele>2175.000</ele>
        <time>2020-01-25T20:03:48Z</time>
      </trkpt>
      <trkpt lat="17.316753920" lon="-96.438354750">
        <ele>2174.300</ele>
        <time>2020-01-25T20:03:59Z</time>
      </trkpt>
      <trkpt lat="17.316710430" lon="-96.438363890">
        <ele>2172.400</ele>
        <time>2020-01-25T20:04:03Z</time>
      </trkpt>
      <trkpt lat="17.316667850" lon="-96.438365930">
        <ele>2172.100</ele>
        <time>2020-01-25T20:04:07Z</time>
      </trkpt>
      <trkpt lat="17.316627700" lon="-96.438364800">
        <ele>2171.900</ele>
        <time>2020-01-25T20:04:11Z</time>
      </trkpt>
      <trkpt lat="17.316586570" lon="-96.438369240">
        <ele>2172.200</ele>
        <time>2020-01-25T20:04:15Z</time>
      </trkpt>
      <trkpt lat="17.316549850" lon="-96.438376200">
        <ele>2173.200</ele>
        <time>2020-01-25T20:04:19Z</time>
      </trkpt>
      <trkpt lat="17.316514010" lon="-96.438400320">
        <ele>2173.700</ele>
        <time>2020-01-25T20:04:22Z</time>
      </trkpt>
      <trkpt lat="17.316480050" lon="-96.438430760">
        <ele>2173.400</ele>
        <time>2020-01-25T20:04:26Z</time>
      </trkpt>
      <trkpt lat="17.316441320" lon="-96.438460150">
        <ele>2174.300</ele>
        <time>2020-01-25T20:04:29Z</time>
      </trkpt>
      <trkpt lat="17.316411770" lon="-96.438491020">
        <ele>2172.300</ele>
        <time>2020-01-25T20:04:34Z</time>
      </trkpt>
      <trkpt lat="17.316390160" lon="-96.438525200">
        <ele>2169.600</ele>
        <time>2020-01-25T20:04:38Z</time>
      </trkpt>
      <trkpt lat="17.316361400" lon="-96.438557290">
        <ele>2169.700</ele>
        <time>2020-01-25T20:04:42Z</time>
      </trkpt>
      <trkpt lat="17.316333620" lon="-96.438587300">
        <ele>2169.100</ele>
        <time>2020-01-25T20:04:46Z</time>
      </trkpt>
      <trkpt lat="17.316306100" lon="-96.438622180">
        <ele>2167.100</ele>
        <time>2020-01-25T20:04:51Z</time>
      </trkpt>
      <trkpt lat="17.316275520" lon="-96.438646290">
        <ele>2165.800</ele>
        <time>2020-01-25T20:04:55Z</time>
      </trkpt>
      <trkpt lat="17.316243110" lon="-96.438676300">
        <ele>2165.600</ele>
        <time>2020-01-25T20:04:59Z</time>
      </trkpt>
      <trkpt lat="17.316214010" lon="-96.438698990">
        <ele>2166.700</ele>
        <time>2020-01-25T20:05:03Z</time>
      </trkpt>
      <trkpt lat="17.316186380" lon="-96.438734830">
        <ele>2168.600</ele>
        <time>2020-01-25T20:05:08Z</time>
      </trkpt>
      <trkpt lat="17.316156170" lon="-96.438764110">
        <ele>2170.600</ele>
        <time>2020-01-25T20:05:13Z</time>
      </trkpt>
      <trkpt lat="17.316120940" lon="-96.438776980">
        <ele>2170.500</ele>
        <time>2020-01-25T20:05:18Z</time>
      </trkpt>
      <trkpt lat="17.316083370" lon="-96.438781590">
        <ele>2165.600</ele>
        <time>2020-01-25T20:05:26Z</time>
      </trkpt>
      <trkpt lat="17.316047480" lon="-96.438759590">
        <ele>2161.900</ele>
        <time>2020-01-25T20:05:34Z</time>
      </trkpt>
      <trkpt lat="17.316020940" lon="-96.438729710">
        <ele>2161.200</ele>
        <time>2020-01-25T20:05:40Z</time>
      </trkpt>
      <trkpt lat="17.315987950" lon="-96.438700520">
        <ele>2160.900</ele>
        <time>2020-01-25T20:05:46Z</time>
      </trkpt>
      <trkpt lat="17.315965320" lon="-96.438669640">
        <ele>2160.600</ele>
        <time>2020-01-25T20:05:50Z</time>
      </trkpt>
      <trkpt lat="17.315944380" lon="-96.438634980">
        <ele>2160.700</ele>
        <time>2020-01-25T20:05:54Z</time>
      </trkpt>
      <trkpt lat="17.315927420" lon="-96.438595300">
        <ele>2160.700</ele>
        <time>2020-01-25T20:05:58Z</time>
      </trkpt>
      <trkpt lat="17.315910460" lon="-96.438557930">
        <ele>2158.800</ele>
        <time>2020-01-25T20:06:02Z</time>
      </trkpt>
      <trkpt lat="17.315885470" lon="-96.438525500">
        <ele>2157.200</ele>
        <time>2020-01-25T20:06:06Z</time>
      </trkpt>
      <trkpt lat="17.315864990" lon="-96.438491020">
        <ele>2155.900</ele>
        <time>2020-01-25T20:06:09Z</time>
      </trkpt>
      <trkpt lat="17.315839990" lon="-96.438461430">
        <ele>2155.600</ele>
        <time>2020-01-25T20:06:13Z</time>
      </trkpt>
      <trkpt lat="17.315814200" lon="-96.438430170">
        <ele>2156.000</ele>
        <time>2020-01-25T20:06:17Z</time>
      </trkpt>
      <trkpt lat="17.315780220" lon="-96.438415060">
        <ele>2156.600</ele>
        <time>2020-01-25T20:06:20Z</time>
      </trkpt>
      <trkpt lat="17.315756130" lon="-96.438384530">
        <ele>2156.300</ele>
        <time>2020-01-25T20:06:24Z</time>
      </trkpt>
      <trkpt lat="17.315732920" lon="-96.438355160">
        <ele>2155.400</ele>
        <time>2020-01-25T20:06:28Z</time>
      </trkpt>
      <trkpt lat="17.315701780" lon="-96.438327280">
        <ele>2155.800</ele>
        <time>2020-01-25T20:06:33Z</time>
      </trkpt>
      <trkpt lat="17.315663300" lon="-96.438311970">
        <ele>2155.100</ele>
        <time>2020-01-25T20:06:37Z</time>
      </trkpt>
      <trkpt lat="17.315631910" lon="-96.438283410">
        <ele>2155.500</ele>
        <time>2020-01-25T20:06:41Z</time>
      </trkpt>
      <trkpt lat="17.315596070" lon="-96.438259980">
        <ele>2155.600</ele>
        <time>2020-01-25T20:06:45Z</time>
      </trkpt>
      <trkpt lat="17.315559840" lon="-96.438255730">
        <ele>2159.100</ele>
        <time>2020-01-25T20:06:49Z</time>
      </trkpt>
      <trkpt lat="17.315522590" lon="-96.438252820">
        <ele>2160.100</ele>
        <time>2020-01-25T20:06:53Z</time>
      </trkpt>
      <trkpt lat="17.315484830" lon="-96.438239230">
        <ele>2157.800</ele>
        <time>2020-01-25T20:06:57Z</time>
      </trkpt>
      <trkpt lat="17.315445620" lon="-96.438252420">
        <ele>2157.300</ele>
        <time>2020-01-25T20:07:01Z</time>
      </trkpt>
      <trkpt lat="17.315408380" lon="-96.438268170">
        <ele>2159.100</ele>
        <time>2020-01-25T20:07:05Z</time>
      </trkpt>
      <trkpt lat="17.315364200" lon="-96.438283180">
        <ele>2162.300</ele>
        <time>2020-01-25T20:07:09Z</time>
      </trkpt>
      <trkpt lat="17.315324980" lon="-96.438297950">
        <ele>2164.200</ele>
        <time>2020-01-25T20:07:13Z</time>
      </trkpt>
      <trkpt lat="17.315287980" lon="-96.438307030">
        <ele>2163.100</ele>
        <time>2020-01-25T20:07:17Z</time>
      </trkpt>
      <trkpt lat="17.315251130" lon="-96.438309260">
        <ele>2164.500</ele>
        <time>2020-01-25T20:07:20Z</time>
      </trkpt>
      <trkpt lat="17.315214500" lon="-96.438293160">
        <ele>2162.600</ele>
        <time>2020-01-25T20:07:25Z</time>
      </trkpt>
      <trkpt lat="17.315182720" lon="-96.438266510">
        <ele>2162.600</ele>
        <time>2020-01-25T20:07:30Z</time>
      </trkpt>
      <trkpt lat="17.315156530" lon="-96.438240200">
        <ele>2159.900</ele>
        <time>2020-01-25T20:07:34Z</time>
      </trkpt>
      <trkpt lat="17.315128030" lon="-96.438214770">
        <ele>2159.000</ele>
        <time>2020-01-25T20:07:38Z</time>
      </trkpt>
      <trkpt lat="17.315104720" lon="-96.438177140">
        <ele>2155.700</ele>
        <time>2020-01-25T20:07:43Z</time>
      </trkpt>
      <trkpt lat="17.315091860" lon="-96.438134390">
        <ele>2155.500</ele>
        <time>2020-01-25T20:07:49Z</time>
      </trkpt>
      <trkpt lat="17.315095370" lon="-96.438095080">
        <ele>2155.600</ele>
        <time>2020-01-25T20:07:54Z</time>
      </trkpt>
      <trkpt lat="17.315102030" lon="-96.438057670">
        <ele>2156.600</ele>
        <time>2020-01-25T20:08:01Z</time>
      </trkpt>
      <trkpt lat="17.315111070" lon="-96.438017890">
        <ele>2155.900</ele>
        <time>2020-01-25T20:08:06Z</time>
      </trkpt>
      <trkpt lat="17.315112740" lon="-96.437980140">
        <ele>2155.700</ele>
        <time>2020-01-25T20:08:11Z</time>
      </trkpt>
      <trkpt lat="17.315106360" lon="-96.437942940">
        <ele>2156.600</ele>
        <time>2020-01-25T20:08:16Z</time>
      </trkpt>
      <trkpt lat="17.315083680" lon="-96.437911660">
        <ele>2157.700</ele>
        <time>2020-01-25T20:08:22Z</time>
      </trkpt>
      <trkpt lat="17.315047250" lon="-96.437932470">
        <ele>2159.300</ele>
        <time>2020-01-25T20:08:27Z</time>
      </trkpt>
      <trkpt lat="17.315024560" lon="-96.437962450">
        <ele>2160.400</ele>
        <time>2020-01-25T20:08:30Z</time>
      </trkpt>
      <trkpt lat="17.314987990" lon="-96.437979110">
        <ele>2158.800</ele>
        <time>2020-01-25T20:08:34Z</time>
      </trkpt>
      <trkpt lat="17.314964110" lon="-96.438007750">
        <ele>2162.300</ele>
        <time>2020-01-25T20:08:38Z</time>
      </trkpt>
      <trkpt lat="17.314931960" lon="-96.438025570">
        <ele>2163.000</ele>
        <time>2020-01-25T20:08:41Z</time>
      </trkpt>
      <trkpt lat="17.314900190" lon="-96.438058300">
        <ele>2163.200</ele>
        <time>2020-01-25T20:08:46Z</time>
      </trkpt>
      <trkpt lat="17.314857950" lon="-96.438066540">
        <ele>2160.100</ele>
        <time>2020-01-25T20:08:51Z</time>
      </trkpt>
      <trkpt lat="17.314830400" lon="-96.438097180">
        <ele>2158.200</ele>
        <time>2020-01-25T20:08:57Z</time>
      </trkpt>
      <trkpt lat="17.314833300" lon="-96.438134890">
        <ele>2159.100</ele>
        <time>2020-01-25T20:09:01Z</time>
      </trkpt>
      <trkpt lat="17.314833370" lon="-96.438175460">
        <ele>2161.200</ele>
        <time>2020-01-25T20:09:06Z</time>
      </trkpt>
      <trkpt lat="17.314825290" lon="-96.438212380">
        <ele>2160.200</ele>
        <time>2020-01-25T20:09:11Z</time>
      </trkpt>
      <trkpt lat="17.314815440" lon="-96.438254130">
        <ele>2156.800</ele>
        <time>2020-01-25T20:09:15Z</time>
      </trkpt>
      <trkpt lat="17.314805390" lon="-96.438299240">
        <ele>2157.300</ele>
        <time>2020-01-25T20:09:19Z</time>
      </trkpt>
      <trkpt lat="17.314780260" lon="-96.438331580">
        <ele>2156.900</ele>
        <time>2020-01-25T20:09:24Z</time>
      </trkpt>
      <trkpt lat="17.314767660" lon="-96.438368350">
        <ele>2157.200</ele>
        <time>2020-01-25T20:10:00Z</time>
      </trkpt>
      <trkpt lat="17.314739360" lon="-96.438402220">
        <ele>2154.900</ele>
        <time>2020-01-25T20:10:07Z</time>
      </trkpt>
      <trkpt lat="17.314712530" lon="-96.438434220">
        <ele>2154.300</ele>
        <time>2020-01-25T20:10:13Z</time>
      </trkpt>
      <trkpt lat="17.314678210" lon="-96.438462760">
        <ele>2153.500</ele>
        <time>2020-01-25T20:10:17Z</time>
      </trkpt>
      <trkpt lat="17.314642170" lon="-96.438493100">
        <ele>2153.600</ele>
        <time>2020-01-25T20:10:22Z</time>
      </trkpt>
      <trkpt lat="17.314607300" lon="-96.438519520">
        <ele>2154.000</ele>
        <time>2020-01-25T20:10:27Z</time>
      </trkpt>
      <trkpt lat="17.314576760" lon="-96.438547390">
        <ele>2155.300</ele>
        <time>2020-01-25T20:10:32Z</time>
      </trkpt>
      <trkpt lat="17.314547170" lon="-96.438583680">
        <ele>2155.500</ele>
        <time>2020-01-25T20:10:37Z</time>
      </trkpt>
      <trkpt lat="17.314520370" lon="-96.438609840">
        <ele>2156.100</ele>
        <time>2020-01-25T20:10:42Z</time>
      </trkpt>
      <trkpt lat="17.314492460" lon="-96.438644600">
        <ele>2154.000</ele>
        <time>2020-01-25T20:10:46Z</time>
      </trkpt>
      <trkpt lat="17.314480940" lon="-96.438682150">
        <ele>2154.000</ele>
        <time>2020-01-25T20:10:50Z</time>
      </trkpt>
      <trkpt lat="17.314470750" lon="-96.438721720">
        <ele>2153.900</ele>
        <time>2020-01-25T20:10:56Z</time>
      </trkpt>
      <trkpt lat="17.314465160" lon="-96.438766520">
        <ele>2152.000</ele>
        <time>2020-01-25T20:11:01Z</time>
      </trkpt>
      <trkpt lat="17.314451920" lon="-96.438803940">
        <ele>2152.300</ele>
        <time>2020-01-25T20:11:06Z</time>
      </trkpt>
      <trkpt lat="17.314433660" lon="-96.438842570">
        <ele>2150.800</ele>
        <time>2020-01-25T20:11:11Z</time>
      </trkpt>
      <trkpt lat="17.314411340" lon="-96.438875050">
        <ele>2151.700</ele>
        <time>2020-01-25T20:11:17Z</time>
      </trkpt>
      <trkpt lat="17.314392160" lon="-96.438913460">
        <ele>2150.800</ele>
        <time>2020-01-25T20:11:23Z</time>
      </trkpt>
      <trkpt lat="17.314365990" lon="-96.438946320">
        <ele>2153.000</ele>
        <time>2020-01-25T20:11:31Z</time>
      </trkpt>
      <trkpt lat="17.314350490" lon="-96.438981090">
        <ele>2152.300</ele>
        <time>2020-01-25T20:11:36Z</time>
      </trkpt>
      <trkpt lat="17.314324820" lon="-96.439008540">
        <ele>2154.200</ele>
        <time>2020-01-25T20:11:41Z</time>
      </trkpt>
      <trkpt lat="17.314288510" lon="-96.439029230">
        <ele>2154.400</ele>
        <time>2020-01-25T20:11:49Z</time>
      </trkpt>
      <trkpt lat="17.314251480" lon="-96.439053080">
        <ele>2157.600</ele>
        <time>2020-01-25T20:11:55Z</time>
      </trkpt>
      <trkpt lat="17.314220560" lon="-96.439083620">
        <ele>2159.400</ele>
        <time>2020-01-25T20:12:00Z</time>
      </trkpt>
      <trkpt lat="17.314197350" lon="-96.439115400">
        <ele>2157.500</ele>
        <time>2020-01-25T20:12:04Z</time>
      </trkpt>
      <trkpt lat="17.314172410" lon="-96.439149120">
        <ele>2157.200</ele>
        <time>2020-01-25T20:12:09Z</time>
      </trkpt>
      <trkpt lat="17.314142410" lon="-96.439180520">
        <ele>2157.500</ele>
        <time>2020-01-25T20:12:14Z</time>
      </trkpt>
      <trkpt lat="17.314118680" lon="-96.439209440">
        <ele>2158.000</ele>
        <time>2020-01-25T20:12:19Z</time>
      </trkpt>
      <trkpt lat="17.314098120" lon="-96.439251580">
        <ele>2156.000</ele>
        <time>2020-01-25T20:12:24Z</time>
      </trkpt>
      <trkpt lat="17.314065160" lon="-96.439279970">
        <ele>2154.000</ele>
        <time>2020-01-25T20:12:28Z</time>
      </trkpt>
      <trkpt lat="17.314065990" lon="-96.439317700">
        <ele>2154.000</ele>
        <time>2020-01-25T20:12:56Z</time>
      </trkpt>
      <trkpt lat="17.314029730" lon="-96.439322710">
        <ele>2152.100</ele>
        <time>2020-01-25T20:13:52Z</time>
      </trkpt>
      <trkpt lat="17.313990330" lon="-96.439335110">
        <ele>2151.100</ele>
        <time>2020-01-25T20:14:15Z</time>
      </trkpt>
      <trkpt lat="17.313955380" lon="-96.439345580">
        <ele>2151.600</ele>
        <time>2020-01-25T20:14:19Z</time>
      </trkpt>
      <trkpt lat="17.313917390" lon="-96.439336580">
        <ele>2151.600</ele>
        <time>2020-01-25T20:14:30Z</time>
      </trkpt>
      <trkpt lat="17.313877660" lon="-96.439337950">
        <ele>2153.800</ele>
        <time>2020-01-25T20:14:46Z</time>
      </trkpt>
      <trkpt lat="17.313842230" lon="-96.439349140">
        <ele>2154.400</ele>
        <time>2020-01-25T20:15:00Z</time>
      </trkpt>
      <trkpt lat="17.313806780" lon="-96.439362920">
        <ele>2151.900</ele>
        <time>2020-01-25T20:15:09Z</time>
      </trkpt>
      <trkpt lat="17.313768820" lon="-96.439374600">
        <ele>2153.700</ele>
        <time>2020-01-25T20:15:17Z</time>
      </trkpt>
      <trkpt lat="17.313723700" lon="-96.439393650">
        <ele>2154.600</ele>
        <time>2020-01-25T20:15:21Z</time>
      </trkpt>
      <trkpt lat="17.313685870" lon="-96.439410500">
        <ele>2154.800</ele>
        <time>2020-01-25T20:15:25Z</time>
      </trkpt>
      <trkpt lat="17.313643400" lon="-96.439428840">
        <ele>2154.400</ele>
        <time>2020-01-25T20:15:29Z</time>
      </trkpt>
      <trkpt lat="17.313610560" lon="-96.439453930">
        <ele>2155.700</ele>
        <time>2020-01-25T20:15:33Z</time>
      </trkpt>
      <trkpt lat="17.313573870" lon="-96.439481050">
        <ele>2154.000</ele>
        <time>2020-01-25T20:15:37Z</time>
      </trkpt>
      <trkpt lat="17.313539660" lon="-96.439495170">
        <ele>2153.700</ele>
        <time>2020-01-25T20:15:41Z</time>
      </trkpt>
      <trkpt lat="17.313499480" lon="-96.439517750">
        <ele>2154.300</ele>
        <time>2020-01-25T20:15:49Z</time>
      </trkpt>
      <trkpt lat="17.313465170" lon="-96.439538300">
        <ele>2153.100</ele>
        <time>2020-01-25T20:15:53Z</time>
      </trkpt>
      <trkpt lat="17.313428950" lon="-96.439564870">
        <ele>2152.500</ele>
        <time>2020-01-25T20:15:58Z</time>
      </trkpt>
      <trkpt lat="17.313394160" lon="-96.439583800">
        <ele>2152.200</ele>
        <time>2020-01-25T20:16:03Z</time>
      </trkpt>
      <trkpt lat="17.313364310" lon="-96.439611850">
        <ele>2152.300</ele>
        <time>2020-01-25T20:16:08Z</time>
      </trkpt>
      <trkpt lat="17.313326160" lon="-96.439635050">
        <ele>2150.900</ele>
        <time>2020-01-25T20:16:15Z</time>
      </trkpt>
      <trkpt lat="17.313290460" lon="-96.439657780">
        <ele>2151.800</ele>
        <time>2020-01-25T20:16:21Z</time>
      </trkpt>
      <trkpt lat="17.313262670" lon="-96.439694800">
        <ele>2151.100</ele>
        <time>2020-01-25T20:16:26Z</time>
      </trkpt>
      <trkpt lat="17.313237420" lon="-96.439733300">
        <ele>2149.900</ele>
        <time>2020-01-25T20:16:31Z</time>
      </trkpt>
      <trkpt lat="17.313214400" lon="-96.439767850">
        <ele>2147.000</ele>
        <time>2020-01-25T20:16:35Z</time>
      </trkpt>
      <trkpt lat="17.313186970" lon="-96.439800380">
        <ele>2147.600</ele>
        <time>2020-01-25T20:16:39Z</time>
      </trkpt>
      <trkpt lat="17.313160800" lon="-96.439827730">
        <ele>2147.200</ele>
        <time>2020-01-25T20:16:43Z</time>
      </trkpt>
      <trkpt lat="17.313147970" lon="-96.439864450">
        <ele>2144.200</ele>
        <time>2020-01-25T20:16:47Z</time>
      </trkpt>
      <trkpt lat="17.313129840" lon="-96.439903990">
        <ele>2143.600</ele>
        <time>2020-01-25T20:16:52Z</time>
      </trkpt>
      <trkpt lat="17.313124930" lon="-96.439942050">
        <ele>2144.000</ele>
        <time>2020-01-25T20:16:57Z</time>
      </trkpt>
      <trkpt lat="17.313117370" lon="-96.439985320">
        <ele>2145.500</ele>
        <time>2020-01-25T20:17:02Z</time>
      </trkpt>
      <trkpt lat="17.313113880" lon="-96.440025660">
        <ele>2147.300</ele>
        <time>2020-01-25T20:17:06Z</time>
      </trkpt>
      <trkpt lat="17.313108500" lon="-96.440075090">
        <ele>2147.300</ele>
        <time>2020-01-25T20:17:10Z</time>
      </trkpt>
      <trkpt lat="17.313101300" lon="-96.440117520">
        <ele>2146.800</ele>
        <time>2020-01-25T20:17:14Z</time>
      </trkpt>
      <trkpt lat="17.313109290" lon="-96.440155760">
        <ele>2145.200</ele>
        <time>2020-01-25T20:17:18Z</time>
      </trkpt>
      <trkpt lat="17.313103910" lon="-96.440203080">
        <ele>2146.400</ele>
        <time>2020-01-25T20:17:23Z</time>
      </trkpt>
      <trkpt lat="17.313093300" lon="-96.440240280">
        <ele>2147.700</ele>
        <time>2020-01-25T20:17:28Z</time>
      </trkpt>
      <trkpt lat="17.313072120" lon="-96.440281030">
        <ele>2148.600</ele>
        <time>2020-01-25T20:17:34Z</time>
      </trkpt>
      <trkpt lat="17.313044610" lon="-96.440318830">
        <ele>2146.700</ele>
        <time>2020-01-25T20:17:38Z</time>
      </trkpt>
      <trkpt lat="17.313021730" lon="-96.440353930">
        <ele>2149.300</ele>
        <time>2020-01-25T20:17:44Z</time>
      </trkpt>
      <trkpt lat="17.313009140" lon="-96.440392660">
        <ele>2147.700</ele>
        <time>2020-01-25T20:17:49Z</time>
      </trkpt>
      <trkpt lat="17.312992970" lon="-96.440442110">
        <ele>2149.400</ele>
        <time>2020-01-25T20:17:54Z</time>
      </trkpt>
      <trkpt lat="17.312975240" lon="-96.440481710">
        <ele>2147.000</ele>
        <time>2020-01-25T20:17:57Z</time>
      </trkpt>
      <trkpt lat="17.312961910" lon="-96.440527320">
        <ele>2143.500</ele>
        <time>2020-01-25T20:18:01Z</time>
      </trkpt>
      <trkpt lat="17.312947960" lon="-96.440564980">
        <ele>2142.800</ele>
        <time>2020-01-25T20:18:04Z</time>
      </trkpt>
      <trkpt lat="17.312920120" lon="-96.440597270">
        <ele>2141.700</ele>
        <time>2020-01-25T20:18:07Z</time>
      </trkpt>
      <trkpt lat="17.312903010" lon="-96.440642340">
        <ele>2140.500</ele>
        <time>2020-01-25T20:18:11Z</time>
      </trkpt>
      <trkpt lat="17.312889580" lon="-96.440684270">
        <ele>2141.500</ele>
        <time>2020-01-25T20:18:15Z</time>
      </trkpt>
      <trkpt lat="17.312881450" lon="-96.440725840">
        <ele>2142.400</ele>
        <time>2020-01-25T20:18:19Z</time>
      </trkpt>
      <trkpt lat="17.312870620" lon="-96.440767000">
        <ele>2138.200</ele>
        <time>2020-01-25T20:18:23Z</time>
      </trkpt>
      <trkpt lat="17.312862130" lon="-96.440806840">
        <ele>2139.000</ele>
        <time>2020-01-25T20:18:39Z</time>
      </trkpt>
      <trkpt lat="17.312851470" lon="-96.440850290">
        <ele>2142.100</ele>
        <time>2020-01-25T20:18:44Z</time>
      </trkpt>
      <trkpt lat="17.312831480" lon="-96.440889260">
        <ele>2145.900</ele>
        <time>2020-01-25T20:18:48Z</time>
      </trkpt>
      <trkpt lat="17.312810280" lon="-96.440930370">
        <ele>2148.000</ele>
        <time>2020-01-25T20:18:52Z</time>
      </trkpt>
      <trkpt lat="17.312792770" lon="-96.440966600">
        <ele>2149.400</ele>
        <time>2020-01-25T20:18:55Z</time>
      </trkpt>
      <trkpt lat="17.312791730" lon="-96.441006200">
        <ele>2149.900</ele>
        <time>2020-01-25T20:18:59Z</time>
      </trkpt>
      <trkpt lat="17.312794380" lon="-96.441046740">
        <ele>2149.600</ele>
        <time>2020-01-25T20:19:04Z</time>
      </trkpt>
      <trkpt lat="17.312766370" lon="-96.441072890">
        <ele>2148.000</ele>
        <time>2020-01-25T20:19:10Z</time>
      </trkpt>
      <trkpt lat="17.312745000" lon="-96.441107350">
        <ele>2147.700</ele>
        <time>2020-01-25T20:19:15Z</time>
      </trkpt>
      <trkpt lat="17.312730620" lon="-96.441146600">
        <ele>2148.900</ele>
        <time>2020-01-25T20:19:19Z</time>
      </trkpt>
      <trkpt lat="17.312720940" lon="-96.441182950">
        <ele>2148.600</ele>
        <time>2020-01-25T20:19:22Z</time>
      </trkpt>
      <trkpt lat="17.312709930" lon="-96.441225180">
        <ele>2148.700</ele>
        <time>2020-01-25T20:19:27Z</time>
      </trkpt>
      <trkpt lat="17.312701020" lon="-96.441262310">
        <ele>2148.200</ele>
        <time>2020-01-25T20:19:31Z</time>
      </trkpt>
      <trkpt lat="17.312690920" lon="-96.441303170">
        <ele>2146.000</ele>
        <time>2020-01-25T20:19:35Z</time>
      </trkpt>
      <trkpt lat="17.312673980" lon="-96.441344450">
        <ele>2144.800</ele>
        <time>2020-01-25T20:19:39Z</time>
      </trkpt>
      <trkpt lat="17.312649950" lon="-96.441383210">
        <ele>2144.500</ele>
        <time>2020-01-25T20:19:43Z</time>
      </trkpt>
      <trkpt lat="17.312640180" lon="-96.441427730">
        <ele>2144.200</ele>
        <time>2020-01-25T20:19:48Z</time>
      </trkpt>
      <trkpt lat="17.312626500" lon="-96.441463680">
        <ele>2144.200</ele>
        <time>2020-01-25T20:19:52Z</time>
      </trkpt>
      <trkpt lat="17.312615190" lon="-96.441499740">
        <ele>2145.700</ele>
        <time>2020-01-25T20:19:56Z</time>
      </trkpt>
      <trkpt lat="17.312599050" lon="-96.441543520">
        <ele>2145.900</ele>
        <time>2020-01-25T20:20:00Z</time>
      </trkpt>
      <trkpt lat="17.312577120" lon="-96.441583970">
        <ele>2143.700</ele>
        <time>2020-01-25T20:20:04Z</time>
      </trkpt>
      <trkpt lat="17.312562610" lon="-96.441626400">
        <ele>2142.700</ele>
        <time>2020-01-25T20:20:08Z</time>
      </trkpt>
      <trkpt lat="17.312552820" lon="-96.441673990">
        <ele>2139.200</ele>
        <time>2020-01-25T20:20:13Z</time>
      </trkpt>
      <trkpt lat="17.312545690" lon="-96.441712610">
        <ele>2139.400</ele>
        <time>2020-01-25T20:20:17Z</time>
      </trkpt>
      <trkpt lat="17.312532340" lon="-96.441748960">
        <ele>2140.000</ele>
        <time>2020-01-25T20:20:21Z</time>
      </trkpt>
      <trkpt lat="17.312520950" lon="-96.441793910">
        <ele>2139.200</ele>
        <time>2020-01-25T20:20:25Z</time>
      </trkpt>
      <trkpt lat="17.312514290" lon="-96.441841940">
        <ele>2142.700</ele>
        <time>2020-01-25T20:20:29Z</time>
      </trkpt>
      <trkpt lat="17.312504580" lon="-96.441886890">
        <ele>2144.600</ele>
        <time>2020-01-25T20:20:33Z</time>
      </trkpt>
      <trkpt lat="17.312499370" lon="-96.441928490">
        <ele>2144.900</ele>
        <time>2020-01-25T20:20:36Z</time>
      </trkpt>
      <trkpt lat="17.312488500" lon="-96.441967290">
        <ele>2144.700</ele>
        <time>2020-01-25T20:20:40Z</time>
      </trkpt>
      <trkpt lat="17.312485690" lon="-96.442005540">
        <ele>2145.400</ele>
        <time>2020-01-25T20:20:44Z</time>
      </trkpt>
      <trkpt lat="17.312483020" lon="-96.442051410">
        <ele>2145.100</ele>
        <time>2020-01-25T20:20:48Z</time>
      </trkpt>
      <trkpt lat="17.312484200" lon="-96.442098030">
        <ele>2145.000</ele>
        <time>2020-01-25T20:20:53Z</time>
      </trkpt>
      <trkpt lat="17.312494800" lon="-96.442147690">
        <ele>2145.200</ele>
        <time>2020-01-25T20:20:57Z</time>
      </trkpt>
      <trkpt lat="17.312508200" lon="-96.442185640">
        <ele>2143.100</ele>
        <time>2020-01-25T20:21:01Z</time>
      </trkpt>
      <trkpt lat="17.312507120" lon="-96.442234540">
        <ele>2143.800</ele>
        <time>2020-01-25T20:21:06Z</time>
      </trkpt>
      <trkpt lat="17.312509850" lon="-96.442282730">
        <ele>2144.100</ele>
        <time>2020-01-25T20:21:11Z</time>
      </trkpt>
      <trkpt lat="17.312502380" lon="-96.442327650">
        <ele>2144.200</ele>
        <time>2020-01-25T20:21:16Z</time>
      </trkpt>
      <trkpt lat="17.312502360" lon="-96.442370120">
        <ele>2144.100</ele>
        <time>2020-01-25T20:21:20Z</time>
      </trkpt>
      <trkpt lat="17.312503780" lon="-96.442415380">
        <ele>2143.100</ele>
        <time>2020-01-25T20:21:24Z</time>
      </trkpt>
      <trkpt lat="17.312505110" lon="-96.442457150">
        <ele>2141.900</ele>
        <time>2020-01-25T20:21:28Z</time>
      </trkpt>
      <trkpt lat="17.312506860" lon="-96.442498880">
        <ele>2141.300</ele>
        <time>2020-01-25T20:21:32Z</time>
      </trkpt>
      <trkpt lat="17.312507940" lon="-96.442538240">
        <ele>2141.000</ele>
        <time>2020-01-25T20:21:36Z</time>
      </trkpt>
      <trkpt lat="17.312501420" lon="-96.442578500">
        <ele>2140.600</ele>
        <time>2020-01-25T20:21:40Z</time>
      </trkpt>
      <trkpt lat="17.312485390" lon="-96.442618020">
        <ele>2140.300</ele>
        <time>2020-01-25T20:21:44Z</time>
      </trkpt>
      <trkpt lat="17.312475200" lon="-96.442657570">
        <ele>2140.800</ele>
        <time>2020-01-25T20:21:48Z</time>
      </trkpt>
      <trkpt lat="17.312467710" lon="-96.442696110">
        <ele>2139.900</ele>
        <time>2020-01-25T20:21:52Z</time>
      </trkpt>
      <trkpt lat="17.312450680" lon="-96.442735700">
        <ele>2140.800</ele>
        <time>2020-01-25T20:21:56Z</time>
      </trkpt>
      <trkpt lat="17.312456760" lon="-96.442773840">
        <ele>2141.000</ele>
        <time>2020-01-25T20:21:59Z</time>
      </trkpt>
      <trkpt lat="17.312469520" lon="-96.442810110">
        <ele>2138.700</ele>
        <time>2020-01-25T20:22:02Z</time>
      </trkpt>
      <trkpt lat="17.312478650" lon="-96.442853640">
        <ele>2137.600</ele>
        <time>2020-01-25T20:22:06Z</time>
      </trkpt>
      <trkpt lat="17.312479390" lon="-96.442900890">
        <ele>2137.500</ele>
        <time>2020-01-25T20:22:10Z</time>
      </trkpt>
      <trkpt lat="17.312473790" lon="-96.442942390">
        <ele>2137.300</ele>
        <time>2020-01-25T20:22:14Z</time>
      </trkpt>
      <trkpt lat="17.312473600" lon="-96.442980750">
        <ele>2135.800</ele>
        <time>2020-01-25T20:22:18Z</time>
      </trkpt>
      <trkpt lat="17.312473930" lon="-96.443025600">
        <ele>2136.700</ele>
        <time>2020-01-25T20:22:23Z</time>
      </trkpt>
      <trkpt lat="17.312460440" lon="-96.443061270">
        <ele>2136.100</ele>
        <time>2020-01-25T20:22:27Z</time>
      </trkpt>
      <trkpt lat="17.312443720" lon="-96.443097540">
        <ele>2135.000</ele>
        <time>2020-01-25T20:22:31Z</time>
      </trkpt>
      <trkpt lat="17.312429340" lon="-96.443135190">
        <ele>2133.900</ele>
        <time>2020-01-25T20:22:35Z</time>
      </trkpt>
      <trkpt lat="17.312407610" lon="-96.443177320">
        <ele>2132.800</ele>
        <time>2020-01-25T20:22:40Z</time>
      </trkpt>
      <trkpt lat="17.312380690" lon="-96.443213770">
        <ele>2133.800</ele>
        <time>2020-01-25T20:22:45Z</time>
      </trkpt>
      <trkpt lat="17.312355790" lon="-96.443253940">
        <ele>2133.400</ele>
        <time>2020-01-25T20:22:50Z</time>
      </trkpt>
      <trkpt lat="17.312332050" lon="-96.443285550">
        <ele>2132.700</ele>
        <time>2020-01-25T20:22:54Z</time>
      </trkpt>
      <trkpt lat="17.312309060" lon="-96.443324070">
        <ele>2132.000</ele>
        <time>2020-01-25T20:22:58Z</time>
      </trkpt>
      <trkpt lat="17.312294080" lon="-96.443361380">
        <ele>2130.900</ele>
        <time>2020-01-25T20:23:02Z</time>
      </trkpt>
      <trkpt lat="17.312265440" lon="-96.443394940">
        <ele>2130.800</ele>
        <time>2020-01-25T20:23:07Z</time>
      </trkpt>
      <trkpt lat="17.312247240" lon="-96.443432040">
        <ele>2129.700</ele>
        <time>2020-01-25T20:23:11Z</time>
      </trkpt>
      <trkpt lat="17.312215340" lon="-96.443464800">
        <ele>2127.900</ele>
        <time>2020-01-25T20:23:15Z</time>
      </trkpt>
      <trkpt lat="17.312188670" lon="-96.443490670">
        <ele>2128.500</ele>
        <time>2020-01-25T20:23:19Z</time>
      </trkpt>
      <trkpt lat="17.312165830" lon="-96.443528340">
        <ele>2128.400</ele>
        <time>2020-01-25T20:23:23Z</time>
      </trkpt>
      <trkpt lat="17.312157210" lon="-96.443578150">
        <ele>2127.400</ele>
        <time>2020-01-25T20:23:27Z</time>
      </trkpt>
      <trkpt lat="17.312162570" lon="-96.443626440">
        <ele>2126.100</ele>
        <time>2020-01-25T20:23:31Z</time>
      </trkpt>
      <trkpt lat="17.312174080" lon="-96.443674530">
        <ele>2125.100</ele>
        <time>2020-01-25T20:23:35Z</time>
      </trkpt>
      <trkpt lat="17.312200680" lon="-96.443707820">
        <ele>2124.700</ele>
        <time>2020-01-25T20:23:39Z</time>
      </trkpt>
      <trkpt lat="17.312236490" lon="-96.443735020">
        <ele>2122.800</ele>
        <time>2020-01-25T20:23:43Z</time>
      </trkpt>
      <trkpt lat="17.312264450" lon="-96.443759210">
        <ele>2123.200</ele>
        <time>2020-01-25T20:23:47Z</time>
      </trkpt>
      <trkpt lat="17.312290390" lon="-96.443792150">
        <ele>2120.600</ele>
        <time>2020-01-25T20:23:51Z</time>
      </trkpt>
      <trkpt lat="17.312313480" lon="-96.443823920">
        <ele>2118.600</ele>
        <time>2020-01-25T20:23:55Z</time>
      </trkpt>
      <trkpt lat="17.312331580" lon="-96.443868040">
        <ele>2118.700</ele>
        <time>2020-01-25T20:23:59Z</time>
      </trkpt>
      <trkpt lat="17.312344630" lon="-96.443912250">
        <ele>2117.800</ele>
        <time>2020-01-25T20:24:03Z</time>
      </trkpt>
      <trkpt lat="17.312352670" lon="-96.443959190">
        <ele>2116.800</ele>
        <time>2020-01-25T20:24:08Z</time>
      </trkpt>
      <trkpt lat="17.312359790" lon="-96.443997670">
        <ele>2114.600</ele>
        <time>2020-01-25T20:24:12Z</time>
      </trkpt>
      <trkpt lat="17.312366150" lon="-96.444035660">
        <ele>2112.900</ele>
        <time>2020-01-25T20:24:17Z</time>
      </trkpt>
      <trkpt lat="17.312363820" lon="-96.444082190">
        <ele>2112.200</ele>
        <time>2020-01-25T20:24:22Z</time>
      </trkpt>
      <trkpt lat="17.312359810" lon="-96.444124600">
        <ele>2112.700</ele>
        <time>2020-01-25T20:24:26Z</time>
      </trkpt>
      <trkpt lat="17.312355670" lon="-96.444166020">
        <ele>2110.900</ele>
        <time>2020-01-25T20:24:30Z</time>
      </trkpt>
      <trkpt lat="17.312353140" lon="-96.444205180">
        <ele>2111.100</ele>
        <time>2020-01-25T20:24:35Z</time>
      </trkpt>
      <trkpt lat="17.312357770" lon="-96.444243390">
        <ele>2109.600</ele>
        <time>2020-01-25T20:24:39Z</time>
      </trkpt>
      <trkpt lat="17.312360180" lon="-96.444286570">
        <ele>2111.100</ele>
        <time>2020-01-25T20:24:44Z</time>
      </trkpt>
      <trkpt lat="17.312363560" lon="-96.444327550">
        <ele>2111.000</ele>
        <time>2020-01-25T20:24:48Z</time>
      </trkpt>
      <trkpt lat="17.312361470" lon="-96.444369670">
        <ele>2110.900</ele>
        <time>2020-01-25T20:24:52Z</time>
      </trkpt>
      <trkpt lat="17.312364140" lon="-96.444410500">
        <ele>2110.200</ele>
        <time>2020-01-25T20:24:56Z</time>
      </trkpt>
      <trkpt lat="17.312367740" lon="-96.444448590">
        <ele>2109.200</ele>
        <time>2020-01-25T20:25:00Z</time>
      </trkpt>
      <trkpt lat="17.312375430" lon="-96.444493070">
        <ele>2108.200</ele>
        <time>2020-01-25T20:25:05Z</time>
      </trkpt>
      <trkpt lat="17.312393540" lon="-96.444526420">
        <ele>2105.600</ele>
        <time>2020-01-25T20:25:09Z</time>
      </trkpt>
      <trkpt lat="17.312412160" lon="-96.444573140">
        <ele>2106.300</ele>
        <time>2020-01-25T20:25:13Z</time>
      </trkpt>
      <trkpt lat="17.312426400" lon="-96.444610040">
        <ele>2106.200</ele>
        <time>2020-01-25T20:25:16Z</time>
      </trkpt>
      <trkpt lat="17.312449160" lon="-96.444643840">
        <ele>2106.700</ele>
        <time>2020-01-25T20:25:20Z</time>
      </trkpt>
      <trkpt lat="17.312476000" lon="-96.444682100">
        <ele>2106.300</ele>
        <time>2020-01-25T20:25:24Z</time>
      </trkpt>
      <trkpt lat="17.312495370" lon="-96.444722230">
        <ele>2106.700</ele>
        <time>2020-01-25T20:25:28Z</time>
      </trkpt>
      <trkpt lat="17.312515100" lon="-96.444757780">
        <ele>2106.200</ele>
        <time>2020-01-25T20:25:32Z</time>
      </trkpt>
      <trkpt lat="17.312540580" lon="-96.444794870">
        <ele>2105.900</ele>
        <time>2020-01-25T20:25:36Z</time>
      </trkpt>
      <trkpt lat="17.312567320" lon="-96.444821330">
        <ele>2104.300</ele>
        <time>2020-01-25T20:25:39Z</time>
      </trkpt>
      <trkpt lat="17.312585530" lon="-96.444855120">
        <ele>2103.400</ele>
        <time>2020-01-25T20:25:43Z</time>
      </trkpt>
      <trkpt lat="17.312608480" lon="-96.444888400">
        <ele>2104.400</ele>
        <time>2020-01-25T20:25:48Z</time>
      </trkpt>
      <trkpt lat="17.312632710" lon="-96.444917220">
        <ele>2103.800</ele>
        <time>2020-01-25T20:25:52Z</time>
      </trkpt>
      <trkpt lat="17.312663200" lon="-96.444954420">
        <ele>2102.000</ele>
        <time>2020-01-25T20:25:56Z</time>
      </trkpt>
      <trkpt lat="17.312695940" lon="-96.444986220">
        <ele>2100.500</ele>
        <time>2020-01-25T20:26:00Z</time>
      </trkpt>
      <trkpt lat="17.312726190" lon="-96.445013760">
        <ele>2099.900</ele>
        <time>2020-01-25T20:26:04Z</time>
      </trkpt>
      <trkpt lat="17.312742610" lon="-96.445047900">
        <ele>2099.400</ele>
        <time>2020-01-25T20:26:07Z</time>
      </trkpt>
      <trkpt lat="17.312768730" lon="-96.445078840">
        <ele>2099.100</ele>
        <time>2020-01-25T20:26:11Z</time>
      </trkpt>
      <trkpt lat="17.312798080" lon="-96.445111910">
        <ele>2098.400</ele>
        <time>2020-01-25T20:26:15Z</time>
      </trkpt>
      <trkpt lat="17.312825910" lon="-96.445145240">
        <ele>2097.200</ele>
        <time>2020-01-25T20:26:19Z</time>
      </trkpt>
      <trkpt lat="17.312845630" lon="-96.445184120">
        <ele>2097.300</ele>
        <time>2020-01-25T20:26:23Z</time>
      </trkpt>
      <trkpt lat="17.312871420" lon="-96.445217790">
        <ele>2096.700</ele>
        <time>2020-01-25T20:26:27Z</time>
      </trkpt>
      <trkpt lat="17.312890430" lon="-96.445257660">
        <ele>2095.700</ele>
        <time>2020-01-25T20:26:32Z</time>
      </trkpt>
      <trkpt lat="17.312914940" lon="-96.445296300">
        <ele>2095.900</ele>
        <time>2020-01-25T20:26:37Z</time>
      </trkpt>
      <trkpt lat="17.312942820" lon="-96.445325400">
        <ele>2095.900</ele>
        <time>2020-01-25T20:26:41Z</time>
      </trkpt>
      <trkpt lat="17.312961030" lon="-96.445360720">
        <ele>2095.900</ele>
        <time>2020-01-25T20:26:45Z</time>
      </trkpt>
      <trkpt lat="17.312983880" lon="-96.445391870">
        <ele>2095.100</ele>
        <time>2020-01-25T20:26:49Z</time>
      </trkpt>
      <trkpt lat="17.313000220" lon="-96.445426290">
        <ele>2095.200</ele>
        <time>2020-01-25T20:26:53Z</time>
      </trkpt>
      <trkpt lat="17.313010680" lon="-96.445470740">
        <ele>2093.400</ele>
        <time>2020-01-25T20:26:57Z</time>
      </trkpt>
      <trkpt lat="17.313005610" lon="-96.445510060">
        <ele>2093.000</ele>
        <time>2020-01-25T20:27:01Z</time>
      </trkpt>
      <trkpt lat="17.312993580" lon="-96.445546870">
        <ele>2093.100</ele>
        <time>2020-01-25T20:27:05Z</time>
      </trkpt>
      <trkpt lat="17.312972570" lon="-96.445578400">
        <ele>2092.700</ele>
        <time>2020-01-25T20:27:09Z</time>
      </trkpt>
      <trkpt lat="17.312941020" lon="-96.445606650">
        <ele>2091.400</ele>
        <time>2020-01-25T20:27:13Z</time>
      </trkpt>
      <trkpt lat="17.312906650" lon="-96.445629930">
        <ele>2090.600</ele>
        <time>2020-01-25T20:27:17Z</time>
      </trkpt>
      <trkpt lat="17.312875690" lon="-96.445654550">
        <ele>2090.900</ele>
        <time>2020-01-25T20:27:21Z</time>
      </trkpt>
      <trkpt lat="17.312839460" lon="-96.445671480">
        <ele>2090.100</ele>
        <time>2020-01-25T20:27:25Z</time>
      </trkpt>
      <trkpt lat="17.312805860" lon="-96.445693060">
        <ele>2090.100</ele>
        <time>2020-01-25T20:27:29Z</time>
      </trkpt>
      <trkpt lat="17.312770970" lon="-96.445726890">
        <ele>2088.700</ele>
        <time>2020-01-25T20:27:34Z</time>
      </trkpt>
      <trkpt lat="17.312735590" lon="-96.445755480">
        <ele>2088.800</ele>
        <time>2020-01-25T20:27:38Z</time>
      </trkpt>
      <trkpt lat="17.312702040" lon="-96.445784350">
        <ele>2087.500</ele>
        <time>2020-01-25T20:27:42Z</time>
      </trkpt>
      <trkpt lat="17.312686480" lon="-96.445825030">
        <ele>2086.900</ele>
        <time>2020-01-25T20:27:46Z</time>
      </trkpt>
      <trkpt lat="17.312704980" lon="-96.445858430">
        <ele>2086.600</ele>
        <time>2020-01-25T20:27:50Z</time>
      </trkpt>
      <trkpt lat="17.312665540" lon="-96.445846750">
        <ele>2086.300</ele>
        <time>2020-01-25T20:30:45Z</time>
      </trkpt>
      <trkpt lat="17.312625290" lon="-96.445846090">
        <ele>2086.700</ele>
        <time>2020-01-25T20:30:49Z</time>
      </trkpt>
      <trkpt lat="17.312581840" lon="-96.445834550">
        <ele>2086.600</ele>
        <time>2020-01-25T20:30:53Z</time>
      </trkpt>
      <trkpt lat="17.312541860" lon="-96.445837000">
        <ele>2086.300</ele>
        <time>2020-01-25T20:30:57Z</time>
      </trkpt>
      <trkpt lat="17.312494990" lon="-96.445832010">
        <ele>2087.100</ele>
        <time>2020-01-25T20:31:02Z</time>
      </trkpt>
      <trkpt lat="17.312457170" lon="-96.445829150">
        <ele>2086.500</ele>
        <time>2020-01-25T20:31:06Z</time>
      </trkpt>
      <trkpt lat="17.312415350" lon="-96.445824720">
        <ele>2086.600</ele>
        <time>2020-01-25T20:31:11Z</time>
      </trkpt>
      <trkpt lat="17.312371580" lon="-96.445822330">
        <ele>2086.900</ele>
        <time>2020-01-25T20:31:15Z</time>
      </trkpt>
      <trkpt lat="17.312335030" lon="-96.445819330">
        <ele>2086.800</ele>
        <time>2020-01-25T20:31:18Z</time>
      </trkpt>
      <trkpt lat="17.312296410" lon="-96.445814890">
        <ele>2087.200</ele>
        <time>2020-01-25T20:31:22Z</time>
      </trkpt>
      <trkpt lat="17.312255220" lon="-96.445810470">
        <ele>2085.800</ele>
        <time>2020-01-25T20:31:26Z</time>
      </trkpt>
      <trkpt lat="17.312215850" lon="-96.445805710">
        <ele>2085.900</ele>
        <time>2020-01-25T20:31:30Z</time>
      </trkpt>
      <trkpt lat="17.312172780" lon="-96.445810100">
        <ele>2085.800</ele>
        <time>2020-01-25T20:31:34Z</time>
      </trkpt>
      <trkpt lat="17.312135370" lon="-96.445812640">
        <ele>2085.300</ele>
        <time>2020-01-25T20:31:38Z</time>
      </trkpt>
      <trkpt lat="17.312095570" lon="-96.445813690">
        <ele>2084.400</ele>
        <time>2020-01-25T20:31:42Z</time>
      </trkpt>
      <trkpt lat="17.312051570" lon="-96.445814960">
        <ele>2084.400</ele>
        <time>2020-01-25T20:31:47Z</time>
      </trkpt>
      <trkpt lat="17.312007840" lon="-96.445814720">
        <ele>2083.600</ele>
        <time>2020-01-25T20:31:52Z</time>
      </trkpt>
      <trkpt lat="17.311971680" lon="-96.445810110">
        <ele>2083.000</ele>
        <time>2020-01-25T20:31:56Z</time>
      </trkpt>
      <trkpt lat="17.311931310" lon="-96.445803870">
        <ele>2082.800</ele>
        <time>2020-01-25T20:32:00Z</time>
      </trkpt>
      <trkpt lat="17.311894460" lon="-96.445802140">
        <ele>2080.600</ele>
        <time>2020-01-25T20:32:04Z</time>
      </trkpt>
      <trkpt lat="17.311849490" lon="-96.445802520">
        <ele>2080.500</ele>
        <time>2020-01-25T20:32:09Z</time>
      </trkpt>
      <trkpt lat="17.311810170" lon="-96.445804670">
        <ele>2135.600</ele>
        <time>2020-01-25T20:32:13Z</time>
      </trkpt>
      <trkpt lat="17.311768960" lon="-96.445802840">
        <ele>2090.500</ele>
        <time>2020-01-25T20:32:18Z</time>
      </trkpt>
      <trkpt lat="17.311723800" lon="-96.445799520">
        <ele>2083.200</ele>
        <time>2020-01-25T20:32:23Z</time>
      </trkpt>
      <trkpt lat="17.311684700" lon="-96.445806230">
        <ele>2081.000</ele>
        <time>2020-01-25T20:32:27Z</time>
      </trkpt>
      <trkpt lat="17.311642540" lon="-96.445811180">
        <ele>2078.600</ele>
        <time>2020-01-25T20:32:31Z</time>
      </trkpt>
      <trkpt lat="17.311605570" lon="-96.445814590">
        <ele>2077.500</ele>
        <time>2020-01-25T20:32:35Z</time>
      </trkpt>
      <trkpt lat="17.311560700" lon="-96.445813620">
        <ele>2077.000</ele>
        <time>2020-01-25T20:32:40Z</time>
      </trkpt>
      <trkpt lat="17.311523140" lon="-96.445819810">
        <ele>2075.300</ele>
        <time>2020-01-25T20:32:44Z</time>
      </trkpt>
      <trkpt lat="17.311484930" lon="-96.445833170">
        <ele>2073.900</ele>
        <time>2020-01-25T20:32:49Z</time>
      </trkpt>
      <trkpt lat="17.311446230" lon="-96.445831680">
        <ele>2073.000</ele>
        <time>2020-01-25T20:32:53Z</time>
      </trkpt>
      <trkpt lat="17.311402990" lon="-96.445836520">
        <ele>2071.400</ele>
        <time>2020-01-25T20:32:58Z</time>
      </trkpt>
      <trkpt lat="17.311366160" lon="-96.445831030">
        <ele>2072.300</ele>
        <time>2020-01-25T20:33:02Z</time>
      </trkpt>
      <trkpt lat="17.311323020" lon="-96.445828090">
        <ele>2071.200</ele>
        <time>2020-01-25T20:33:07Z</time>
      </trkpt>
      <trkpt lat="17.311284780" lon="-96.445828170">
        <ele>2072.100</ele>
        <time>2020-01-25T20:33:11Z</time>
      </trkpt>
      <trkpt lat="17.311247340" lon="-96.445824170">
        <ele>2071.900</ele>
        <time>2020-01-25T20:33:15Z</time>
      </trkpt>
      <trkpt lat="17.311205790" lon="-96.445817520">
        <ele>2071.900</ele>
        <time>2020-01-25T20:33:19Z</time>
      </trkpt>
      <trkpt lat="17.311158770" lon="-96.445817510">
        <ele>2071.300</ele>
        <time>2020-01-25T20:33:23Z</time>
      </trkpt>
      <trkpt lat="17.311114150" lon="-96.445814850">
        <ele>2070.000</ele>
        <time>2020-01-25T20:33:27Z</time>
      </trkpt>
      <trkpt lat="17.311069930" lon="-96.445802460">
        <ele>2069.300</ele>
        <time>2020-01-25T20:33:31Z</time>
      </trkpt>
      <trkpt lat="17.311028190" lon="-96.445788250">
        <ele>2068.900</ele>
        <time>2020-01-25T20:33:36Z</time>
      </trkpt>
      <trkpt lat="17.310991190" lon="-96.445796040">
        <ele>2068.400</ele>
        <time>2020-01-25T20:33:40Z</time>
      </trkpt>
      <trkpt lat="17.310951080" lon="-96.445803340">
        <ele>2066.800</ele>
        <time>2020-01-25T20:33:44Z</time>
      </trkpt>
      <trkpt lat="17.310905380" lon="-96.445817780">
        <ele>2066.400</ele>
        <time>2020-01-25T20:33:48Z</time>
      </trkpt>
      <trkpt lat="17.310862760" lon="-96.445831830">
        <ele>2065.800</ele>
        <time>2020-01-25T20:33:52Z</time>
      </trkpt>
      <trkpt lat="17.310827820" lon="-96.445846970">
        <ele>2066.400</ele>
        <time>2020-01-25T20:33:55Z</time>
      </trkpt>
      <trkpt lat="17.310787240" lon="-96.445869300">
        <ele>2066.600</ele>
        <time>2020-01-25T20:33:59Z</time>
      </trkpt>
      <trkpt lat="17.310753110" lon="-96.445894360">
        <ele>2067.000</ele>
        <time>2020-01-25T20:34:03Z</time>
      </trkpt>
      <trkpt lat="17.310727130" lon="-96.445922920">
        <ele>2066.000</ele>
        <time>2020-01-25T20:34:07Z</time>
      </trkpt>
      <trkpt lat="17.310692820" lon="-96.445948540">
        <ele>2066.800</ele>
        <time>2020-01-25T20:34:11Z</time>
      </trkpt>
      <trkpt lat="17.310658040" lon="-96.445972130">
        <ele>2065.900</ele>
        <time>2020-01-25T20:34:15Z</time>
      </trkpt>
      <trkpt lat="17.310623930" lon="-96.446000700">
        <ele>2066.200</ele>
        <time>2020-01-25T20:34:19Z</time>
      </trkpt>
      <trkpt lat="17.310592090" lon="-96.446031710">
        <ele>2067.000</ele>
        <time>2020-01-25T20:34:23Z</time>
      </trkpt>
      <trkpt lat="17.310556700" lon="-96.446057720">
        <ele>2065.900</ele>
        <time>2020-01-25T20:34:27Z</time>
      </trkpt>
      <trkpt lat="17.310520510" lon="-96.446078720">
        <ele>2065.300</ele>
        <time>2020-01-25T20:34:31Z</time>
      </trkpt>
      <trkpt lat="17.310485590" lon="-96.446103030">
        <ele>2064.500</ele>
        <time>2020-01-25T20:34:35Z</time>
      </trkpt>
      <trkpt lat="17.310449350" lon="-96.446129300">
        <ele>2063.200</ele>
        <time>2020-01-25T20:34:39Z</time>
      </trkpt>
      <trkpt lat="17.310422470" lon="-96.446162520">
        <ele>2063.300</ele>
        <time>2020-01-25T20:34:53Z</time>
      </trkpt>
      <trkpt lat="17.310384250" lon="-96.446179950">
        <ele>2063.000</ele>
        <time>2020-01-25T20:34:57Z</time>
      </trkpt>
      <trkpt lat="17.310350460" lon="-96.446205520">
        <ele>2062.400</ele>
        <time>2020-01-25T20:35:01Z</time>
      </trkpt>
      <trkpt lat="17.310312110" lon="-96.446229210">
        <ele>2062.100</ele>
        <time>2020-01-25T20:35:05Z</time>
      </trkpt>
      <trkpt lat="17.310278280" lon="-96.446251680">
        <ele>2063.500</ele>
        <time>2020-01-25T20:35:09Z</time>
      </trkpt>
      <trkpt lat="17.310238030" lon="-96.446271090">
        <ele>2062.500</ele>
        <time>2020-01-25T20:35:13Z</time>
      </trkpt>
      <trkpt lat="17.310208660" lon="-96.446295930">
        <ele>2062.100</ele>
        <time>2020-01-25T20:35:29Z</time>
      </trkpt>
      <trkpt lat="17.310173930" lon="-96.446307870">
        <ele>2061.000</ele>
        <time>2020-01-25T20:35:40Z</time>
      </trkpt>
      <trkpt lat="17.310136070" lon="-96.446319080">
        <ele>2060.500</ele>
        <time>2020-01-25T20:35:44Z</time>
      </trkpt>
      <trkpt lat="17.310096900" lon="-96.446320440">
        <ele>2060.900</ele>
        <time>2020-01-25T20:35:57Z</time>
      </trkpt>
      <trkpt lat="17.310053340" lon="-96.446321960">
        <ele>2061.600</ele>
        <time>2020-01-25T20:36:02Z</time>
      </trkpt>
      <trkpt lat="17.310013750" lon="-96.446317480">
        <ele>2063.300</ele>
        <time>2020-01-25T20:36:06Z</time>
      </trkpt>
      <trkpt lat="17.309972550" lon="-96.446315300">
        <ele>2063.600</ele>
        <time>2020-01-25T20:36:10Z</time>
      </trkpt>
      <trkpt lat="17.309929530" lon="-96.446315720">
        <ele>2064.900</ele>
        <time>2020-01-25T20:36:14Z</time>
      </trkpt>
      <trkpt lat="17.309888980" lon="-96.446318960">
        <ele>2103.000</ele>
        <time>2020-01-25T20:36:18Z</time>
      </trkpt>
      <trkpt lat="17.309850210" lon="-96.446320420">
        <ele>2078.700</ele>
        <time>2020-01-25T20:36:22Z</time>
      </trkpt>
      <trkpt lat="17.309813290" lon="-96.446322180">
        <ele>2073.200</ele>
        <time>2020-01-25T20:36:26Z</time>
      </trkpt>
      <trkpt lat="17.309776740" lon="-96.446324270">
        <ele>2071.400</ele>
        <time>2020-01-25T20:36:30Z</time>
      </trkpt>
      <trkpt lat="17.309731580" lon="-96.446332350">
        <ele>2068.700</ele>
        <time>2020-01-25T20:36:34Z</time>
      </trkpt>
      <trkpt lat="17.309686030" lon="-96.446335790">
        <ele>2067.600</ele>
        <time>2020-01-25T20:36:38Z</time>
      </trkpt>
      <trkpt lat="17.309641510" lon="-96.446337650">
        <ele>2066.200</ele>
        <time>2020-01-25T20:36:42Z</time>
      </trkpt>
      <trkpt lat="17.309601140" lon="-96.446339560">
        <ele>2065.400</ele>
        <time>2020-01-25T20:36:46Z</time>
      </trkpt>
      <trkpt lat="17.309554900" lon="-96.446340800">
        <ele>2065.100</ele>
        <time>2020-01-25T20:36:51Z</time>
      </trkpt>
      <trkpt lat="17.309516060" lon="-96.446338400">
        <ele>2065.600</ele>
        <time>2020-01-25T20:36:55Z</time>
      </trkpt>
      <trkpt lat="17.309475090" lon="-96.446332330">
        <ele>2065.900</ele>
        <time>2020-01-25T20:36:59Z</time>
      </trkpt>
      <trkpt lat="17.309430650" lon="-96.446334140">
        <ele>2066.200</ele>
        <time>2020-01-25T20:37:04Z</time>
      </trkpt>
      <trkpt lat="17.309386620" lon="-96.446341860">
        <ele>2066.200</ele>
        <time>2020-01-25T20:37:09Z</time>
      </trkpt>
      <trkpt lat="17.309349530" lon="-96.446336810">
        <ele>2067.000</ele>
        <time>2020-01-25T20:37:13Z</time>
      </trkpt>
      <trkpt lat="17.309312140" lon="-96.446333600">
        <ele>2065.900</ele>
        <time>2020-01-25T20:37:17Z</time>
      </trkpt>
      <trkpt lat="17.309267120" lon="-96.446337610">
        <ele>2063.100</ele>
        <time>2020-01-25T20:37:22Z</time>
      </trkpt>
      <trkpt lat="17.309229190" lon="-96.446343380">
        <ele>2063.100</ele>
        <time>2020-01-25T20:37:26Z</time>
      </trkpt>
      <trkpt lat="17.309189820" lon="-96.446347600">
        <ele>2062.600</ele>
        <time>2020-01-25T20:37:30Z</time>
      </trkpt>
      <trkpt lat="17.309150730" lon="-96.446354140">
        <ele>2062.800</ele>
        <time>2020-01-25T20:37:34Z</time>
      </trkpt>
      <trkpt lat="17.309109900" lon="-96.446366660">
        <ele>2060.800</ele>
        <time>2020-01-25T20:37:39Z</time>
      </trkpt>
      <trkpt lat="17.309068410" lon="-96.446376600">
        <ele>2061.300</ele>
        <time>2020-01-25T20:37:44Z</time>
      </trkpt>
      <trkpt lat="17.309031950" lon="-96.446378200">
        <ele>2060.100</ele>
        <time>2020-01-25T20:37:48Z</time>
      </trkpt>
      <trkpt lat="17.308990190" lon="-96.446378790">
        <ele>2060.100</ele>
        <time>2020-01-25T20:37:53Z</time>
      </trkpt>
      <trkpt lat="17.308948200" lon="-96.446378030">
        <ele>2058.300</ele>
        <time>2020-01-25T20:37:58Z</time>
      </trkpt>
      <trkpt lat="17.308908290" lon="-96.446376850">
        <ele>2056.100</ele>
        <time>2020-01-25T20:38:03Z</time>
      </trkpt>
      <trkpt lat="17.308870740" lon="-96.446383960">
        <ele>2080.700</ele>
        <time>2020-01-25T20:38:07Z</time>
      </trkpt>
      <trkpt lat="17.308831270" lon="-96.446390360">
        <ele>2063.200</ele>
        <time>2020-01-25T20:38:11Z</time>
      </trkpt>
      <trkpt lat="17.308788180" lon="-96.446381170">
        <ele>2056.500</ele>
        <time>2020-01-25T20:38:16Z</time>
      </trkpt>
      <trkpt lat="17.308751640" lon="-96.446373110">
        <ele>2054.100</ele>
        <time>2020-01-25T20:38:20Z</time>
      </trkpt>
      <trkpt lat="17.308717800" lon="-96.446355700">
        <ele>2052.800</ele>
        <time>2020-01-25T20:38:24Z</time>
      </trkpt>
      <trkpt lat="17.308684110" lon="-96.446334260">
        <ele>2051.800</ele>
        <time>2020-01-25T20:38:28Z</time>
      </trkpt>
      <trkpt lat="17.308640970" lon="-96.446325580">
        <ele>2051.500</ele>
        <time>2020-01-25T20:38:33Z</time>
      </trkpt>
      <trkpt lat="17.308600600" lon="-96.446319960">
        <ele>2048.800</ele>
        <time>2020-01-25T20:38:38Z</time>
      </trkpt>
      <trkpt lat="17.308564000" lon="-96.446312230">
        <ele>2047.300</ele>
        <time>2020-01-25T20:38:42Z</time>
      </trkpt>
      <trkpt lat="17.308520880" lon="-96.446303970">
        <ele>2047.200</ele>
        <time>2020-01-25T20:38:47Z</time>
      </trkpt>
      <trkpt lat="17.308485590" lon="-96.446295660">
        <ele>2046.200</ele>
        <time>2020-01-25T20:38:51Z</time>
      </trkpt>
      <trkpt lat="17.308441430" lon="-96.446283760">
        <ele>2045.500</ele>
        <time>2020-01-25T20:38:56Z</time>
      </trkpt>
      <trkpt lat="17.308401980" lon="-96.446273200">
        <ele>2045.300</ele>
        <time>2020-01-25T20:39:00Z</time>
      </trkpt>
      <trkpt lat="17.308359170" lon="-96.446266410">
        <ele>2045.700</ele>
        <time>2020-01-25T20:39:04Z</time>
      </trkpt>
      <trkpt lat="17.308314610" lon="-96.446264800">
        <ele>2047.300</ele>
        <time>2020-01-25T20:39:08Z</time>
      </trkpt>
      <trkpt lat="17.308273370" lon="-96.446268160">
        <ele>2046.800</ele>
        <time>2020-01-25T20:39:12Z</time>
      </trkpt>
      <trkpt lat="17.308233220" lon="-96.446255700">
        <ele>2048.300</ele>
        <time>2020-01-25T20:39:16Z</time>
      </trkpt>
      <trkpt lat="17.308190840" lon="-96.446255110">
        <ele>2049.200</ele>
        <time>2020-01-25T20:39:20Z</time>
      </trkpt>
      <trkpt lat="17.308151810" lon="-96.446242530">
        <ele>2049.400</ele>
        <time>2020-01-25T20:39:24Z</time>
      </trkpt>
      <trkpt lat="17.308108780" lon="-96.446238950">
        <ele>2048.800</ele>
        <time>2020-01-25T20:39:28Z</time>
      </trkpt>
      <trkpt lat="17.308065590" lon="-96.446233380">
        <ele>2048.600</ele>
        <time>2020-01-25T20:39:32Z</time>
      </trkpt>
      <trkpt lat="17.308025170" lon="-96.446226910">
        <ele>2049.600</ele>
        <time>2020-01-25T20:39:36Z</time>
      </trkpt>
      <trkpt lat="17.307986310" lon="-96.446222150">
        <ele>2048.300</ele>
        <time>2020-01-25T20:39:40Z</time>
      </trkpt>
      <trkpt lat="17.307946980" lon="-96.446215660">
        <ele>2048.000</ele>
        <time>2020-01-25T20:39:44Z</time>
      </trkpt>
      <trkpt lat="17.307906570" lon="-96.446212730">
        <ele>2047.600</ele>
        <time>2020-01-25T20:39:48Z</time>
      </trkpt>
      <trkpt lat="17.307868030" lon="-96.446211180">
        <ele>2047.900</ele>
        <time>2020-01-25T20:39:52Z</time>
      </trkpt>
      <trkpt lat="17.307830470" lon="-96.446212000">
        <ele>2067.700</ele>
        <time>2020-01-25T20:39:56Z</time>
      </trkpt>
      <trkpt lat="17.307793540" lon="-96.446213130">
        <ele>2056.100</ele>
        <time>2020-01-25T20:40:00Z</time>
      </trkpt>
      <trkpt lat="17.307753140" lon="-96.446206860">
        <ele>2052.400</ele>
        <time>2020-01-25T20:40:04Z</time>
      </trkpt>
      <trkpt lat="17.307709590" lon="-96.446201510">
        <ele>2050.400</ele>
        <time>2020-01-25T20:40:08Z</time>
      </trkpt>
      <trkpt lat="17.307669950" lon="-96.446202700">
        <ele>2050.200</ele>
        <time>2020-01-25T20:40:12Z</time>
      </trkpt>
      <trkpt lat="17.307631060" lon="-96.446196810">
        <ele>2048.700</ele>
        <time>2020-01-25T20:40:16Z</time>
      </trkpt>
      <trkpt lat="17.307594420" lon="-96.446194530">
        <ele>2047.500</ele>
        <time>2020-01-25T20:40:20Z</time>
      </trkpt>
      <trkpt lat="17.307556610" lon="-96.446198710">
        <ele>2048.500</ele>
        <time>2020-01-25T20:40:24Z</time>
      </trkpt>
      <trkpt lat="17.307512900" lon="-96.446193890">
        <ele>2046.800</ele>
        <time>2020-01-25T20:40:29Z</time>
      </trkpt>
      <trkpt lat="17.307472370" lon="-96.446191420">
        <ele>2045.900</ele>
        <time>2020-01-25T20:40:35Z</time>
      </trkpt>
      <trkpt lat="17.307435700" lon="-96.446181960">
        <ele>2041.600</ele>
        <time>2020-01-25T20:40:40Z</time>
      </trkpt>
      <trkpt lat="17.307395520" lon="-96.446168040">
        <ele>2041.100</ele>
        <time>2020-01-25T20:40:44Z</time>
      </trkpt>
      <trkpt lat="17.307348660" lon="-96.446166690">
        <ele>2043.500</ele>
        <time>2020-01-25T20:40:48Z</time>
      </trkpt>
      <trkpt lat="17.307308910" lon="-96.446156740">
        <ele>2042.900</ele>
        <time>2020-01-25T20:40:52Z</time>
      </trkpt>
      <trkpt lat="17.307272820" lon="-96.446134600">
        <ele>2042.500</ele>
        <time>2020-01-25T20:40:56Z</time>
      </trkpt>
      <trkpt lat="17.307235390" lon="-96.446129210">
        <ele>2040.400</ele>
        <time>2020-01-25T20:41:00Z</time>
      </trkpt>
      <trkpt lat="17.307198010" lon="-96.446122900">
        <ele>2043.300</ele>
        <time>2020-01-25T20:41:04Z</time>
      </trkpt>
      <trkpt lat="17.307155270" lon="-96.446129010">
        <ele>2043.500</ele>
        <time>2020-01-25T20:41:08Z</time>
      </trkpt>
      <trkpt lat="17.307108940" lon="-96.446127130">
        <ele>2044.100</ele>
        <time>2020-01-25T20:41:12Z</time>
      </trkpt>
      <trkpt lat="17.307069970" lon="-96.446119910">
        <ele>2042.500</ele>
        <time>2020-01-25T20:41:16Z</time>
      </trkpt>
      <trkpt lat="17.307027300" lon="-96.446116440">
        <ele>2043.000</ele>
        <time>2020-01-25T20:41:20Z</time>
      </trkpt>
      <trkpt lat="17.306986870" lon="-96.446113490">
        <ele>2043.400</ele>
        <time>2020-01-25T20:41:24Z</time>
      </trkpt>
      <trkpt lat="17.306948220" lon="-96.446112050">
        <ele>2042.400</ele>
        <time>2020-01-25T20:41:28Z</time>
      </trkpt>
      <trkpt lat="17.306905700" lon="-96.446116140">
        <ele>2043.400</ele>
        <time>2020-01-25T20:41:33Z</time>
      </trkpt>
      <trkpt lat="17.306863560" lon="-96.446098300">
        <ele>2041.700</ele>
        <time>2020-01-25T20:41:37Z</time>
      </trkpt>
      <trkpt lat="17.306826940" lon="-96.446079220">
        <ele>2040.300</ele>
        <time>2020-01-25T20:41:41Z</time>
      </trkpt>
      <trkpt lat="17.306791980" lon="-96.446068930">
        <ele>2040.100</ele>
        <time>2020-01-25T20:41:45Z</time>
      </trkpt>
      <trkpt lat="17.306747520" lon="-96.446065570">
        <ele>2041.800</ele>
        <time>2020-01-25T20:41:49Z</time>
      </trkpt>
      <trkpt lat="17.306706130" lon="-96.446061810">
        <ele>2042.100</ele>
        <time>2020-01-25T20:41:53Z</time>
      </trkpt>
      <trkpt lat="17.306665260" lon="-96.446048890">
        <ele>2041.800</ele>
        <time>2020-01-25T20:41:57Z</time>
      </trkpt>
      <trkpt lat="17.306628670" lon="-96.446036440">
        <ele>2041.500</ele>
        <time>2020-01-25T20:42:01Z</time>
      </trkpt>
      <trkpt lat="17.306580620" lon="-96.446037460">
        <ele>2041.300</ele>
        <time>2020-01-25T20:42:05Z</time>
      </trkpt>
      <trkpt lat="17.306537370" lon="-96.446032930">
        <ele>2041.900</ele>
        <time>2020-01-25T20:42:09Z</time>
      </trkpt>
      <trkpt lat="17.306496950" lon="-96.446036630">
        <ele>2042.700</ele>
        <time>2020-01-25T20:42:13Z</time>
      </trkpt>
      <trkpt lat="17.306455730" lon="-96.446029640">
        <ele>2041.300</ele>
        <time>2020-01-25T20:42:17Z</time>
      </trkpt>
      <trkpt lat="17.306417290" lon="-96.446030550">
        <ele>2040.700</ele>
        <time>2020-01-25T20:42:21Z</time>
      </trkpt>
      <trkpt lat="17.306373460" lon="-96.446018930">
        <ele>2040.500</ele>
        <time>2020-01-25T20:42:25Z</time>
      </trkpt>
      <trkpt lat="17.306334470" lon="-96.446012670">
        <ele>2040.600</ele>
        <time>2020-01-25T20:42:29Z</time>
      </trkpt>
      <trkpt lat="17.306291200" lon="-96.446003960">
        <ele>2190.600</ele>
        <time>2020-01-25T20:42:33Z</time>
      </trkpt>
      <trkpt lat="17.306253370" lon="-96.446009870">
        <ele>2070.400</ele>
        <time>2020-01-25T20:42:37Z</time>
      </trkpt>
      <trkpt lat="17.306214070" lon="-96.446006480">
        <ele>2054.800</ele>
        <time>2020-01-25T20:42:41Z</time>
      </trkpt>
      <trkpt lat="17.306180200" lon="-96.445989220">
        <ele>2051.700</ele>
        <time>2020-01-25T20:42:44Z</time>
      </trkpt>
      <trkpt lat="17.306139350" lon="-96.445988710">
        <ele>2048.900</ele>
        <time>2020-01-25T20:42:48Z</time>
      </trkpt>
      <trkpt lat="17.306094180" lon="-96.445984100">
        <ele>2047.300</ele>
        <time>2020-01-25T20:42:52Z</time>
      </trkpt>
      <trkpt lat="17.306049880" lon="-96.445983900">
        <ele>2046.800</ele>
        <time>2020-01-25T20:42:56Z</time>
      </trkpt>
      <trkpt lat="17.306008690" lon="-96.445977050">
        <ele>2046.300</ele>
        <time>2020-01-25T20:43:00Z</time>
      </trkpt>
      <trkpt lat="17.305971080" lon="-96.445973130">
        <ele>2045.000</ele>
        <time>2020-01-25T20:43:04Z</time>
      </trkpt>
      <trkpt lat="17.305937620" lon="-96.445958560">
        <ele>2043.200</ele>
        <time>2020-01-25T20:43:08Z</time>
      </trkpt>
      <trkpt lat="17.305896660" lon="-96.445950060">
        <ele>2042.700</ele>
        <time>2020-01-25T20:43:12Z</time>
      </trkpt>
      <trkpt lat="17.305857400" lon="-96.445947790">
        <ele>2042.700</ele>
        <time>2020-01-25T20:43:16Z</time>
      </trkpt>
      <trkpt lat="17.305818680" lon="-96.445932690">
        <ele>2043.400</ele>
        <time>2020-01-25T20:43:20Z</time>
      </trkpt>
      <trkpt lat="17.305777100" lon="-96.445925910">
        <ele>2043.900</ele>
        <time>2020-01-25T20:43:24Z</time>
      </trkpt>
      <trkpt lat="17.305733950" lon="-96.445917430">
        <ele>2042.900</ele>
        <time>2020-01-25T20:43:29Z</time>
      </trkpt>
      <trkpt lat="17.305693620" lon="-96.445909930">
        <ele>2043.300</ele>
        <time>2020-01-25T20:43:33Z</time>
      </trkpt>
      <trkpt lat="17.305656540" lon="-96.445891760">
        <ele>2043.500</ele>
        <time>2020-01-25T20:43:37Z</time>
      </trkpt>
      <trkpt lat="17.305613260" lon="-96.445879280">
        <ele>2042.600</ele>
        <time>2020-01-25T20:43:42Z</time>
      </trkpt>
      <trkpt lat="17.305571080" lon="-96.445873070">
        <ele>2044.100</ele>
        <time>2020-01-25T20:43:47Z</time>
      </trkpt>
      <trkpt lat="17.305526230" lon="-96.445876180">
        <ele>2045.500</ele>
        <time>2020-01-25T20:43:52Z</time>
      </trkpt>
      <trkpt lat="17.305487290" lon="-96.445880280">
        <ele>2045.100</ele>
        <time>2020-01-25T20:43:55Z</time>
      </trkpt>
      <trkpt lat="17.305447630" lon="-96.445884990">
        <ele>2044.900</ele>
        <time>2020-01-25T20:43:59Z</time>
      </trkpt>
      <trkpt lat="17.305410250" lon="-96.445887880">
        <ele>2044.100</ele>
        <time>2020-01-25T20:44:03Z</time>
      </trkpt>
      <trkpt lat="17.305366080" lon="-96.445891720">
        <ele>2043.700</ele>
        <time>2020-01-25T20:44:08Z</time>
      </trkpt>
      <trkpt lat="17.305326550" lon="-96.445894640">
        <ele>2045.200</ele>
        <time>2020-01-25T20:44:12Z</time>
      </trkpt>
      <trkpt lat="17.305283350" lon="-96.445895380">
        <ele>2045.400</ele>
        <time>2020-01-25T20:44:17Z</time>
      </trkpt>
      <trkpt lat="17.305247000" lon="-96.445904190">
        <ele>2046.200</ele>
        <time>2020-01-25T20:44:21Z</time>
      </trkpt>
      <trkpt lat="17.305209440" lon="-96.445892730">
        <ele>2044.900</ele>
        <time>2020-01-25T20:44:25Z</time>
      </trkpt>
      <trkpt lat="17.305168070" lon="-96.445891890">
        <ele>2045.600</ele>
        <time>2020-01-25T20:44:30Z</time>
      </trkpt>
      <trkpt lat="17.305126830" lon="-96.445882990">
        <ele>2045.200</ele>
        <time>2020-01-25T20:44:35Z</time>
      </trkpt>
      <trkpt lat="17.305090290" lon="-96.445895460">
        <ele>2045.000</ele>
        <time>2020-01-25T20:44:39Z</time>
      </trkpt>
      <trkpt lat="17.305052050" lon="-96.445902620">
        <ele>2044.700</ele>
        <time>2020-01-25T20:44:43Z</time>
      </trkpt>
      <trkpt lat="17.305012540" lon="-96.445905630">
        <ele>2045.500</ele>
        <time>2020-01-25T20:44:48Z</time>
      </trkpt>
      <trkpt lat="17.304999680" lon="-96.445868610">
        <ele>2045.900</ele>
        <time>2020-01-25T20:44:58Z</time>
      </trkpt>
      <trkpt lat="17.305036610" lon="-96.445878050">
        <ele>2046.000</ele>
        <time>2020-01-25T20:45:05Z</time>
      </trkpt>
      <trkpt lat="17.305015820" lon="-96.445842050">
        <ele>2046.800</ele>
        <time>2020-01-25T20:45:16Z</time>
      </trkpt>
      <trkpt lat="17.305052150" lon="-96.445825600">
        <ele>2048.000</ele>
        <time>2020-01-25T20:45:26Z</time>
      </trkpt>
      <trkpt lat="17.305090710" lon="-96.445822330">
        <ele>2049.200</ele>
        <time>2020-01-25T20:45:33Z</time>
      </trkpt>
      <trkpt lat="17.305126030" lon="-96.445814280">
        <ele>2049.200</ele>
        <time>2020-01-25T20:45:43Z</time>
      </trkpt>
      <trkpt lat="17.305126190" lon="-96.445822150">
        <ele>2049.000</ele>
        <time>2020-01-25T20:46:47Z</time>
      </trkpt>
    </trkseg>
  </trk>
</gpx>
